Provisional Data: Lackawanna River near Forest City, PA


Please select a monitoring station.
Please select start date.
Please select start date.

Toggle Unit: C/F Toggle Unit: C/F
Sample Time Temperature (C) Temperature (F) Specific Conductivity (mS/cm) pH   Turbidity (NTU+) DO (mg/L)
8/1/2022 12:00:00 AM 22.91 73.238 0.166 7.51 214.57 0.22
8/1/2022 12:15:00 AM 22.91 73.238 0.168 7.52 214.54 0.23
8/1/2022 12:30:00 AM 22.91 73.238 0.173 7.53 214.54 0.22
8/1/2022 12:45:00 AM 22.92 73.256 0.176 7.53 214.43 0.22
8/1/2022 1:00:00 AM 22.92 73.256 0.178 7.53 214.26 0.22
8/1/2022 1:15:00 AM 22.92 73.256 0.181 7.53 214.22 0.23
8/1/2022 1:30:00 AM 22.92 73.256 0.189 7.54 214.15 0.22
8/1/2022 1:45:00 AM 22.92 73.256 0.203 7.54 214.12 0.23
8/1/2022 2:00:00 AM 22.93 73.274 0.226 7.54 214.02 0.22
8/1/2022 2:15:00 AM 22.93 73.274 0.255 7.54 213.92 0.23
8/1/2022 2:30:00 AM 22.93 73.274 0.263 7.55 214 0.22
8/1/2022 2:45:00 AM 22.94 73.292 0.26 7.54 213.93 0.22
8/1/2022 3:00:00 AM 22.94 73.292 0.297 7.54 213.84 0.22
8/1/2022 3:15:00 AM 22.95 73.31 0.353 7.54 213.83 0.22
8/1/2022 3:30:00 AM 22.96 73.328 0.321 7.54 213.76 0.22
8/1/2022 3:45:00 AM 22.97 73.346 0.303 7.54 213.74 0.22
8/1/2022 4:00:00 AM 22.98 73.364 0.269 7.54 213.63 0.22
8/1/2022 4:15:00 AM 22.99 73.382 0.256 7.53 213.65 0.22
8/1/2022 4:30:00 AM 23.01 73.418 0.278 7.51 213.52 0.22
8/1/2022 4:45:00 AM 23.02 73.436 0.296 7.49 213.49 0.22
8/1/2022 5:00:00 AM 23.04 73.472 0.277 7.48 213.44 0.22
8/1/2022 5:15:00 AM 23.05 73.49 0.241 7.48 213.4 0.22
8/1/2022 5:30:00 AM 23.06 73.508 0.242 7.47 213.34 0.22
8/1/2022 5:45:00 AM 23.07 73.526 0.243 7.49 213.29 0.22
8/1/2022 6:00:00 AM 23.08 73.544 0.244 7.49 213.21 0.22
8/1/2022 6:15:00 AM 23.08 73.544 0.252 7.5 213.14 0.22
8/1/2022 6:30:00 AM 23.09 73.562 0.373 7.5 213.06 0.22
8/1/2022 6:45:00 AM 23.09 73.562 0.254 7.51 213.04 0.22
8/1/2022 7:00:00 AM 23.09 73.562 0.262 7.51 212.97 0.22
8/1/2022 7:15:00 AM 23.09 73.562 0.385 7.52 212.93 0.22
8/1/2022 7:30:00 AM 23.09 73.562 0.262 7.53 212.89 0.22
8/1/2022 7:45:00 AM 23.09 73.562 0.267 7.51 212.85 0.22
8/1/2022 8:00:00 AM 23.08 73.544 0.275 7.53 212.75 0.22
8/1/2022 8:15:00 AM 23.08 73.544 0.275 7.54 212.66 0.22
8/1/2022 8:30:00 AM 23.07 73.526 0.282 7.55 212.59 0.22
8/1/2022 8:45:00 AM 23.06 73.508 0.29 7.55 212.6 0.22
8/1/2022 9:00:00 AM 23.06 73.508 0.297 7.55 212.53 0.22
8/1/2022 9:15:00 AM 23.05 73.49 0.394 7.53 212.5 0.22
8/1/2022 9:30:00 AM 23.04 73.472 0.389 7.5 212.37 0.22
8/1/2022 9:45:00 AM 23.04 73.472 0.287 7.51 212.37 0.22
8/1/2022 10:00:00 AM 23.03 73.454 0.301 7.51 212.35 0.22
8/1/2022 10:15:00 AM 23.02 73.436 0.317 7.51 212.24 0.22
8/1/2022 10:30:00 AM 23.02 73.436 0.457 7.52 212.26 0.22
8/1/2022 10:45:00 AM 23.01 73.418 0.279 7.52 212.04 0.22
8/1/2022 11:00:00 AM 23.01 73.418 0.277 7.54 211.96 0.22
8/1/2022 11:15:00 AM 23 73.4 0.293 7.55 211.97 0.22
8/1/2022 11:30:00 AM 23 73.4 0.3 7.55 211.93 0.22
8/1/2022 11:45:00 AM 22.99 73.382 0.369 7.52 212.18 0.22
8/1/2022 12:00:00 PM 22.99 73.382 0.278 7.51 211.89 0.22
8/1/2022 12:15:00 PM 22.99 73.382 0.357 7.5 211.87 0.22
8/1/2022 12:30:00 PM 22.99 73.382 0.357 7.52 211.87 0.22
8/1/2022 12:45:00 PM 22.99 73.382 0.351 7.52 211.85 0.22
8/1/2022 1:00:00 PM 22.99 73.382 0.35 7.51 212.16 0.22
8/1/2022 1:15:00 PM 23 73.4 0.339 7.51 212.22 0.22
8/1/2022 1:30:00 PM 23 73.4 0.339 7.5 212.01 0.22
8/1/2022 1:45:00 PM 23.01 73.418 0.332 7.52 211.95 0.22
8/1/2022 2:00:00 PM 23.01 73.418 0.321 7.53 211.88 0.22
8/1/2022 2:15:00 PM 23.02 73.436 0.283 7.54 211.79 0.22
8/1/2022 2:30:00 PM 23.03 73.454 0.28 7.53 211.77 0.22
8/1/2022 2:45:00 PM 23.03 73.454 0.28 7.54 211.73 0.22
8/1/2022 3:00:00 PM 23.04 73.472 0.303 7.54 211.78 0.22
8/1/2022 3:15:00 PM 23.05 73.49 0.301 7.51 211.82 0.22
8/1/2022 3:30:00 PM 23.06 73.508 0.299 7.52 212.18 0.22
8/1/2022 3:45:00 PM 23.07 73.526 0.294 7.53 211.85 0.22
8/1/2022 4:00:00 PM 23.08 73.544 0.283 7.54 211.86 0.22
8/1/2022 4:15:00 PM 23.09 73.562 0.284 7.54 212.05 0.22
8/1/2022 4:30:00 PM 23.1 73.58 0.275 7.54 211.98 0.22
8/1/2022 4:45:00 PM 23.11 73.598 0.288 7.54 211.6 0.22
8/1/2022 5:00:00 PM 23.12 73.616 0.285 7.53 211.38 0.22
8/1/2022 5:15:00 PM 23.13 73.634 0.283 7.53 211.3 0.22
8/1/2022 5:30:00 PM 23.14 73.652 0.27 7.53 211.26 0.22
8/1/2022 5:45:00 PM 23.15 73.67 0.269 7.52 211.17 0.22
8/1/2022 6:00:00 PM 23.16 73.688 0.268 7.52 211.07 0.22
8/1/2022 6:15:00 PM 23.17 73.706 0.267 7.51 211.11 0.22
8/1/2022 6:30:00 PM 23.17 73.706 0.266 7.51 211.1 0.22
8/1/2022 6:45:00 PM 23.18 73.724 0.264 7.51 211.12 0.22
8/1/2022 7:00:00 PM 23.19 73.742 0.263 7.51 211.1 0.22
8/1/2022 7:15:00 PM 23.19 73.742 0.261 7.51 211.08 0.22
8/1/2022 7:30:00 PM 23.2 73.76 0.259 7.51 210.98 0.22
8/1/2022 7:45:00 PM 23.21 73.778 0.257 7.51 210.89 0.22
8/1/2022 8:00:00 PM 23.21 73.778 0.256 7.51 210.95 0.22
8/1/2022 8:15:00 PM 23.22 73.796 0.254 7.5 210.9 0.22
8/1/2022 8:30:00 PM 23.23 73.814 0.253 7.49 210.91 0.22
8/1/2022 8:45:00 PM 23.24 73.832 0.252 7.48 210.82 0.22
8/1/2022 9:00:00 PM 23.25 73.85 0.273 7.48 210.77 0.22
8/1/2022 9:15:00 PM 23.25 73.85 0.276 7.47 210.72 0.22
8/1/2022 9:30:00 PM 23.27 73.886 0.28 7.47 210.8 0.22
8/1/2022 9:45:00 PM 23.28 73.904 0.283 7.46 210.75 0.22
8/1/2022 10:00:00 PM 23.29 73.922 0.281 7.46 210.64 0.22
8/1/2022 10:15:00 PM 23.3 73.94 0.282 7.46 210.44 0.22
8/1/2022 10:30:00 PM 23.31 73.958 0.281 7.46 210.48 0.22
8/1/2022 10:45:00 PM 23.32 73.976 0.283 7.46 210.51 0.22
8/1/2022 11:00:00 PM 23.33 73.994 0.282 7.45 210.41 0.22
8/1/2022 11:15:00 PM 23.34 74.012 0.282 7.45 210.42 0.22
8/1/2022 11:30:00 PM 23.35 74.03 0.281 7.44 210.26 0.22
8/1/2022 11:45:00 PM 23.36 74.048 0.284 7.44 210.17 0.22
8/2/2022 12:00:00 AM 23.37 74.066 0.287 7.44 210.13 0.22
8/2/2022 12:15:00 AM 23.38 74.084 0.278 7.43 210.16 0.22
8/2/2022 12:30:00 AM 23.39 74.102 0.26 7.43 210.04 0.22
8/2/2022 12:45:00 AM 23.39 74.102 0.3 7.42 209.99 0.22
8/2/2022 1:00:00 AM 23.4 74.12 0.257 7.43 209.95 0.22
8/2/2022 1:15:00 AM 23.41 74.138 0.255 7.43 209.91 0.22
8/2/2022 1:30:00 AM 23.42 74.156 0.252 7.42 209.8 0.22
8/2/2022 1:45:00 AM 23.43 74.174 0.318 7.42 209.66 0.22
8/2/2022 2:00:00 AM 23.44 74.192 0.313 7.42 209.53 0.22
8/2/2022 2:15:00 AM 23.44 74.192 0.314 7.42 209.46 0.22
8/2/2022 2:30:00 AM 23.45 74.21 0.314 7.42 209.4 0.22
8/2/2022 2:45:00 AM 23.45 74.21 0.315 7.4 209.32 0.22
8/2/2022 3:00:00 AM 23.46 74.228 0.312 7.41 209.27 0.22
8/2/2022 3:15:00 AM 23.47 74.246 0.312 7.41 209.24 0.22
8/2/2022 3:30:00 AM 23.47 74.246 0.263 7.41 209.22 0.22
8/2/2022 3:45:00 AM 23.48 74.264 0.262 7.41 209.09 0.22
8/2/2022 4:00:00 AM 23.49 74.282 0.26 7.41 209.02 0.22
8/2/2022 4:15:00 AM 23.5 74.3 0.328 7.4 209.06 0.22
8/2/2022 4:30:00 AM 23.51 74.318 0.32 7.4 209.05 0.22
8/2/2022 4:45:00 AM 23.52 74.336 0.317 7.39 209.04 0.22
8/2/2022 5:00:00 AM 23.53 74.354 0.316 7.39 209.03 0.22
8/2/2022 5:15:00 AM 23.55 74.39 0.313 7.38 208.98 0.22
8/2/2022 5:30:00 AM 23.55 74.39 0.313 7.37 208.85 0.22
8/2/2022 5:45:00 AM 23.56 74.408 0.311 7.37 208.76 0.22
8/2/2022 6:00:00 AM 23.56 74.408 0.309 7.37 208.71 0.22
8/2/2022 6:15:00 AM 23.56 74.408 0.308 7.37 208.7 0.22
8/2/2022 6:30:00 AM 23.56 74.408 0.312 7.38 208.62 0.22
8/2/2022 6:45:00 AM 23.55 74.39 0.314 7.38 208.51 0.22
8/2/2022 7:00:00 AM 23.54 74.372 0.309 7.39 208.44 0.22
8/2/2022 7:15:00 AM 23.52 74.336 0.269 7.39 208.35 0.22
8/2/2022 7:30:00 AM 23.51 74.318 0.318 7.4 208.32 0.22
8/2/2022 7:45:00 AM 23.49 74.282 0.267 7.4 208.28 0.22
8/2/2022 8:00:00 AM 23.47 74.246 0.323 7.41 208.21 0.22
8/2/2022 8:15:00 AM 23.45 74.21 0.327 7.4 208.22 0.22
8/2/2022 8:30:00 AM 23.43 74.174 0.264 7.4 208.23 0.22
8/2/2022 8:45:00 AM 23.41 74.138 0.339 7.4 208.12 0.22
8/2/2022 9:00:00 AM 23.39 74.102 0.26 7.4 208.04 0.22
8/2/2022 9:15:00 AM 23.36 74.048 0.349 7.4 207.99 0.22
8/2/2022 9:30:00 AM 23.34 74.012 0.25 7.4 207.91 0.22
8/2/2022 9:45:00 AM 23.31 73.958 0.257 7.41 207.89 0.22
8/2/2022 10:00:00 AM 23.29 73.922 0.328 7.41 207.84 0.22
8/2/2022 10:15:00 AM 23.26 73.868 0.28 7.42 207.74 0.22
8/2/2022 10:30:00 AM 23.24 73.832 0.266 7.42 207.67 0.22
8/2/2022 10:45:00 AM 23.21 73.778 0.317 7.41 207.66 0.22
8/2/2022 11:00:00 AM 23.19 73.742 0.327 7.39 207.51 0.22
8/2/2022 11:15:00 AM 23.17 73.706 0.32 7.37 207.37 0.22
8/2/2022 11:30:00 AM 23.14 73.652 0.314 7.37 207.72 0.22
8/2/2022 11:45:00 AM 23.12 73.616 0.31 7.38 208.2 0.22
8/2/2022 12:00:00 PM 23.11 73.598 0.308 7.37 209.1 0.22
8/2/2022 12:15:00 PM 23.1 73.58 0.303 7.39 209.21 0.22
8/2/2022 12:30:00 PM 23.09 73.562 0.301 7.39 209.75 0.22
8/2/2022 12:45:00 PM 23.08 73.544 0.303 7.39 209.49 0.22
8/2/2022 1:00:00 PM 23.08 73.544 0.301 7.4 210.32 0.22
8/2/2022 1:15:00 PM 23.08 73.544 0.301 7.42 210.79 0.22
8/2/2022 1:30:00 PM 23.08 73.544 0.3 7.44 211.12 0.22
8/2/2022 1:45:00 PM 23.09 73.562 0.291 7.44 211.34 0.22
8/2/2022 2:00:00 PM 23.1 73.58 0.298 7.45 211.35 0.22
8/2/2022 2:15:00 PM 23.11 73.598 0.296 7.45 211.19 0.22
8/2/2022 2:30:00 PM 23.13 73.634 0.293 7.45 210.83 0.22
8/2/2022 2:45:00 PM 23.15 73.67 0.294 7.46 211.14 0.22
8/2/2022 3:00:00 PM 23.17 73.706 0.294 7.45 211.34 0.22
8/2/2022 3:15:00 PM 23.18 73.724 0.295 7.45 211.58 0.22
8/2/2022 3:30:00 PM 23.21 73.778 0.295 7.45 211.69 0.22
8/2/2022 3:45:00 PM 23.23 73.814 0.297 7.44 210.93 0.22
8/2/2022 4:00:00 PM 23.25 73.85 0.299 7.45 210.89 0.22
8/2/2022 4:15:00 PM 23.27 73.886 0.298 7.44 210.46 0.22
8/2/2022 4:30:00 PM 23.29 73.922 0.288 7.44 209.61 0.22
8/2/2022 4:45:00 PM 23.31 73.958 0.29 7.44 208.92 0.22
8/2/2022 5:00:00 PM 23.33 73.994 0.294 7.44 208.45 0.22
8/2/2022 5:15:00 PM 23.34 74.012 0.295 7.45 208.17 0.22
8/2/2022 5:30:00 PM 23.36 74.048 0.297 7.44 208.1 0.22
8/2/2022 5:45:00 PM 23.37 74.066 0.293 7.44 208.01 0.22
8/2/2022 6:00:00 PM 23.38 74.084 0.289 7.44 207.94 0.22
8/2/2022 6:15:00 PM 23.39 74.102 0.288 7.44 207.82 0.22
8/2/2022 6:30:00 PM 23.4 74.12 0.291 7.44 207.78 0.22
8/2/2022 6:45:00 PM 23.41 74.138 0.291 7.44 207.46 0.22
8/2/2022 7:00:00 PM 23.42 74.156 0.29 7.44 207.27 0.22
8/2/2022 7:15:00 PM 23.44 74.192 0.293 7.44 207.11 0.22
8/2/2022 7:30:00 PM 23.45 74.21 0.286 7.44 206.95 0.22
8/2/2022 7:45:00 PM 23.46 74.228 0.296 7.44 206.88 0.22
8/2/2022 8:00:00 PM 23.47 74.246 0.294 7.44 206.84 0.22
8/2/2022 8:15:00 PM 23.48 74.264 0.294 7.44 206.75 0.22
8/2/2022 8:30:00 PM 23.49 74.282 0.293 7.45 206.75 0.22
8/2/2022 8:45:00 PM 23.49 74.282 0.291 7.44 206.66 0.22
8/2/2022 9:00:00 PM 23.5 74.3 0.291 7.45 206.61 0.22
8/2/2022 9:15:00 PM 23.5 74.3 0.294 7.45 206.56 0.22
8/2/2022 9:30:00 PM 23.51 74.318 0.294 7.46 206.6 0.22
8/2/2022 9:45:00 PM 23.51 74.318 0.296 7.45 206.58 0.22
8/2/2022 10:00:00 PM 23.52 74.336 0.294 7.45 206.48 0.22
8/2/2022 10:15:00 PM 23.53 74.354 0.297 7.45 206.5 0.22
8/2/2022 10:30:00 PM 23.53 74.354 0.305 7.45 206.48 0.22
8/2/2022 10:45:00 PM 23.53 74.354 0.306 7.45 206.47 0.22
8/2/2022 11:00:00 PM 23.54 74.372 0.31 7.43 206.46 0.22
8/2/2022 11:15:00 PM 23.54 74.372 0.311 7.41 206.41 0.22
8/2/2022 11:30:00 PM 23.54 74.372 0.315 7.42 206.34 0.22
8/2/2022 11:45:00 PM 23.55 74.39 0.319 7.42 206.34 0.22
8/3/2022 12:00:00 AM 23.55 74.39 0.322 7.42 206.28 0.22
8/3/2022 12:15:00 AM 23.55 74.39 0.326 7.42 206.23 0.22
8/3/2022 12:30:00 AM 23.56 74.408 0.331 7.42 206.1 0.22
8/3/2022 12:45:00 AM 23.56 74.408 0.332 7.43 206.11 0.22
8/3/2022 1:00:00 AM 23.56 74.408 0.333 7.43 206.1 0.22
8/3/2022 1:15:00 AM 23.57 74.426 0.333 7.44 206.03 0.22
8/3/2022 1:30:00 AM 23.57 74.426 0.333 7.44 205.96 0.22
8/3/2022 1:45:00 AM 23.57 74.426 0.339 7.44 205.96 0.22
8/3/2022 2:00:00 AM 23.57 74.426 0.326 7.45 205.88 0.22
8/3/2022 2:15:00 AM 23.58 74.444 0.333 7.45 205.85 0.22
8/3/2022 2:30:00 AM 23.58 74.444 0.337 7.45 205.8 0.22
8/3/2022 2:45:00 AM 23.58 74.444 0.339 7.45 205.75 0.22
8/3/2022 3:00:00 AM 23.58 74.444 0.345 7.45 205.68 0.22
8/3/2022 3:15:00 AM 23.58 74.444 0.352 7.45 205.62 0.22
8/3/2022 3:30:00 AM 23.58 74.444 0.355 7.45 205.54 0.22
8/3/2022 3:45:00 AM 23.57 74.426 0.351 7.45 205.55 0.22
8/3/2022 4:00:00 AM 23.57 74.426 0.354 7.45 205.52 0.22
8/3/2022 4:15:00 AM 23.56 74.408 0.354 7.45 205.52 0.22
8/3/2022 4:30:00 AM 23.56 74.408 0.373 7.45 205.44 0.22
8/3/2022 4:45:00 AM 23.56 74.408 0.375 7.45 205.43 0.22
8/3/2022 5:00:00 AM 23.55 74.39 0.377 7.45 205.32 0.22
8/3/2022 5:15:00 AM 23.55 74.39 0.379 7.46 205.23 0.22
8/3/2022 5:30:00 AM 23.54 74.372 0.378 7.46 205.21 0.22
8/3/2022 5:45:00 AM 23.54 74.372 0.38 7.46 205.16 0.22
8/3/2022 6:00:00 AM 23.54 74.372 0.381 7.46 205.06 0.22
8/3/2022 6:15:00 AM 23.53 74.354 0.385 7.46 205.04 0.22
8/3/2022 6:30:00 AM 23.53 74.354 0.385 7.46 204.99 0.22
8/3/2022 6:45:00 AM 23.53 74.354 0.389 7.46 204.94 0.22
8/3/2022 7:00:00 AM 23.53 74.354 0.389 7.45 204.91 0.22
8/3/2022 7:15:00 AM 23.52 74.336 0.391 7.43 204.83 0.22
8/3/2022 7:30:00 AM 23.52 74.336 0.396 7.42 204.75 0.22
8/3/2022 7:45:00 AM 23.51 74.318 0.399 7.42 204.65 0.22
8/3/2022 8:00:00 AM 23.49 74.282 0.403 7.42 204.74 0.22
8/3/2022 8:15:00 AM 23.48 74.264 0.413 7.43 204.69 0.22
8/3/2022 8:30:00 AM 23.46 74.228 0.421 7.43 204.56 0.22
8/3/2022 8:45:00 AM 23.44 74.192 0.429 7.44 204.55 0.22
8/3/2022 9:00:00 AM 23.42 74.156 0.436 7.43 204.49 0.22
8/3/2022 9:15:00 AM 23.39 74.102 0.433 7.42 204.4 0.22
8/3/2022 9:30:00 AM 23.37 74.066 0.42 7.4 204.35 0.22
8/3/2022 9:45:00 AM 23.35 74.03 0.41 7.39 204.33 0.22
8/3/2022 10:00:00 AM 23.32 73.976 0.393 7.39 204.34 0.22
8/3/2022 10:15:00 AM 23.3 73.94 0.379 7.38 204.39 0.22
8/3/2022 10:30:00 AM 23.27 73.886 0.359 7.37 204.34 0.22
8/3/2022 10:45:00 AM 23.25 73.85 0.354 7.36 204.52 0.22
8/3/2022 11:00:00 AM 23.23 73.814 0.35 7.35 204.61 0.22
8/3/2022 11:15:00 AM 23.21 73.778 0.341 7.35 204.74 0.22
8/3/2022 11:30:00 AM 23.19 73.742 0.356 7.34 205.01 0.22
8/3/2022 11:45:00 AM 23.18 73.724 0.351 7.35 205.19 0.22
8/3/2022 12:00:00 PM 23.17 73.706 0.35 7.35 205.48 0.22
8/3/2022 12:15:00 PM 23.16 73.688 0.347 7.35 205.76 0.22
8/3/2022 12:30:00 PM 23.15 73.67 0.345 7.37 206.02 0.22
8/3/2022 12:45:00 PM 23.14 73.652 0.343 7.4 206.25 0.22
8/3/2022 1:00:00 PM 23.14 73.652 0.342 7.41 206.4 0.22
8/3/2022 1:15:00 PM 23.15 73.67 0.342 7.42 206.65 0.22
8/3/2022 1:30:00 PM 23.15 73.67 0.337 7.43 207.07 0.22
8/3/2022 1:45:00 PM 23.16 73.688 0.336 7.43 207.27 0.22
8/3/2022 2:00:00 PM 23.17 73.706 0.342 7.42 207.23 0.22
8/3/2022 2:15:00 PM 23.18 73.724 0.339 7.42 207.32 0.22
8/3/2022 2:30:00 PM 23.19 73.742 0.338 7.42 207.39 0.22
8/3/2022 2:45:00 PM 23.21 73.778 0.337 7.42 207.47 0.22
8/3/2022 3:00:00 PM 23.23 73.814 0.338 7.43 207.46 0.22
8/3/2022 3:15:00 PM 23.25 73.85 0.337 7.42 207.4 0.22
8/3/2022 3:30:00 PM 23.27 73.886 0.336 7.41 207.42 0.22
8/3/2022 3:45:00 PM 23.28 73.904 0.336 7.4 207.39 0.22
8/3/2022 4:00:00 PM 23.3 73.94 0.333 7.4 207.33 0.22
8/3/2022 4:15:00 PM 23.32 73.976 0.333 7.4 207.07 0.22
8/3/2022 4:30:00 PM 23.33 73.994 0.335 7.4 206.6 0.22
8/3/2022 4:45:00 PM 23.35 74.03 0.332 7.4 205.43 0.22
8/3/2022 5:00:00 PM 23.36 74.048 0.335 7.4 204.63 0.22
8/3/2022 5:15:00 PM 23.37 74.066 0.334 7.4 204.27 0.22
8/3/2022 5:30:00 PM 23.38 74.084 0.334 7.4 203.98 0.22
8/3/2022 5:45:00 PM 23.39 74.102 0.332 7.39 203.96 0.22
8/3/2022 6:00:00 PM 23.4 74.12 0.334 7.39 203.84 0.22
8/3/2022 6:15:00 PM 23.41 74.138 0.332 7.39 203.7 0.22
8/3/2022 6:30:00 PM 23.41 74.138 0.331 7.4 203.54 0.22
8/3/2022 6:45:00 PM 23.42 74.156 0.329 7.4 203.43 0.22
8/3/2022 7:00:00 PM 23.43 74.174 0.328 7.4 203.38 0.22
8/3/2022 7:15:00 PM 23.43 74.174 0.328 7.4 203.38 0.22
8/3/2022 7:30:00 PM 23.44 74.192 0.326 7.4 203.31 0.22
8/3/2022 7:45:00 PM 23.45 74.21 0.328 7.4 203.4 0.22
8/3/2022 8:00:00 PM 23.45 74.21 0.328 7.4 203.35 0.22
8/3/2022 8:15:00 PM 23.46 74.228 0.326 7.4 203.33 0.22
8/3/2022 8:30:00 PM 23.46 74.228 0.326 7.4 203.31 0.22
8/3/2022 8:45:00 PM 23.46 74.228 0.327 7.41 203.3 0.22
8/3/2022 9:00:00 PM 23.47 74.246 0.328 7.42 203.15 0.22
8/3/2022 9:15:00 PM 23.47 74.246 0.329 7.42 203.24 0.22
8/3/2022 9:30:00 PM 23.48 74.264 0.33 7.42 203.14 0.22
8/3/2022 9:45:00 PM 23.48 74.264 0.333 7.43 203.1 0.22
8/3/2022 10:00:00 PM 23.48 74.264 0.335 7.43 203.17 0.22
8/3/2022 10:15:00 PM 23.49 74.282 0.339 7.43 203.11 0.22
8/3/2022 10:30:00 PM 23.49 74.282 0.343 7.43 203.12 0.22
8/3/2022 10:45:00 PM 23.5 74.3 0.343 7.43 203.05 0.22
8/3/2022 11:00:00 PM 23.5 74.3 0.346 7.43 202.66 0.22
8/3/2022 11:15:00 PM 23.51 74.318 0.347 7.44 202.66 0.22
8/3/2022 11:30:00 PM 23.52 74.336 0.347 7.43 202.57 0.22
8/3/2022 11:45:00 PM 23.53 74.354 0.349 7.43 202.59 0.22
8/4/2022 12:00:00 AM 23.55 74.39 0.351 7.43 202.54 0.22
8/4/2022 12:15:00 AM 23.56 74.408 0.353 7.43 202.55 0.22
8/4/2022 12:30:00 AM 23.57 74.426 0.357 7.43 202.49 0.22
8/4/2022 12:45:00 AM 23.58 74.444 0.36 7.43 202.42 0.22
8/4/2022 1:00:00 AM 23.58 74.444 0.363 7.42 202.48 0.22
8/4/2022 1:15:00 AM 23.59 74.462 0.363 7.42 202.56 0.22
8/4/2022 1:30:00 AM 23.59 74.462 0.37 7.42 202.5 0.22
8/4/2022 1:45:00 AM 23.6 74.48 0.372 7.43 202.51 0.22
8/4/2022 2:00:00 AM 23.6 74.48 0.373 7.42 202.53 0.22
8/4/2022 2:15:00 AM 23.6 74.48 0.376 7.42 202.53 0.22
8/4/2022 2:30:00 AM 23.61 74.498 0.378 7.4 202.35 0.22
8/4/2022 2:45:00 AM 23.61 74.498 0.385 7.37 202.22 0.22
8/4/2022 3:00:00 AM 23.61 74.498 0.384 7.34 202.26 0.22
8/4/2022 3:15:00 AM 23.61 74.498 0.388 7.32 202.25 0.22
8/4/2022 3:30:00 AM 23.61 74.498 0.387 7.31 202.24 0.22
8/4/2022 3:45:00 AM 23.61 74.498 0.381 7.3 202.18 0.22
8/4/2022 4:00:00 AM 23.61 74.498 0.383 7.3 202.14 0.22
8/4/2022 4:15:00 AM 23.61 74.498 0.386 7.32 201.96 0.22
8/4/2022 4:30:00 AM 23.61 74.498 0.392 7.33 201.88 0.22
8/4/2022 4:45:00 AM 23.61 74.498 0.398 7.31 201.76 0.22
8/4/2022 5:00:00 AM 23.61 74.498 0.402 7.32 201.67 0.22
8/4/2022 5:15:00 AM 23.61 74.498 0.406 7.28 201.51 0.22
8/4/2022 5:30:00 AM 23.61 74.498 0.409 7.22 201.38 0.22
8/4/2022 5:45:00 AM 23.6 74.48 0.414 7.27 201.28 0.22
8/4/2022 6:00:00 AM 23.61 74.498 0.422 7.32 201.31 0.22
8/4/2022 6:15:00 AM 23.61 74.498 0.429 7.34 201.32 0.22
8/4/2022 6:30:00 AM 23.61 74.498 0.435 7.36 201.23 0.22
8/4/2022 6:45:00 AM 23.61 74.498 0.437 7.37 201.12 0.22
8/4/2022 7:00:00 AM 23.61 74.498 0.442 7.38 201.12 0.22
8/4/2022 7:15:00 AM 23.61 74.498 0.448 7.38 200.98 0.22
8/4/2022 7:30:00 AM 23.6 74.48 0.453 7.38 200.99 0.22
8/4/2022 7:45:00 AM 23.6 74.48 0.462 7.39 200.94 0.22
8/4/2022 8:00:00 AM 23.59 74.462 0.475 7.4 200.93 0.22
8/4/2022 8:15:00 AM 23.59 74.462 0.486 7.41 200.89 0.22
8/4/2022 8:30:00 AM 23.58 74.444 0.49 7.41 200.86 0.22
8/4/2022 8:45:00 AM 23.58 74.444 0.49 7.42 200.78 0.22
8/4/2022 9:00:00 AM 23.57 74.426 0.488 7.42 200.68 0.22
8/4/2022 9:15:00 AM 23.57 74.426 0.452 7.42 200.67 0.22
8/4/2022 9:30:00 AM 23.56 74.408 0.444 7.43 200.8 0.22
8/4/2022 9:45:00 AM 23.56 74.408 0.41 7.43 201.15 0.22
8/4/2022 10:00:00 AM 23.55 74.39 0.421 7.43 201.49 0.22
8/4/2022 10:15:00 AM 23.54 74.372 0.401 7.43 201.8 0.22
8/4/2022 10:30:00 AM 23.54 74.372 0.387 7.41 202.07 0.22
8/4/2022 10:45:00 AM 23.53 74.354 0.387 7.37 202.29 0.22
8/4/2022 11:00:00 AM 23.52 74.336 0.392 7.32 202.42 0.22
8/4/2022 11:15:00 AM 23.52 74.336 0.388 7.35 202.47 0.22
8/4/2022 11:30:00 AM 23.51 74.318 0.385 7.34 201.54 0.22
8/4/2022 11:45:00 AM 23.5 74.3 0.385 7.38 201.55 0.22
8/4/2022 12:00:00 PM 23.5 74.3 0.382 7.41 202.55 0.22
8/4/2022 12:15:00 PM 23.49 74.282 0.373 7.42 202 0.22
8/4/2022 12:30:00 PM 23.49 74.282 0.371 7.43 202.9 0.22
8/4/2022 12:45:00 PM 23.49 74.282 0.371 7.44 203.65 0.22
8/4/2022 1:00:00 PM 23.48 74.264 0.365 7.44 202.97 0.22
8/4/2022 1:15:00 PM 23.49 74.282 0.366 7.45 203.34 0.22
8/4/2022 1:30:00 PM 23.49 74.282 0.369 7.44 204.28 0.22
8/4/2022 1:45:00 PM 23.49 74.282 0.37 7.43 203.81 0.22
8/4/2022 2:00:00 PM 23.5 74.3 0.365 7.42 203.29 0.22
8/4/2022 2:15:00 PM 23.51 74.318 0.363 7.42 202.85 0.22
8/4/2022 2:30:00 PM 23.52 74.336 0.361 7.42 202.87 0.22
8/4/2022 2:45:00 PM 23.52 74.336 0.359 7.42 203.46 0.22
8/4/2022 3:00:00 PM 23.53 74.354 0.359 7.41 203.64 0.22
8/4/2022 3:15:00 PM 23.55 74.39 0.358 7.41 203.98 0.22
8/4/2022 3:30:00 PM 23.56 74.408 0.355 7.41 203.47 0.22
8/4/2022 3:45:00 PM 23.57 74.426 0.355 7.41 203.5 0.22
8/4/2022 4:00:00 PM 23.59 74.462 0.353 7.41 202.91 0.22
8/4/2022 4:15:00 PM 23.6 74.48 0.351 7.41 201.8 0.22
8/4/2022 4:30:00 PM 23.62 74.516 0.755 7.42 200.45 0.22
8/4/2022 4:45:00 PM 23.63 74.534 0.733 7.42 200.09 0.22
8/4/2022 5:00:00 PM 23.64 74.552 0.736 7.43 200.03 0.22
8/4/2022 5:15:00 PM 23.65 74.57 0.744 7.43 199.87 0.22
8/4/2022 5:30:00 PM 23.67 74.606 0.741 7.43 199.81 0.22
8/4/2022 5:45:00 PM 23.68 74.624 0.731 7.43 199.78 0.22
8/4/2022 6:00:00 PM 23.69 74.642 0.744 7.43 199.73 0.22
8/4/2022 6:15:00 PM 23.7 74.66 0.741 7.43 199.67 0.22
8/4/2022 6:30:00 PM 23.71 74.67799 0.739 7.43 199.6 0.22
8/4/2022 6:45:00 PM 23.72 74.696 0.725 7.43 199.47 0.22
8/4/2022 7:00:00 PM 23.72 74.696 0.721 7.43 199.44 0.22
8/4/2022 7:15:00 PM 23.72 74.696 0.716 7.43 199.39 0.22
8/4/2022 7:30:00 PM 23.73 74.714 0.704 7.43 199.37 0.22
8/4/2022 7:45:00 PM 23.73 74.714 0.697 7.43 199.3 0.22
8/4/2022 8:00:00 PM 23.74 74.732 0.673 7.44 199.29 0.22
8/4/2022 8:15:00 PM 23.74 74.732 0.669 7.45 199.2 0.22
8/4/2022 8:30:00 PM 23.75 74.75 0.664 7.45 199.13 0.22
8/4/2022 8:45:00 PM 23.75 74.75 0.658 7.44 199.1 0.22
8/4/2022 9:00:00 PM 23.76 74.768 0.645 7.45 199.07 0.22
8/4/2022 9:15:00 PM 23.76 74.768 0.637 7.45 199.02 0.22
8/4/2022 9:30:00 PM 23.77 74.786 0.632 7.45 198.95 0.22
8/4/2022 9:45:00 PM 23.77 74.786 0.625 7.45 198.94 0.22
8/4/2022 10:00:00 PM 23.78 74.804 0.609 7.45 198.91 0.22
8/4/2022 10:15:00 PM 23.78 74.804 0.61 7.45 198.82 0.22
8/4/2022 10:30:00 PM 23.79 74.82201 0.591 7.46 198.86 0.22
8/4/2022 10:45:00 PM 23.79 74.82201 0.583 7.45 198.87 0.22
8/4/2022 11:00:00 PM 23.8 74.84 0.582 7.45 198.79 0.22
8/4/2022 11:15:00 PM 23.8 74.84 0.578 7.45 198.77 0.22
8/4/2022 11:30:00 PM 23.81 74.858 0.571 7.46 198.7 0.22
8/4/2022 11:45:00 PM 23.81 74.858 0.558 7.45 198.74 0.22
8/5/2022 12:00:00 AM 23.82 74.876 0.552 7.42 198.65 0.22
8/5/2022 12:15:00 AM 23.83 74.894 0.558 7.38 198.55 0.22
8/5/2022 12:30:00 AM 23.84 74.912 0.559 7.37 198.56 0.22
8/5/2022 12:45:00 AM 23.84 74.912 0.544 7.39 198.51 0.22
8/5/2022 1:00:00 AM 23.85 74.93 0.555 7.41 198.47 0.22
8/5/2022 1:15:00 AM 23.85 74.93 0.535 7.41 198.43 0.22
8/5/2022 1:30:00 AM 23.85 74.93 0.525 7.42 198.41 0.22
8/5/2022 1:45:00 AM 23.86 74.948 0.53 7.41 198.37 0.22
8/5/2022 2:00:00 AM 23.86 74.948 0.504 7.41 198.37 0.22
8/5/2022 2:15:00 AM 23.86 74.948 0.515 7.42 198.4 0.22
8/5/2022 2:30:00 AM 23.87 74.966 0.512 7.42 198.24 0.22
8/5/2022 2:45:00 AM 23.87 74.966 0.494 7.42 198.24 0.22
8/5/2022 3:00:00 AM 23.88 74.984 0.528 7.41 198.23 0.22
8/5/2022 3:15:00 AM 23.89 75.002 0.569 7.42 198.16 0.22
8/5/2022 3:30:00 AM 23.89 75.002 0.573 7.42 198.15 0.22
8/5/2022 3:45:00 AM 23.9 75.02 0.562 7.42 198.14 0.22
8/5/2022 4:00:00 AM 23.9 75.02 0.571 7.37 198.14 0.22
8/5/2022 4:15:00 AM 23.91 75.038 0.567 7.35 198.02 0.22
8/5/2022 4:30:00 AM 23.91 75.038 0.56 7.33 198.07 0.22
8/5/2022 4:45:00 AM 23.91 75.038 0.564 7.35 197.99 0.22
8/5/2022 5:00:00 AM 23.92 75.056 0.551 7.36 197.98 0.22
8/5/2022 5:15:00 AM 23.92 75.056 0.576 7.34 198.02 0.22
8/5/2022 5:30:00 AM 23.92 75.056 0.568 7.3 197.94 0.22
8/5/2022 5:45:00 AM 23.92 75.056 0.571 7.3 197.95 0.22
8/5/2022 6:00:00 AM 23.91 75.038 0.563 7.31 197.93 0.22
8/5/2022 6:15:00 AM 23.91 75.038 0.552 7.31 197.87 0.22
8/5/2022 6:30:00 AM 23.91 75.038 0.565 7.3 197.77 0.22
8/5/2022 6:45:00 AM 23.91 75.038 0.556 7.29 197.76 0.22
8/5/2022 7:00:00 AM 23.9 75.02 0.511 7.3 197.72 0.22
8/5/2022 7:15:00 AM 23.9 75.02 0.57 7.29 197.71 0.22
8/5/2022 7:30:00 AM 23.89 75.002 0.568 7.31 197.69 0.22
8/5/2022 7:45:00 AM 23.89 75.002 0.562 7.32 197.66 0.22
8/5/2022 8:00:00 AM 23.88 74.984 0.561 7.31 197.63 0.22
8/5/2022 8:15:00 AM 23.88 74.984 0.572 7.35 197.6 0.22
8/5/2022 8:30:00 AM 23.87 74.966 0.573 7.37 197.54 0.22
8/5/2022 8:45:00 AM 23.87 74.966 0.568 7.38 197.51 0.22
8/5/2022 9:00:00 AM 23.86 74.948 0.565 7.39 197.5 0.22
8/5/2022 9:15:00 AM 23.86 74.948 0.549 7.39 197.5 0.22
8/5/2022 9:30:00 AM 23.86 74.948 0.542 7.38 197.41 0.22
8/5/2022 9:45:00 AM 23.85 74.93 0.531 7.36 197.57 0.22
8/5/2022 10:00:00 AM 23.85 74.93 0.528 7.36 197.65 0.22
8/5/2022 10:15:00 AM 23.85 74.93 0.509 7.36 198.05 0.22
8/5/2022 10:30:00 AM 23.85 74.93 0.492 7.37 198.27 0.22
8/5/2022 10:45:00 AM 23.86 74.948 0.484 7.39 198.65 0.22
8/5/2022 11:00:00 AM 23.86 74.948 0.462 7.4 198.77 0.22
8/5/2022 11:15:00 AM 23.87 74.966 0.436 7.4 199.01 0.22
8/5/2022 11:30:00 AM 23.87 74.966 0.44 7.41 199.42 0.22
8/5/2022 11:45:00 AM 23.88 74.984 0.432 7.42 199.33 0.22
8/5/2022 12:00:00 PM 23.89 75.002 0.392 7.43 199.24 0.22
8/5/2022 12:15:00 PM 23.89 75.002 0.419 7.44 199.44 0.22
8/5/2022 12:30:00 PM 23.9 75.02 0.401 7.44 199.89 0.22
8/5/2022 12:45:00 PM 23.91 75.038 0.394 7.44 200.39 0.22
8/5/2022 1:00:00 PM 23.93 75.074 0.385 7.44 200.48 0.22
8/5/2022 1:15:00 PM 23.94 75.092 0.398 7.44 200.38 0.22
8/5/2022 1:30:00 PM 23.95 75.11 0.393 7.43 200.26 0.22
8/5/2022 1:45:00 PM 23.97 75.146 0.387 7.43 199.72 0.22
8/5/2022 2:00:00 PM 23.98 75.164 0.386 7.43 200.04 0.22
8/5/2022 2:15:00 PM 24 75.2 0.378 7.43 200.34 0.22
8/5/2022 2:30:00 PM 24.01 75.218 0.37 7.43 199.77 0.22
8/5/2022 2:45:00 PM 24.03 75.254 0.367 7.43 200.19 0.22
8/5/2022 3:00:00 PM 24.05 75.29 0.362 7.43 199.63 0.22
8/5/2022 3:15:00 PM 24.06 75.308 0.36 7.43 199.15 0.22
8/5/2022 3:30:00 PM 24.08 75.344 0.354 7.43 198.9 0.22
8/5/2022 3:45:00 PM 24.1 75.38 0.362 7.42 198.59 0.22
8/5/2022 4:00:00 PM 24.11 75.398 0.361 7.42 198.3 0.22
8/5/2022 4:15:00 PM 24.13 75.434 0.387 7.43 198.06 0.22
8/5/2022 4:30:00 PM 24.14 75.452 0.372 7.43 197.87 0.22
8/5/2022 4:45:00 PM 24.15 75.47 0.352 7.43 197.68 0.22
8/5/2022 5:00:00 PM 24.16 75.488 0.349 7.43 197.42 0.22
8/5/2022 5:15:00 PM 24.17 75.506 0.348 7.43 197.31 0.22
8/5/2022 5:30:00 PM 24.19 75.542 0.345 7.43 197.08 0.22
8/5/2022 5:45:00 PM 24.2 75.56 0.354 7.43 196.92 0.22
8/5/2022 6:00:00 PM 24.21 75.578 0.354 7.43 196.68 0.22
8/5/2022 6:15:00 PM 24.22 75.596 0.353 7.44 196.63 0.22
8/5/2022 6:30:00 PM 24.22 75.596 0.351 7.44 196.63 0.22
8/5/2022 6:45:00 PM 24.23 75.614 0.349 7.44 196.67 0.22
8/5/2022 7:00:00 PM 24.24 75.632 0.349 7.44 196.63 0.22
8/5/2022 7:15:00 PM 24.25 75.65 0.348 7.44 196.58 0.22
8/5/2022 7:30:00 PM 24.25 75.65 0.348 7.44 196.49 0.22
8/5/2022 7:45:00 PM 24.26 75.668 0.35 7.44 196.44 0.22
8/5/2022 8:00:00 PM 24.27 75.686 0.352 7.43 196.4 0.22
8/5/2022 8:15:00 PM 24.28 75.704 0.354 7.44 196.23 0.22
8/5/2022 8:30:00 PM 24.28 75.704 0.355 7.44 196.24 0.22
8/5/2022 8:45:00 PM 24.29 75.722 0.356 7.44 196.25 0.22
8/5/2022 9:00:00 PM 24.3 75.74 0.356 7.44 196.19 0.22
8/5/2022 9:15:00 PM 24.3 75.74 0.356 7.44 196.2 0.22
8/5/2022 9:30:00 PM 24.31 75.758 0.357 7.44 196.15 0.22
8/5/2022 9:45:00 PM 24.32 75.776 0.36 7.43 196.1 0.22
8/5/2022 10:00:00 PM 24.32 75.776 0.362 7.44 196.04 0.22
8/5/2022 10:15:00 PM 24.33 75.794 0.363 7.44 195.91 0.22
8/5/2022 10:30:00 PM 24.33 75.794 0.365 7.44 195.88 0.22
8/5/2022 10:45:00 PM 24.34 75.812 0.367 7.44 195.78 0.22
8/5/2022 11:00:00 PM 24.34 75.812 0.367 7.43 195.75 0.22
8/5/2022 11:15:00 PM 24.35 75.83 0.368 7.43 195.67 0.22
8/5/2022 11:30:00 PM 24.35 75.83 0.37 7.44 195.7 0.22
8/5/2022 11:45:00 PM 24.36 75.848 0.371 7.42 195.68 0.22
8/6/2022 12:00:00 AM 24.36 75.848 0.372 7.43 195.55 0.22
8/6/2022 12:15:00 AM 24.37 75.866 0.374 7.44 195.35 0.22
8/6/2022 12:30:00 AM 24.38 75.884 0.375 7.45 195.19 0.22
8/6/2022 12:45:00 AM 24.38 75.884 0.374 7.45 195.17 0.22
8/6/2022 1:00:00 AM 24.39 75.902 0.375 7.45 195.1 0.22
8/6/2022 1:15:00 AM 24.4 75.92 0.381 7.44 195.05 0.22
8/6/2022 1:30:00 AM 24.4 75.92 0.382 7.43 195.12 0.22
8/6/2022 1:45:00 AM 24.41 75.938 0.385 7.39 194.95 0.22
8/6/2022 2:00:00 AM 24.41 75.938 0.385 7.39 194.95 0.22
8/6/2022 2:15:00 AM 24.42 75.956 0.388 7.4 194.93 0.22
8/6/2022 2:30:00 AM 24.42 75.956 0.392 7.4 194.89 0.22
8/6/2022 2:45:00 AM 24.42 75.956 0.398 7.41 194.84 0.22
8/6/2022 3:00:00 AM 24.42 75.956 0.398 7.41 194.81 0.22
8/6/2022 3:15:00 AM 24.42 75.956 0.401 7.41 194.64 0.22
8/6/2022 3:30:00 AM 24.42 75.956 0.4 7.41 194.62 0.22
8/6/2022 3:45:00 AM 24.42 75.956 0.399 7.43 194.62 0.22
8/6/2022 4:00:00 AM 24.42 75.956 0.399 7.43 194.56 0.22
8/6/2022 4:15:00 AM 24.42 75.956 0.4 7.44 194.45 0.22
8/6/2022 4:30:00 AM 24.42 75.956 0.398 7.44 194.52 0.22
8/6/2022 4:45:00 AM 24.42 75.956 0.399 7.44 194.46 0.22
8/6/2022 5:00:00 AM 24.41 75.938 0.401 7.43 194.45 0.22
8/6/2022 5:15:00 AM 24.41 75.938 0.401 7.43 194.41 0.22
8/6/2022 5:30:00 AM 24.41 75.938 0.401 7.43 194.35 0.22
8/6/2022 5:45:00 AM 24.41 75.938 0.401 7.44 194.29 0.22
8/6/2022 6:00:00 AM 24.41 75.938 0.401 7.46 194.32 0.22
8/6/2022 6:15:00 AM 24.41 75.938 0.4 7.46 194.23 0.22
8/6/2022 6:30:00 AM 24.4 75.92 0.404 7.47 194.18 0.22
8/6/2022 6:45:00 AM 24.4 75.92 0.402 7.47 194.2 0.22
8/6/2022 7:00:00 AM 24.4 75.92 0.403 7.44 194.16 0.22
8/6/2022 7:15:00 AM 24.4 75.92 0.404 7.42 194.12 0.22
8/6/2022 7:30:00 AM 24.4 75.92 0.407 7.41 194.01 0.22
8/6/2022 7:45:00 AM 24.39 75.902 0.413 7.42 193.92 0.22
8/6/2022 8:00:00 AM 24.39 75.902 0.414 7.41 193.85 0.22
8/6/2022 8:15:00 AM 24.39 75.902 0.425 7.43 193.81 0.22
8/6/2022 8:30:00 AM 24.38 75.884 0.438 7.43 193.79 0.22
8/6/2022 8:45:00 AM 24.38 75.884 0.445 7.45 193.7 0.22
8/6/2022 9:00:00 AM 24.37 75.866 0.447 7.46 193.58 0.22
8/6/2022 9:15:00 AM 24.37 75.866 0.445 7.46 193.57 0.22
8/6/2022 9:30:00 AM 24.36 75.848 0.442 7.47 193.61 0.22
8/6/2022 9:45:00 AM 24.36 75.848 0.432 7.47 193.88 0.22
8/6/2022 10:00:00 AM 24.36 75.848 0.267 7.47 194.11 0.22
8/6/2022 10:15:00 AM 24.35 75.83 0.368 7.47 194.37 0.22
8/6/2022 10:30:00 AM 24.35 75.83 0.262 7.47 194.51 0.22
8/6/2022 10:45:00 AM 24.36 75.848 0.261 7.48 194.72 0.22
8/6/2022 11:00:00 AM 24.36 75.848 0.397 7.49 194.62 0.22
8/6/2022 11:15:00 AM 24.37 75.866 0.317 7.5 194.36 0.22
8/6/2022 11:30:00 AM 24.37 75.866 0.334 7.5 193.84 0.22
8/6/2022 11:45:00 AM 24.38 75.884 0.311 7.5 193.61 0.22
8/6/2022 12:00:00 PM 24.38 75.884 0.317 7.5 194.63 0.22
8/6/2022 12:15:00 PM 24.38 75.884 0.309 7.5 195.43 0.22
8/6/2022 12:30:00 PM 24.39 75.902 0.302 7.5 195.9 0.22
8/6/2022 12:45:00 PM 24.4 75.92 0.299 7.49 196.18 0.22
8/6/2022 1:00:00 PM 24.4 75.92 0.297 7.48 195.04 0.22
8/6/2022 1:15:00 PM 24.41 75.938 0.297 7.48 195.16 0.22
8/6/2022 1:30:00 PM 24.42 75.956 0.296 7.48 196.17 0.22
8/6/2022 1:45:00 PM 24.43 75.974 0.293 7.47 196.46 0.22
8/6/2022 2:00:00 PM 24.44 75.992 0.291 7.48 196.04 0.22
8/6/2022 2:15:00 PM 24.46 76.028 0.29 7.48 195.52 0.22
8/6/2022 2:30:00 PM 24.47 76.046 0.321 7.49 195.67 0.22
8/6/2022 2:45:00 PM 24.49 76.082 0.32 7.5 195.6 0.22
8/6/2022 3:00:00 PM 24.5 76.1 0.316 7.5 194.63 0.22
8/6/2022 3:15:00 PM 24.51 76.118 0.271 7.5 194.34 0.22
8/6/2022 3:30:00 PM 24.53 76.154 0.249 7.5 194.56 0.22
8/6/2022 3:45:00 PM 24.54 76.172 0.248 7.5 194.89 0.22
8/6/2022 4:00:00 PM 24.55 76.19 0.255 7.5 195.45 0.22
8/6/2022 4:15:00 PM 24.56 76.208 0.248 7.51 195.32 0.22
8/6/2022 4:30:00 PM 24.57 76.226 0.242 7.51 194.85 0.22
8/6/2022 4:45:00 PM 24.58 76.244 0.24 7.51 194.56 0.22
8/6/2022 5:00:00 PM 24.59 76.262 0.239 7.51 194.3 0.22
8/6/2022 5:15:00 PM 24.59 76.262 0.238 7.51 194.09 0.22
8/6/2022 5:30:00 PM 24.6 76.28 0.353 7.5 193.88 0.22
8/6/2022 5:45:00 PM 24.61 76.298 0.334 7.5 193.8 0.22
8/6/2022 6:00:00 PM 24.61 76.298 0.327 7.49 193.73 0.22
8/6/2022 6:15:00 PM 24.62 76.316 0.322 7.49 193.56 0.22
8/6/2022 6:30:00 PM 24.62 76.316 0.319 7.49 193.45 0.22
8/6/2022 6:45:00 PM 24.63 76.334 0.316 7.49 193.42 0.22
8/6/2022 7:00:00 PM 24.64 76.352 0.314 7.5 193.31 0.22
8/6/2022 7:15:00 PM 24.64 76.352 0.31 7.5 193.33 0.22
8/6/2022 7:30:00 PM 24.65 76.37 0.313 7.49 193.25 0.22
8/6/2022 7:45:00 PM 24.65 76.37 0.308 7.49 193.08 0.22
8/6/2022 8:00:00 PM 24.65 76.37 0.312 7.49 193 0.22
8/6/2022 8:15:00 PM 24.66 76.388 0.309 7.48 192.87 0.22
8/6/2022 8:30:00 PM 24.66 76.388 0.317 7.48 192.84 0.22
8/6/2022 8:45:00 PM 24.67 76.406 0.31 7.47 192.71 0.22
8/6/2022 9:00:00 PM 24.67 76.406 0.314 7.47 192.7 0.22
8/6/2022 9:15:00 PM 24.67 76.406 0.293 7.48 192.64 0.22
8/6/2022 9:30:00 PM 24.67 76.406 0.32 7.48 192.6 0.22
8/6/2022 9:45:00 PM 24.68 76.424 0.319 7.47 192.58 0.22
8/6/2022 10:00:00 PM 24.68 76.424 0.324 7.48 192.44 0.22
8/6/2022 10:15:00 PM 24.68 76.424 0.329 7.48 192.47 0.22
8/6/2022 10:30:00 PM 24.68 76.424 0.326 7.48 192.43 0.22
8/6/2022 10:45:00 PM 24.69 76.442 0.321 7.49 192.35 0.22
8/6/2022 11:00:00 PM 24.69 76.442 0.332 7.49 192.36 0.22
8/6/2022 11:15:00 PM 24.69 76.442 0.354 7.5 192.34 0.22
8/6/2022 11:30:00 PM 24.69 76.442 0.356 7.5 192.24 0.22
8/6/2022 11:45:00 PM 24.7 76.46 0.36 7.51 192.21 0.22
8/7/2022 12:00:00 AM 24.7 76.46 0.361 7.5 192.22 0.22
8/7/2022 12:15:00 AM 24.7 76.46 0.363 7.5 192.13 0.22
8/7/2022 12:30:00 AM 24.7 76.46 0.364 7.5 192.01 0.22
8/7/2022 12:45:00 AM 24.71 76.478 0.366 7.5 192.02 0.22
8/7/2022 1:00:00 AM 24.71 76.478 0.367 7.51 191.89 0.22
8/7/2022 1:15:00 AM 24.71 76.478 0.365 7.51 191.93 0.22
8/7/2022 1:30:00 AM 24.72 76.496 0.368 7.5 191.81 0.22
8/7/2022 1:45:00 AM 24.72 76.496 0.369 7.5 191.72 0.22
8/7/2022 2:00:00 AM 24.72 76.496 0.373 7.5 191.67 0.22
8/7/2022 2:15:00 AM 24.72 76.496 0.375 7.5 191.61 0.22
8/7/2022 2:30:00 AM 24.73 76.514 0.377 7.5 191.57 0.22
8/7/2022 2:45:00 AM 24.73 76.514 0.377 7.5 191.57 0.22
8/7/2022 3:00:00 AM 24.73 76.514 0.38 7.5 191.61 0.22
8/7/2022 3:15:00 AM 24.73 76.514 0.381 7.5 191.5 0.22
8/7/2022 3:30:00 AM 24.74 76.532 0.385 7.51 191.46 0.22
8/7/2022 3:45:00 AM 24.74 76.532 0.386 7.51 191.41 0.22
8/7/2022 4:00:00 AM 24.74 76.532 0.385 7.51 191.32 0.22
8/7/2022 4:15:00 AM 24.75 76.55 0.386 7.52 191.33 0.22
8/7/2022 4:30:00 AM 24.75 76.55 0.377 7.52 191.29 0.22
8/7/2022 4:45:00 AM 24.76 76.568 0.37 7.52 191.22 0.22
8/7/2022 5:00:00 AM 24.76 76.568 0.37 7.53 191.25 0.22
8/7/2022 5:15:00 AM 24.76 76.568 0.373 7.53 191.13 0.22
8/7/2022 5:30:00 AM 24.76 76.568 0.367 7.53 191.09 0.22
8/7/2022 5:45:00 AM 24.77 76.586 0.396 7.53 191 0.22
8/7/2022 6:00:00 AM 24.77 76.586 0.402 7.53 190.96 0.22
8/7/2022 6:15:00 AM 24.77 76.586 0.391 7.52 190.96 0.22
8/7/2022 6:30:00 AM 24.78 76.604 0.389 7.53 190.92 0.22
8/7/2022 6:45:00 AM 24.79 76.622 0.385 7.54 190.89 0.22
8/7/2022 7:00:00 AM 24.8 76.64 0.387 7.53 190.79 0.22
8/7/2022 7:15:00 AM 24.8 76.64 0.382 7.52 190.86 0.22
8/7/2022 7:30:00 AM 24.8 76.64 0.387 7.5 190.76 0.22
8/7/2022 7:45:00 AM 24.8 76.64 0.366 7.48 190.74 0.22
8/7/2022 8:00:00 AM 24.8 76.64 0.343 7.42 190.73 0.22
8/7/2022 8:15:00 AM 24.8 76.64 0.326 7.41 190.7 0.22
8/7/2022 8:30:00 AM 24.81 76.658 0.329 7.39 190.63 0.22
8/7/2022 8:45:00 AM 24.81 76.658 0.334 7.35 190.58 0.22
8/7/2022 9:00:00 AM 24.81 76.658 0.333 7.32 190.54 0.22
8/7/2022 9:15:00 AM 24.81 76.658 0.333 7.29 190.4 0.22
8/7/2022 9:30:00 AM 24.81 76.658 0.355 7.3 190.39 0.22
8/7/2022 9:45:00 AM 24.8 76.64 0.341 7.28 190.4 0.22
8/7/2022 10:00:00 AM 24.8 76.64 0.325 7.25 190.66 0.22
8/7/2022 10:15:00 AM 24.8 76.64 0.318 7.26 190.86 0.22
8/7/2022 10:30:00 AM 24.8 76.64 0.313 7.27 190.8 0.22
8/7/2022 10:45:00 AM 24.8 76.64 0.311 7.27 191.13 0.22
8/7/2022 11:00:00 AM 24.8 76.64 0.308 7.37 191.49 0.22
8/7/2022 11:15:00 AM 24.8 76.64 0.303 7.37 191.2 0.22
8/7/2022 11:30:00 AM 24.81 76.658 0.302 7.36 191.2 0.22
8/7/2022 11:45:00 AM 24.82 76.676 0.296 7.36 191.25 0.22
8/7/2022 12:00:00 PM 24.82 76.676 0.295 7.38 191.62 0.22
8/7/2022 12:15:00 PM 24.83 76.694 0.3 7.39 191.96 0.22
8/7/2022 12:30:00 PM 24.85 76.73 0.301 7.37 191.59 0.22
8/7/2022 12:45:00 PM 24.86 76.748 0.225 7.39 191.08 0.22
8/7/2022 1:00:00 PM 24.88 76.784 0.223 7.36 189.98 0.22
8/7/2022 1:15:00 PM 24.89 76.802 0.222 7.43 189.75 0.22
8/7/2022 1:30:00 PM 24.9 76.82 0.679 7.38 189.55 0.22
8/7/2022 1:45:00 PM 24.91 76.838 0.683 7.4 189.53 0.22
8/7/2022 2:00:00 PM 24.92 76.856 0.72 7.39 189.39 0.22
8/7/2022 2:15:00 PM 24.93 76.874 0.691 7.38 190.72 0.22
8/7/2022 2:30:00 PM 24.94 76.892 0.255 7.37 190.84 0.22
8/7/2022 2:45:00 PM 24.95 76.91 0.255 7.4 189.99 0.22
8/7/2022 3:00:00 PM 24.96 76.92799 0.255 7.4 189.78 0.22
8/7/2022 3:15:00 PM 24.97 76.946 0.668 7.4 189.4 0.22
8/7/2022 3:30:00 PM 24.99 76.982 0.623 7.38 190.28 0.22
8/7/2022 3:45:00 PM 25 77 0.582 7.36 190.53 0.22
8/7/2022 4:00:00 PM 25.02 77.036 0.55 7.38 190.39 0.22
8/7/2022 4:15:00 PM 25.03 77.054 0.516 7.38 190.1 0.22
8/7/2022 4:30:00 PM 25.05 77.09 0.253 7.39 189.9 0.22
8/7/2022 4:45:00 PM 25.06 77.108 0.508 7.39 189.84 0.22
8/7/2022 5:00:00 PM 25.07 77.126 0.47 7.39 189.74 0.22
8/7/2022 5:15:00 PM 25.08 77.144 0.461 7.39 189.65 0.22
8/7/2022 5:30:00 PM 25.09 77.162 0.443 7.38 189.58 0.22
8/7/2022 5:45:00 PM 25.1 77.18 0.421 7.39 189.48 0.22
8/7/2022 6:00:00 PM 25.12 77.216 0.407 7.4 189.46 0.22
8/7/2022 6:15:00 PM 25.13 77.234 0.399 7.41 189.38 0.22
8/7/2022 6:30:00 PM 25.14 77.252 0.394 7.41 189.31 0.22
8/7/2022 6:45:00 PM 25.15 77.27 0.372 7.41 189.27 0.22
8/7/2022 7:00:00 PM 25.17 77.306 0.358 7.4 189.17 0.22
8/7/2022 7:15:00 PM 25.18 77.324 0.352 7.4 189.14 0.22
8/7/2022 7:30:00 PM 25.18 77.324 0.346 7.42 189.14 0.22
8/7/2022 7:45:00 PM 25.19 77.342 0.331 7.42 188.97 0.22
8/7/2022 8:00:00 PM 25.2 77.36 0.348 7.43 188.92 0.22
8/7/2022 8:15:00 PM 25.2 77.36 0.365 7.43 188.84 0.22
8/7/2022 8:30:00 PM 25.21 77.378 0.362 7.43 188.77 0.22
8/7/2022 8:45:00 PM 25.21 77.378 0.362 7.44 188.64 0.22
8/7/2022 9:00:00 PM 25.22 77.396 0.358 7.44 188.64 0.22
8/7/2022 9:15:00 PM 25.22 77.396 0.361 7.44 188.5 0.22
8/7/2022 9:30:00 PM 25.22 77.396 0.36 7.45 188.41 0.22
8/7/2022 9:45:00 PM 25.22 77.396 0.353 7.45 188.31 0.22
8/7/2022 10:00:00 PM 25.23 77.414 0.358 7.45 188.23 0.22
8/7/2022 10:15:00 PM 25.23 77.414 0.358 7.45 188.27 0.22
8/7/2022 10:30:00 PM 25.23 77.414 0.357 7.45 188.22 0.22
8/7/2022 10:45:00 PM 25.24 77.432 0.354 7.45 188.18 0.22
8/7/2022 11:00:00 PM 25.24 77.432 0.355 7.46 188.16 0.22
8/7/2022 11:15:00 PM 25.24 77.432 0.352 7.45 188.09 0.22
8/7/2022 11:30:00 PM 25.25 77.45 0.364 7.44 188.13 0.22
8/7/2022 11:45:00 PM 25.25 77.45 0.354 7.45 188.06 0.22
8/8/2022 12:00:00 AM 25.26 77.468 0.358 7.45 188.01 0.22
8/8/2022 12:15:00 AM 25.26 77.468 0.358 7.45 187.92 0.22
8/8/2022 12:30:00 AM 25.26 77.468 0.358 7.46 187.84 0.22
8/8/2022 12:45:00 AM 25.26 77.468 0.363 7.46 187.78 0.22
8/8/2022 1:00:00 AM 25.26 77.468 0.359 7.47 187.7 0.22
8/8/2022 1:15:00 AM 25.26 77.468 0.361 7.45 187.66 0.22
8/8/2022 1:30:00 AM 25.26 77.468 0.361 7.45 187.64 0.22
8/8/2022 1:45:00 AM 25.27 77.486 0.367 7.45 187.58 0.22
8/8/2022 2:00:00 AM 25.27 77.486 0.214 7.45 187.49 0.22
8/8/2022 2:15:00 AM 25.27 77.486 0.211 7.45 187.49 0.22
8/8/2022 2:30:00 AM 25.27 77.486 0.209 7.44 187.38 0.22
8/8/2022 2:45:00 AM 25.27 77.486 0.402 7.44 187.31 0.22
8/8/2022 3:00:00 AM 25.27 77.486 0.391 7.44 187.21 0.22
8/8/2022 3:15:00 AM 25.27 77.486 0.389 7.44 187.13 0.22
8/8/2022 3:30:00 AM 25.27 77.486 0.388 7.44 187.06 0.22
8/8/2022 3:45:00 AM 25.27 77.486 0.382 7.44 186.97 0.22
8/8/2022 4:00:00 AM 25.27 77.486 0.376 7.44 187.02 0.22
8/8/2022 4:15:00 AM 25.27 77.486 0.376 7.45 186.92 0.22
8/8/2022 4:30:00 AM 25.27 77.486 0.22 7.44 186.79 0.22
8/8/2022 4:45:00 AM 25.27 77.486 0.39 7.44 186.84 0.22
8/8/2022 5:00:00 AM 25.27 77.486 0.39 7.41 186.73 0.22
8/8/2022 5:15:00 AM 25.27 77.486 0.392 7.36 186.68 0.22
8/8/2022 5:30:00 AM 25.26 77.468 0.395 7.33 186.62 0.22
8/8/2022 5:45:00 AM 25.26 77.468 0.396 7.32 186.6 0.22
8/8/2022 6:00:00 AM 25.26 77.468 0.391 7.32 186.58 0.22
8/8/2022 6:15:00 AM 25.25 77.45 0.39 7.32 186.54 0.22
8/8/2022 6:30:00 AM 25.25 77.45 0.394 7.33 186.5 0.22
8/8/2022 6:45:00 AM 25.25 77.45 0.396 7.32 186.4 0.22
8/8/2022 7:00:00 AM 25.24 77.432 0.395 7.31 186.31 0.22
8/8/2022 7:15:00 AM 25.24 77.432 0.4 7.31 186.29 0.22
8/8/2022 7:30:00 AM 25.23 77.414 0.403 7.31 186.22 0.22
8/8/2022 7:45:00 AM 25.23 77.414 0.406 7.3 186.22 0.22
8/8/2022 8:00:00 AM 25.22 77.396 0.405 7.3 186.14 0.22
8/8/2022 8:15:00 AM 25.21 77.378 0.411 7.31 185.93 0.22
8/8/2022 8:30:00 AM 25.21 77.378 0.41 7.31 185.93 0.22
8/8/2022 8:45:00 AM 25.2 77.36 0.412 7.3 185.87 0.22
8/8/2022 9:00:00 AM 25.19 77.342 0.407 7.3 185.8 0.22
8/8/2022 9:15:00 AM 25.18 77.324 0.375 7.29 185.93 0.22
8/8/2022 9:30:00 AM 25.17 77.306 0.358 7.29 186.06 0.22
8/8/2022 9:45:00 AM 25.17 77.306 0.345 7.29 186.24 0.22
8/8/2022 10:00:00 AM 25.16 77.288 0.338 7.3 186.19 0.22
8/8/2022 10:15:00 AM 25.15 77.27 0.329 7.3 186.32 0.22
8/8/2022 10:30:00 AM 25.15 77.27 0.32 7.31 186.43 0.22
8/8/2022 10:45:00 AM 25.14 77.252 0.315 7.31 186.48 0.22
8/8/2022 11:00:00 AM 25.14 77.252 0.31 7.31 186.77 0.22
8/8/2022 11:15:00 AM 25.14 77.252 0.308 7.31 186.92 0.22
8/8/2022 11:30:00 AM 25.14 77.252 0.303 7.33 186.9 0.22
8/8/2022 11:45:00 AM 25.14 77.252 0.301 7.35 186.84 0.22
8/8/2022 12:00:00 PM 25.14 77.252 0.297 7.37 186.9 0.22
8/8/2022 12:15:00 PM 25.14 77.252 0.295 7.36 186.91 0.22
8/8/2022 12:30:00 PM 25.14 77.252 0.293 7.37 187.04 0.22
8/8/2022 12:45:00 PM 25.15 77.27 0.293 7.38 187.04 0.22
8/8/2022 1:00:00 PM 25.16 77.288 0.257 7.4 186.82 0.22
8/8/2022 1:15:00 PM 25.16 77.288 0.205 7.41 186.49 0.22
8/8/2022 1:30:00 PM 25.17 77.306 0.203 7.41 186.41 0.22
8/8/2022 1:45:00 PM 25.18 77.324 0.202 7.42 185.96 0.22
8/8/2022 2:00:00 PM 25.19 77.342 0.237 7.42 185.58 0.22
8/8/2022 2:15:00 PM 25.2 77.36 0.255 7.42 186.14 0.22
8/8/2022 2:30:00 PM 25.21 77.378 0.258 7.43 186.75 0.22
8/8/2022 2:45:00 PM 25.22 77.396 0.246 7.43 187.07 0.22
8/8/2022 3:00:00 PM 25.23 77.414 0.234 7.43 187.11 0.22
8/8/2022 3:15:00 PM 25.24 77.432 0.232 7.43 187.27 0.22
8/8/2022 3:30:00 PM 25.26 77.468 0.23 7.43 187.1 0.22
8/8/2022 3:45:00 PM 25.28 77.504 0.228 7.43 186.61 0.22
8/8/2022 4:00:00 PM 25.29 77.522 0.223 7.43 186.34 0.22
8/8/2022 4:15:00 PM 25.31 77.558 0.224 7.43 186.31 0.22
8/8/2022 4:30:00 PM 25.32 77.576 0.217 7.42 186.23 0.22
8/8/2022 4:45:00 PM 25.33 77.594 0.21 7.42 185.96 0.22
8/8/2022 5:00:00 PM 25.34 77.612 0.213 7.42 185.76 0.22
8/8/2022 5:15:00 PM 25.35 77.63 0.212 7.42 185.72 0.22
8/8/2022 5:30:00 PM 25.37 77.666 0.214 7.43 185.67 0.22
8/8/2022 5:45:00 PM 25.38 77.684 0.212 7.43 185.58 0.22
8/8/2022 6:00:00 PM 25.39 77.702 0.356 7.43 185.25 0.22
8/8/2022 6:15:00 PM 25.41 77.738 0.632 7.43 184.93 0.22
8/8/2022 6:30:00 PM 25.42 77.756 0.643 7.43 184.86 0.22
8/8/2022 6:45:00 PM 25.43 77.774 0.646 7.43 184.82 0.22
8/8/2022 7:00:00 PM 25.44 77.792 0.649 7.43 184.77 0.22
8/8/2022 7:15:00 PM 25.45 77.81 0.647 7.44 184.71 0.22
8/8/2022 7:30:00 PM 25.45 77.81 0.642 7.43 184.68 0.22
8/8/2022 7:45:00 PM 25.46 77.828 0.626 7.43 184.67 0.22
8/8/2022 8:00:00 PM 25.47 77.846 0.624 7.43 184.61 0.22
8/8/2022 8:15:00 PM 25.47 77.846 0.636 7.43 184.52 0.22
8/8/2022 8:30:00 PM 25.48 77.864 0.647 7.43 184.48 0.22
8/8/2022 8:45:00 PM 25.48 77.864 0.489 7.43 184.45 0.22
8/8/2022 9:00:00 PM 25.48 77.864 0.659 7.43 184.35 0.22
8/8/2022 9:15:00 PM 25.48 77.864 0.664 7.43 184.29 0.22
8/8/2022 9:30:00 PM 25.49 77.882 0.675 7.42 184.31 0.22
8/8/2022 9:45:00 PM 25.49 77.882 0.679 7.43 184.22 0.22
8/8/2022 10:00:00 PM 25.49 77.882 0.681 7.43 184.26 0.22
8/8/2022 10:15:00 PM 25.49 77.882 0.677 7.44 184.13 0.22
8/8/2022 10:30:00 PM 25.49 77.882 0.675 7.44 184.17 0.22
8/8/2022 10:45:00 PM 25.49 77.882 0.672 7.44 184.17 0.22
8/8/2022 11:00:00 PM 25.49 77.882 0.67 7.44 184.2 0.22
8/8/2022 11:15:00 PM 25.49 77.882 0.666 7.44 184.12 0.22
8/8/2022 11:30:00 PM 25.49 77.882 0.665 7.44 184.03 0.22
8/8/2022 11:45:00 PM 25.49 77.882 0.662 7.44 183.99 0.22
8/9/2022 12:00:00 AM 25.49 77.882 0.66 7.44 183.97 0.22
8/9/2022 12:15:00 AM 25.49 77.882 0.66 7.44 183.81 0.22
8/9/2022 12:30:00 AM 25.49 77.882 0.653 7.44 183.74 0.22
8/9/2022 12:45:00 AM 25.49 77.882 0.655 7.44 183.67 0.22
8/9/2022 1:00:00 AM 25.49 77.882 0.656 7.45 183.52 0.22
8/9/2022 1:15:00 AM 25.49 77.882 0.653 7.45 183.4 0.22
8/9/2022 1:30:00 AM 25.49 77.882 0.654 7.45 183.29 0.22
8/9/2022 1:45:00 AM 25.49 77.882 0.65 7.46 183.22 0.22
8/9/2022 2:00:00 AM 25.49 77.882 0.65 7.45 183.18 0.22
8/9/2022 2:15:00 AM 25.49 77.882 0.654 7.45 183.17 0.22
8/9/2022 2:30:00 AM 25.49 77.882 0.65 7.44 183.09 0.22
8/9/2022 2:45:00 AM 25.49 77.882 0.649 7.43 183.08 0.22
8/9/2022 3:00:00 AM 25.49 77.882 0.648 7.43 182.95 0.22
8/9/2022 3:15:00 AM 25.48 77.864 0.651 7.42 182.84 0.22
8/9/2022 3:30:00 AM 25.48 77.864 0.65 7.39 182.75 0.22
8/9/2022 3:45:00 AM 25.47 77.846 0.65 7.38 182.53 0.22
8/9/2022 4:00:00 AM 25.47 77.846 0.651 7.36 182.33 0.22
8/9/2022 4:15:00 AM 25.46 77.828 0.649 7.37 182.2 0.22
8/9/2022 4:30:00 AM 25.46 77.828 0.648 7.35 182.13 0.22
8/9/2022 4:45:00 AM 25.46 77.828 0.651 7.36 182 0.22
8/9/2022 5:00:00 AM 25.45 77.81 0.652 7.37 181.84 0.22
8/9/2022 5:15:00 AM 25.45 77.81 0.657 7.39 181.49 0.22
8/9/2022 5:30:00 AM 25.44 77.792 0.656 7.4 181.28 0.22
8/9/2022 5:45:00 AM 25.44 77.792 0.655 7.4 181.09 0.22
8/9/2022 6:00:00 AM 25.44 77.792 0.653 7.37 180.78 0.22
8/9/2022 6:15:00 AM 25.44 77.792 0.651 7.36 180.54 0.22
8/9/2022 6:30:00 AM 25.44 77.792 0.653 7.37 179.73 0.22
8/9/2022 6:45:00 AM 25.44 77.792 0.656 7.35 179.03 0.22
8/9/2022 7:00:00 AM 25.45 77.81 0.658 7.33 177.46 0.22
8/9/2022 7:15:00 AM 25.45 77.81 0.656 7.32 178.77 0.22
8/9/2022 7:30:00 AM 25.45 77.81 0.655 7.34 178.75 0.22
8/9/2022 7:45:00 AM 25.45 77.81 0.656 7.34 178.76 0.22
8/9/2022 8:00:00 AM 25.45 77.81 0.651 7.32 178.73 0.22
8/9/2022 8:15:00 AM 25.45 77.81 0.649 7.31 178.68 0.22
8/9/2022 8:30:00 AM 25.45 77.81 0.643 7.3 178.55 0.22
8/9/2022 8:45:00 AM 25.45 77.81 0.629 7.3 178.52 0.22
8/9/2022 9:00:00 AM 25.44 77.792 0.62 7.3 178.45 0.22
8/9/2022 9:15:00 AM 25.44 77.792 0.616 7.3 178.45 0.22
8/9/2022 9:30:00 AM 25.44 77.792 0.609 7.3 178.4 0.22
8/9/2022 9:45:00 AM 25.43 77.774 0.607 7.3 178.31 0.22
8/9/2022 10:00:00 AM 25.42 77.756 0.588 7.3 178.23 0.22
8/9/2022 10:15:00 AM 25.41 77.738 0.226 7.3 178.16 0.22
8/9/2022 10:30:00 AM 25.4 77.72 0.447 7.31 178.13 0.22
8/9/2022 10:45:00 AM 25.4 77.72 0.396 7.31 178.1 0.22
8/9/2022 11:00:00 AM 25.39 77.702 0.407 7.31 178.32 0.22
8/9/2022 11:15:00 AM 25.38 77.684 0.297 7.3 178.16 0.22
8/9/2022 11:30:00 AM 25.37 77.666 0.218 7.29 178 0.22
8/9/2022 11:45:00 AM 25.36 77.648 0.215 7.28 178.01 0.22
8/9/2022 12:00:00 PM 25.35 77.63 0.216 7.29 177.76 0.22
8/9/2022 12:15:00 PM 25.35 77.63 0.209 7.28 177.71 0.22
8/9/2022 12:30:00 PM 25.34 77.612 0.206 7.29 178.12 0.22
8/9/2022 12:45:00 PM 25.34 77.612 0.201 7.3 178.32 0.22
8/9/2022 1:00:00 PM 25.33 77.594 0.195 7.29 177.87 0.22
8/9/2022 1:15:00 PM 25.33 77.594 0.189 7.29 178.55 0.22
8/9/2022 1:30:00 PM 25.33 77.594 0.179 7.34 178.99 0.22
8/9/2022 1:45:00 PM 25.33 77.594 0.171 7.35 178.75 0.22
8/9/2022 2:00:00 PM 25.34 77.612 0.163 7.36 178.6 0.22
8/9/2022 2:15:00 PM 25.34 77.612 0.152 7.37 178.19 0.22
8/9/2022 2:30:00 PM 25.35 77.63 0.151 7.39 177.82 0.22
8/9/2022 2:45:00 PM 25.36 77.648 0.161 7.39 177.75 0.22
8/9/2022 3:00:00 PM 25.37 77.666 0.166 7.39 177.79 0.22
8/9/2022 3:15:00 PM 25.38 77.684 0.171 7.39 178.06 0.22
8/9/2022 3:30:00 PM 25.4 77.72 0.175 7.39 177.6 0.22
8/9/2022 3:45:00 PM 25.41 77.738 0.178 7.39 177.5 0.22
8/9/2022 4:00:00 PM 25.43 77.774 0.183 7.39 177.48 0.22
8/9/2022 4:15:00 PM 25.45 77.81 0.186 7.39 177.35 0.22
8/9/2022 4:30:00 PM 25.46 77.828 0.19 7.39 177.2 0.22
8/9/2022 4:45:00 PM 25.48 77.864 0.194 7.4 177.11 0.22
8/9/2022 5:00:00 PM 25.49 77.882 0.198 7.4 176.93 0.22
8/9/2022 5:15:00 PM 25.5 77.9 0.201 7.4 176.85 0.22
8/9/2022 5:30:00 PM 25.51 77.918 0.204 7.41 176.84 0.22
8/9/2022 5:45:00 PM 25.52 77.936 0.206 7.41 176.59 0.22
8/9/2022 6:00:00 PM 25.53 77.954 0.229 7.4 176.47 0.22
8/9/2022 6:15:00 PM 25.54 77.972 0.211 7.39 176.49 0.22
8/9/2022 6:30:00 PM 25.54 77.972 0.235 7.39 176.37 0.22
8/9/2022 6:45:00 PM 25.54 77.972 0.214 7.39 176.23 0.22
8/9/2022 7:00:00 PM 25.55 77.99 0.215 7.38 176.12 0.22
8/9/2022 7:15:00 PM 25.55 77.99 0.217 7.38 175.92 0.22
8/9/2022 7:30:00 PM 25.55 77.99 0.211 7.36 175.97 0.22
8/9/2022 7:45:00 PM 25.55 77.99 0.212 7.37 175.94 0.22
8/9/2022 8:00:00 PM 25.55 77.99 0.255 7.37 175.84 0.22
8/9/2022 8:15:00 PM 25.55 77.99 0.214 7.36 175.78 0.22
8/9/2022 8:30:00 PM 25.55 77.99 0.215 7.36 175.71 0.22
8/9/2022 8:45:00 PM 25.55 77.99 0.256 7.36 175.56 0.22
8/9/2022 9:00:00 PM 25.55 77.99 0.256 7.37 175.55 0.22
8/9/2022 9:15:00 PM 25.55 77.99 0.239 7.38 175.42 0.22
8/9/2022 9:30:00 PM 25.55 77.99 0.268 7.38 175.44 0.22
8/9/2022 9:45:00 PM 25.55 77.99 0.28 7.38 175.36 0.22
8/9/2022 10:00:00 PM 25.56 78.008 0.289 7.38 175.28 0.22
8/9/2022 10:15:00 PM 25.56 78.008 0.294 7.38 175.15 0.22
8/9/2022 10:30:00 PM 25.56 78.008 0.3 7.38 175.03 0.22
8/9/2022 10:45:00 PM 25.56 78.008 0.306 7.38 174.99 0.22
8/9/2022 11:00:00 PM 25.57 78.026 0.311 7.38 174.89 0.22
8/9/2022 11:15:00 PM 25.57 78.026 0.317 7.38 174.86 0.22
8/9/2022 11:30:00 PM 25.58 78.044 0.32 7.38 174.77 0.22
8/9/2022 11:45:00 PM 25.58 78.044 0.318 7.38 174.65 0.22
8/10/2022 12:00:00 AM 25.59 78.062 0.322 7.39 174.56 0.22
8/10/2022 12:15:00 AM 25.59 78.062 0.32 7.39 174.48 0.22
8/10/2022 12:30:00 AM 25.6 78.08 0.32 7.39 174.47 0.22
8/10/2022 12:45:00 AM 25.6 78.08 0.316 7.39 174.41 0.22
8/10/2022 1:00:00 AM 25.61 78.098 0.311 7.39 174.3 0.22
8/10/2022 1:15:00 AM 25.62 78.116 0.313 7.39 174.14 0.22
8/10/2022 1:30:00 AM 25.62 78.116 0.317 7.39 174.09 0.22
8/10/2022 1:45:00 AM 25.63 78.134 0.318 7.39 174.03 0.22
8/10/2022 2:00:00 AM 25.64 78.152 0.32 7.39 173.98 0.22
8/10/2022 2:15:00 AM 25.65 78.17 0.32 7.4 173.86 0.22
8/10/2022 2:30:00 AM 25.66 78.188 0.317 7.4 173.75 0.22
8/10/2022 2:45:00 AM 25.67 78.206 0.317 7.4 173.64 0.22
8/10/2022 3:00:00 AM 25.68 78.224 0.322 7.41 173.58 0.22
8/10/2022 3:15:00 AM 25.68 78.224 0.324 7.42 173.48 0.22
8/10/2022 3:30:00 AM 25.69 78.242 0.328 7.41 173.35 0.22
8/10/2022 3:45:00 AM 25.7 78.26 0.331 7.41 173.24 0.22
8/10/2022 4:00:00 AM 25.7 78.26 0.333 7.41 173.18 0.22
8/10/2022 4:15:00 AM 25.7 78.26 0.335 7.41 173.06 0.22
8/10/2022 4:30:00 AM 25.7 78.26 0.338 7.41 172.97 0.22
8/10/2022 4:45:00 AM 25.7 78.26 0.338 7.4 172.81 0.22
8/10/2022 5:00:00 AM 25.69 78.242 0.341 7.39 172.73 0.22
8/10/2022 5:15:00 AM 25.69 78.242 0.339 7.37 172.67 0.22
8/10/2022 5:30:00 AM 25.67 78.206 0.339 7.34 172.47 0.22
8/10/2022 5:45:00 AM 25.66 78.188 0.339 7.32 172.4 0.22
8/10/2022 6:00:00 AM 25.64 78.152 0.342 7.31 172.34 0.22
8/10/2022 6:15:00 AM 25.62 78.116 0.345 7.31 172.23 0.22
8/10/2022 6:30:00 AM 25.6 78.08 0.345 7.31 172.2 0.22
8/10/2022 6:45:00 AM 25.58 78.044 0.346 7.3 172.2 0.22
8/10/2022 7:00:00 AM 25.55 77.99 0.348 7.28 172.11 0.22
8/10/2022 7:15:00 AM 25.52 77.936 0.347 7.26 172.01 0.22
8/10/2022 7:30:00 AM 25.49 77.882 0.336 7.24 172.37 0.22
8/10/2022 7:45:00 AM 25.46 77.828 0.33 7.21 172.29 0.22
8/10/2022 8:00:00 AM 25.42 77.756 0.33 7.2 172.21 0.22
8/10/2022 8:15:00 AM 25.39 77.702 0.328 7.19 172.09 0.22
8/10/2022 8:30:00 AM 25.35 77.63 0.321 7.17 172.14 0.22
8/10/2022 8:45:00 AM 25.32 77.576 0.3 7.16 172.06 0.22
8/10/2022 9:00:00 AM 25.28 77.504 0.267 7.14 172.1 0.22
8/10/2022 9:15:00 AM 25.24 77.432 0.253 7.13 172.01 0.22
8/10/2022 9:30:00 AM 25.21 77.378 0.248 7.13 171.97 0.22
8/10/2022 9:45:00 AM 25.17 77.306 0.247 7.12 171.88 0.22
8/10/2022 10:00:00 AM 25.14 77.252 0.244 7.12 171.86 0.22
8/10/2022 10:15:00 AM 25.1 77.18 0.241 7.12 171.82 0.22
8/10/2022 10:30:00 AM 25.07 77.126 0.239 7.13 171.62 0.22
8/10/2022 10:45:00 AM 25.04 77.07201 0.239 7.12 171.69 0.22
8/10/2022 11:00:00 AM 25.01 77.018 0.237 7.12 171.76 0.22
8/10/2022 11:15:00 AM 24.99 76.982 0.235 7.12 171.65 0.22
8/10/2022 11:30:00 AM 24.96 76.92799 0.235 7.12 172.16 0.22
8/10/2022 11:45:00 AM 24.94 76.892 0.232 7.13 171.67 0.22
8/10/2022 12:00:00 PM 24.92 76.856 0.231 7.13 172.14 0.22
8/10/2022 12:15:00 PM 24.9 76.82 0.232 7.14 172.15 0.22
8/10/2022 12:30:00 PM 24.89 76.802 0.229 7.16 171.59 0.22
8/10/2022 12:45:00 PM 24.87 76.766 0.229 7.16 171.74 0.22
8/10/2022 1:00:00 PM 24.86 76.748 0.227 7.18 171.67 0.22
8/10/2022 1:15:00 PM 24.85 76.73 0.228 7.19 172.43 0.22
8/10/2022 1:30:00 PM 24.84 76.712 0.226 7.21 171.71 0.22
8/10/2022 1:45:00 PM 24.83 76.694 0.226 7.21 172.36 0.22
8/10/2022 2:00:00 PM 24.83 76.694 0.225 7.23 172.2 0.22
8/10/2022 2:15:00 PM 24.83 76.694 0.224 7.22 172.25 0.22
8/10/2022 2:30:00 PM 24.83 76.694 0.224 7.23 172.38 0.22
8/10/2022 2:45:00 PM 24.83 76.694 0.223 7.23 171.97 0.22
8/10/2022 3:00:00 PM 24.84 76.712 0.222 7.24 171.68 0.22
8/10/2022 3:15:00 PM 24.84 76.712 0.222 7.24 171.51 0.22
8/10/2022 3:30:00 PM 24.85 76.73 0.221 7.25 171.56 0.22
8/10/2022 3:45:00 PM 24.86 76.748 0.221 7.25 171.3 0.22
8/10/2022 4:00:00 PM 24.86 76.748 0.222 7.25 171.32 0.22
8/10/2022 4:15:00 PM 24.87 76.766 0.221 7.26 171.04 0.22
8/10/2022 4:30:00 PM 24.88 76.784 0.221 7.25 170.71 0.22
8/10/2022 4:45:00 PM 24.88 76.784 0.221 7.24 170.58 0.22
8/10/2022 5:00:00 PM 24.89 76.802 0.221 7.24 170.37 0.22
8/10/2022 5:15:00 PM 24.89 76.802 0.221 7.24 170.27 0.22
8/10/2022 5:30:00 PM 24.9 76.82 0.221 7.24 170.15 0.22
8/10/2022 5:45:00 PM 24.9 76.82 0.22 7.24 170.03 0.22
8/10/2022 6:00:00 PM 24.9 76.82 0.22 7.24 169.95 0.22
8/10/2022 6:15:00 PM 24.9 76.82 0.169 7.24 169.82 0.22
8/10/2022 6:30:00 PM 24.9 76.82 0.168 7.24 172.07 0.22
8/10/2022 6:45:00 PM 24.91 76.838 0.167 7.26 172.17 0.22
8/10/2022 7:00:00 PM 24.91 76.838 0.167 7.27 172.18 0.22
8/10/2022 7:15:00 PM 24.91 76.838 0.167 7.3 172.2 0.22
8/10/2022 7:30:00 PM 24.91 76.838 0.251 7.3 172.28 0.22
8/10/2022 7:45:00 PM 24.91 76.838 0.236 7.3 172.21 0.22
8/10/2022 8:00:00 PM 24.91 76.838 0.234 7.29 172.22 0.22
8/10/2022 8:15:00 PM 24.92 76.856 0.235 7.29 172.13 0.22
8/10/2022 8:30:00 PM 24.92 76.856 0.237 7.31 172.14 0.22
8/10/2022 8:45:00 PM 24.92 76.856 0.238 7.32 171.98 0.22
8/10/2022 9:00:00 PM 24.93 76.874 0.239 7.32 171.97 0.22
8/10/2022 9:15:00 PM 24.93 76.874 0.242 7.31 171.87 0.22
8/10/2022 9:30:00 PM 24.93 76.874 0.245 7.3 171.82 0.22
8/10/2022 9:45:00 PM 24.94 76.892 0.246 7.28 171.78 0.22
8/10/2022 10:00:00 PM 24.94 76.892 0.248 7.26 171.76 0.22
8/10/2022 10:15:00 PM 24.94 76.892 0.253 7.27 171.65 0.22
8/10/2022 10:30:00 PM 24.95 76.91 0.255 7.28 171.59 0.22
8/10/2022 10:45:00 PM 24.95 76.91 0.255 7.27 171.61 0.22
8/10/2022 11:00:00 PM 24.95 76.91 0.253 7.27 171.59 0.22
8/10/2022 11:15:00 PM 24.95 76.91 0.255 7.26 171.49 0.22
8/10/2022 11:30:00 PM 24.95 76.91 0.256 7.26 171.49 0.22
8/10/2022 11:45:00 PM 24.95 76.91 0.258 7.26 171.44 0.22
8/11/2022 12:00:00 AM 24.95 76.91 0.26 7.26 171.46 0.22
8/11/2022 12:15:00 AM 24.95 76.91 0.263 7.26 171.35 0.22
8/11/2022 12:30:00 AM 24.95 76.91 0.263 7.27 171.25 0.22
8/11/2022 12:45:00 AM 24.95 76.91 0.263 7.28 171.2 0.22
8/11/2022 1:00:00 AM 24.95 76.91 0.264 7.27 171.14 0.22
8/11/2022 1:15:00 AM 24.95 76.91 0.265 7.28 171.09 0.22
8/11/2022 1:30:00 AM 24.95 76.91 0.266 7.28 171.01 0.22
8/11/2022 1:45:00 AM 24.95 76.91 0.268 7.27 170.86 0.22
8/11/2022 2:00:00 AM 24.95 76.91 0.271 7.27 170.83 0.22
8/11/2022 2:15:00 AM 24.95 76.91 0.274 7.27 170.76 0.22
8/11/2022 2:30:00 AM 24.95 76.91 0.268 7.26 170.62 0.22
8/11/2022 2:45:00 AM 24.95 76.91 0.27 7.27 170.62 0.22
8/11/2022 3:00:00 AM 24.95 76.91 0.27 7.27 170.55 0.22
8/11/2022 3:15:00 AM 24.94 76.892 0.274 7.27 170.48 0.22
8/11/2022 3:30:00 AM 24.94 76.892 0.274 7.27 170.42 0.22
8/11/2022 3:45:00 AM 24.94 76.892 0.275 7.26 170.33 0.22
8/11/2022 4:00:00 AM 24.94 76.892 0.276 7.31 170.29 0.22
8/11/2022 4:15:00 AM 24.93 76.874 0.273 7.31 170.19 0.22
8/11/2022 4:30:00 AM 24.93 76.874 0.273 7.31 170.1 0.22
8/11/2022 4:45:00 AM 24.93 76.874 0.278 7.3 170.01 0.22
8/11/2022 5:00:00 AM 24.93 76.874 0.275 7.28 169.93 0.22
8/11/2022 5:15:00 AM 24.93 76.874 0.279 7.27 169.94 0.22
8/11/2022 5:30:00 AM 24.93 76.874 0.278 7.26 169.79 0.22
8/11/2022 5:45:00 AM 24.93 76.874 0.28 7.26 169.72 0.22
8/11/2022 6:00:00 AM 24.93 76.874 0.284 7.23 169.69 0.22
8/11/2022 6:15:00 AM 24.92 76.856 0.284 7.23 169.58 0.22
8/11/2022 6:30:00 AM 24.92 76.856 0.285 7.23 169.55 0.22
8/11/2022 6:45:00 AM 24.91 76.838 0.285 7.23 169.51 0.22
8/11/2022 7:00:00 AM 24.91 76.838 0.283 7.22 169.42 0.22
8/11/2022 7:15:00 AM 24.9 76.82 0.283 7.21 169.29 0.22
8/11/2022 7:30:00 AM 24.88 76.784 0.278 7.21 169.29 0.22
8/11/2022 7:45:00 AM 24.87 76.766 0.279 7.2 169.19 0.22
8/11/2022 8:00:00 AM 24.85 76.73 0.277 7.19 169.14 0.22
8/11/2022 8:15:00 AM 24.83 76.694 0.283 7.18 169.06 0.22
8/11/2022 8:30:00 AM 24.81 76.658 0.283 7.16 168.98 0.22
8/11/2022 8:45:00 AM 24.79 76.622 0.292 7.14 168.93 0.22
8/11/2022 9:00:00 AM 24.76 76.568 0.294 7.12 168.84 0.22
8/11/2022 9:15:00 AM 24.74 76.532 0.29 7.11 170.38 0.22
8/11/2022 9:30:00 AM 24.71 76.478 0.283 7.1 170.41 0.22
8/11/2022 9:45:00 AM 24.68 76.424 0.265 7.09 170.35 0.22
8/11/2022 10:00:00 AM 0 32 0 0 0 0
8/11/2022 10:15:00 AM 23.69 74.642 0.11 6.8 3.55 2.7
8/11/2022 10:30:00 AM 23.68 74.624 0.11 6.72 5.16 2.59
8/11/2022 10:45:00 AM 23.68 74.624 0.109 6.69 4.1 2.58
8/11/2022 11:00:00 AM 23.69 74.642 0.109 6.67 4 2.5
8/11/2022 11:15:00 AM 23.73 74.714 0.109 6.65 3.81 2.52
8/11/2022 11:30:00 AM 23.74 74.732 0.109 6.66 3.63 2.5
8/11/2022 11:45:00 AM 23.75 74.75 0.109 6.67 3.53 2.53
8/11/2022 12:00:00 PM 23.75 74.75 0.109 6.68 3.56 2.55
8/11/2022 12:15:00 PM 23.82 74.876 0.109 6.69 3.59 2.61
8/11/2022 12:30:00 PM 23.86 74.948 0.109 6.72 3.54 2.65
8/11/2022 12:45:00 PM 23.9 75.02 0.109 6.73 3.48 2.68
8/11/2022 1:00:00 PM 23.98 75.164 0.109 6.73 3.41 2.72
8/11/2022 1:15:00 PM 24.01 75.218 0.109 6.74 3.36 2.79
8/11/2022 1:30:00 PM 24.06 75.308 0.109 6.75 3.42 2.9
8/11/2022 1:45:00 PM 24.09 75.362 0.108 6.76 3.44 3
8/11/2022 2:00:00 PM 24.12 75.416 0.108 6.77 3.4 2.99
8/11/2022 2:15:00 PM 24.14 75.452 0.108 6.77 3.41 3.03
8/11/2022 2:30:00 PM 24.2 75.56 0.108 6.77 3.31 3.06
8/11/2022 2:45:00 PM 24.24 75.632 0.109 6.78 3.3 3.12
8/11/2022 3:00:00 PM 24.29 75.722 0.108 6.78 3.33 3.09
8/11/2022 3:15:00 PM 22.78 73.004 0.101 6.34 3.12 3.04
8/11/2022 3:30:00 PM 24.11 75.398 0.107 6.73 3.23 3.36
8/11/2022 3:45:00 PM 24.33 75.794 0.108 6.77 3.23 3.43
8/11/2022 4:00:00 PM 24.4 75.92 0.108 6.79 3.21 3.46
8/11/2022 4:15:00 PM 24.43 75.974 0.109 6.8 3.13 3.44
8/11/2022 4:30:00 PM 24.45 76.01 0.109 6.8 3.14 3.32
8/11/2022 4:45:00 PM 24.46 76.028 0.109 6.8 3.16 3.38
8/11/2022 5:00:00 PM 24.5 76.1 0.109 6.79 3.05 3.25
8/11/2022 5:15:00 PM 24.52 76.136 0.109 6.78 3 3.18
8/11/2022 5:30:00 PM 24.53 76.154 0.109 6.78 2.95 3.16
8/11/2022 5:45:00 PM 22.93 73.274 0.102 6.33 2.78 2.86
8/11/2022 6:00:00 PM 24.37 75.866 0.109 6.72 3.04 3.14
8/11/2022 6:15:00 PM 23.12 73.616 0.103 6.36 2.8 3.01
8/11/2022 6:30:00 PM 24.53 76.154 0.108 6.74 2.89 3.38
8/11/2022 6:45:00 PM 24.79 76.622 0.109 6.81 2.99 3.71
8/11/2022 7:00:00 PM 24.68 76.424 0.109 6.79 3 3.3
8/11/2022 7:15:00 PM 24.61 76.298 0.109 6.78 3.01 3.12
8/11/2022 7:30:00 PM 24.56 76.208 0.109 6.77 3 3.02
8/11/2022 7:45:00 PM 24.58 76.244 0.109 6.78 3.85 3.14
8/11/2022 8:00:00 PM 24.55 76.19 0.109 6.78 3.54 3.13
8/11/2022 8:15:00 PM 23.54 74.372 0.105 6.5 3.41 3.06
8/11/2022 8:30:00 PM 23.04 73.472 0.102 6.36 2.98 2.92
8/11/2022 8:45:00 PM 24.43 75.974 0.109 6.74 3.4 3.37
8/11/2022 9:00:00 PM 24.58 76.244 0.109 6.78 3.36 3.24
8/11/2022 9:15:00 PM 24.62 76.316 0.109 6.8 3.39 3.31
8/11/2022 9:30:00 PM 24.65 76.37 0.109 6.79 3.29 3.35
8/11/2022 9:45:00 PM 23.66 74.588 0.105 6.52 3.21 3.2
8/11/2022 10:00:00 PM 24.49 76.082 0.109 6.75 5.28 3.12
8/11/2022 10:15:00 PM 24.63 76.334 0.109 6.78 3.98 3.16
8/11/2022 10:30:00 PM 24.66 76.388 0.109 6.79 3.68 3.28
8/11/2022 10:45:00 PM 24.66 76.388 0.109 6.79 3.99 3.53
8/11/2022 11:00:00 PM 24.68 76.424 0.109 6.79 3.78 3.65
8/11/2022 11:15:00 PM 23.34 74.012 0.103 6.41 3.35 3.35
8/11/2022 11:30:00 PM 24.47 76.046 0.108 6.74 3.9 3.46
8/11/2022 11:45:00 PM 24.61 76.298 0.109 6.77 3.7 3.37
8/12/2022 12:00:00 AM 24.62 76.316 0.109 6.77 3.46 3.27
8/12/2022 12:15:00 AM 24.62 76.316 0.109 6.78 3.61 3.38
8/12/2022 12:30:00 AM 23.6 74.48 0.104 6.5 3.28 3.2
8/12/2022 12:45:00 AM 24.45 76.01 0.108 6.75 3.49 3.33
8/12/2022 1:00:00 AM 23.16 73.688 0.102 6.39 3.51 3.16
8/12/2022 1:15:00 AM 24.37 75.866 0.107 6.73 3.72 3.36
8/12/2022 1:30:00 AM 24.52 76.136 0.108 6.78 3.58 3.34
8/12/2022 1:45:00 AM 24.55 76.19 0.108 6.77 3.5 3.24
8/12/2022 2:00:00 AM 21.26 70.268 0.094 5.87 3.21 2.71
8/12/2022 2:15:00 AM 7.83 46.094 0.035 2.16 1.12 0.97
8/12/2022 2:30:00 AM 22.25 72.05 0.099 6.15 3.5 2.75
8/12/2022 2:45:00 AM 23.48 74.264 0.104 6.49 3.79 2.92
8/12/2022 3:00:00 AM 24.33 75.794 0.108 6.72 4.13 2.9
8/12/2022 3:15:00 AM 24.41 75.938 0.109 6.74 4.91 2.84
8/12/2022 3:30:00 AM 23.41 74.138 0.104 6.51 4.18 3.13
8/12/2022 3:45:00 AM 24.43 75.974 0.107 6.89 4.73 4.82
8/12/2022 4:00:00 AM 24.58 76.244 0.106 7.02 3.79 6.06
8/12/2022 4:15:00 AM 24.54 76.172 0.106 7.08 3.67 6.4
8/12/2022 4:30:00 AM 24.46 76.028 0.106 7.08 3.81 6.39
8/12/2022 4:45:00 AM 24.4 75.92 0.106 7.06 3.66 6.34
8/12/2022 5:00:00 AM 24.33 75.794 0.106 7.04 3.69 6.15
8/12/2022 5:15:00 AM 24.25 75.65 0.106 7.02 4.5 5.96
8/12/2022 5:30:00 AM 24.16 75.488 0.106 7 5.05 5.83
8/12/2022 5:45:00 AM 24.06 75.308 0.106 6.97 4.12 5.69
8/12/2022 6:00:00 AM 23.97 75.146 0.106 6.89 3.73 5.55
8/12/2022 6:15:00 AM 23.88 74.984 0.106 6.83 3.51 5.37
8/12/2022 6:30:00 AM 23.8 74.84 0.106 6.8 3.61 5.27
8/12/2022 6:45:00 AM 23.71 74.67799 0.106 6.78 3.58 5.12
8/12/2022 7:00:00 AM 23.62 74.516 0.106 6.78 3.56 4.99
8/12/2022 7:15:00 AM 23.52 74.336 0.106 6.76 3.47 4.84
8/12/2022 7:30:00 AM 23.43 74.174 0.106 6.75 3.49 4.7
8/12/2022 7:45:00 AM 23.35 74.03 0.106 6.75 3.52 4.57
8/12/2022 8:00:00 AM 23.25 73.85 0.107 6.74 3.42 4.43
8/12/2022 8:15:00 AM 23.19 73.742 0.107 6.75 3.53 4.32
8/12/2022 8:30:00 AM 23.1 73.58 0.107 6.75 3.54 4.22
8/12/2022 8:45:00 AM 22.1 71.78 0.103 6.48 3.28 3.92
8/12/2022 9:00:00 AM 22.81 73.058 0.107 6.7 3.5 4
8/12/2022 9:15:00 AM 22.85 73.13 0.107 6.73 3.79 4.01
8/12/2022 9:30:00 AM 22.82 73.076 0.107 6.76 3.6 4
8/12/2022 9:45:00 AM 22.8 73.04 0.107 6.77 3.58 3.96
8/12/2022 10:00:00 AM 22.74 72.932 0.107 6.77 3.67 3.88
8/12/2022 10:15:00 AM 21.38 70.484 0.102 6.37 3.45 3.51
8/12/2022 10:30:00 AM 22.46 72.42799 0.107 6.68 3.61 3.61
8/12/2022 10:45:00 AM 22.62 72.716 0.108 6.75 3.65 3.62
8/12/2022 11:00:00 AM 22.65 72.77 0.108 6.78 3.82 3.64
8/12/2022 11:15:00 AM 22.68 72.824 0.108 6.8 3.73 3.71
8/12/2022 11:30:00 AM 22.76 72.968 0.108 6.81 3.66 3.79
8/12/2022 11:45:00 AM 21.7 71.06 0.103 6.48 3.44 3.59
8/12/2022 12:00:00 PM 22.72 72.896 0.108 6.78 3.52 3.74
8/12/2022 12:15:00 PM 22.88 73.184 0.108 6.82 3.62 3.79
8/12/2022 12:30:00 PM 22.95 73.31 0.108 6.84 3.66 3.85
8/12/2022 12:45:00 PM 23.01 73.418 0.108 6.84 3.7 3.9
8/12/2022 1:00:00 PM 22.2 71.96 0.104 6.58 3.41 3.83
8/12/2022 1:15:00 PM 22.27 72.086 0.104 6.58 3.32 3.92
8/12/2022 1:30:00 PM 23.12 73.616 0.108 6.83 3.49 4.12
8/12/2022 1:45:00 PM 23.27 73.886 0.108 6.87 3.49 4.18
8/12/2022 2:00:00 PM 23.35 74.03 0.109 6.87 3.52 4.23
8/12/2022 2:15:00 PM 23.42 74.156 0.108 6.87 3.52 4.29
8/12/2022 2:30:00 PM 22.51 72.518 0.104 6.62 3.32 4.22
8/12/2022 2:45:00 PM 23.44 74.192 0.108 6.86 3.39 4.5
8/12/2022 3:00:00 PM 23.84 74.912 0.108 6.97 3.11 5.33
8/12/2022 3:15:00 PM 23.9 75.02 0.108 7.01 3.03 5.7
8/12/2022 3:30:00 PM 23.92 75.056 0.108 7.02 3.07 5.83
8/12/2022 3:45:00 PM 23.96 75.128 0.108 7.05 3 6.08
8/12/2022 4:00:00 PM 23.96 75.128 0.108 7.07 3.01 6.22
8/12/2022 4:15:00 PM 23.98 75.164 0.108 7.09 3.02 6.41
8/12/2022 4:30:00 PM 24.03 75.254 0.108 7.1 3.05 6.63
8/12/2022 4:45:00 PM 24.04 75.272 0.108 7.14 3.02 6.83
8/12/2022 5:00:00 PM 24.04 75.272 0.107 7.16 3.05 6.99
8/12/2022 5:15:00 PM 24.04 75.272 0.107 7.18 3.02 7.11
8/12/2022 5:30:00 PM 24.05 75.29 0.107 7.21 3.04 7.24
8/12/2022 5:45:00 PM 24.06 75.308 0.107 7.23 3.05 7.32
8/12/2022 6:00:00 PM 24.08 75.344 0.107 7.26 3.03 7.59
8/12/2022 6:15:00 PM 24.09 75.362 0.107 7.3 3.02 7.76
8/12/2022 6:30:00 PM 24.13 75.434 0.107 7.31 3.11 7.89
8/12/2022 6:45:00 PM 24.18 75.524 0.106 7.36 3.4 8.04
8/12/2022 7:00:00 PM 24.2 75.56 0.106 7.35 3.07 8.09
8/12/2022 7:15:00 PM 24.23 75.614 0.106 7.36 3.1 8.14
8/12/2022 7:30:00 PM 24.14 75.452 0.107 7.25 3.2 7.46
8/12/2022 7:45:00 PM 20.75 69.35 0.094 6.11 2.82 5.35
8/12/2022 8:00:00 PM 23.47 74.246 0.106 6.9 3.35 5.83
8/12/2022 8:15:00 PM 23.8 74.84 0.108 6.98 3.32 5.63
8/12/2022 8:30:00 PM 23.83 74.894 0.108 7 3.54 5.49
8/12/2022 8:45:00 PM 22.44 72.392 0.102 6.58 3.25 5.07
8/12/2022 9:00:00 PM 23.61 74.498 0.108 6.91 3.6 5.21
8/12/2022 9:15:00 PM 23.76 74.768 0.108 6.95 4.1 5.13
8/12/2022 9:30:00 PM 23.78 74.804 0.108 6.95 3.48 5.05
8/12/2022 9:45:00 PM 23.78 74.804 0.109 6.95 3.72 5.05
8/12/2022 10:00:00 PM 23.78 74.804 0.108 6.95 3.63 5.09
8/12/2022 10:15:00 PM 23.78 74.804 0.108 6.95 3.57 5.1
8/12/2022 10:30:00 PM 23.78 74.804 0.108 6.95 3.68 5.11
8/12/2022 10:45:00 PM 23.79 74.82201 0.108 6.95 3.54 5.05
8/12/2022 11:00:00 PM 23.79 74.82201 0.108 6.95 3.93 5.1
8/12/2022 11:15:00 PM 23.78 74.804 0.108 6.93 3.79 5.03
8/12/2022 11:30:00 PM 23.77 74.786 0.108 6.92 3.81 4.87
8/12/2022 11:45:00 PM 23.77 74.786 0.108 6.92 3.77 4.8
8/13/2022 12:00:00 AM 23.77 74.786 0.108 6.9 3.65 4.64
8/13/2022 12:15:00 AM 23.77 74.786 0.108 6.9 3.52 4.57
8/13/2022 12:30:00 AM 23.82 74.876 0.108 6.94 3.62 4.83
8/13/2022 12:45:00 AM 22.9 73.22 0.102 6.78 3.39 5.87
8/13/2022 1:00:00 AM 23.86 74.948 0.105 7.32 3.68 7.84
8/13/2022 1:15:00 AM 23.95 75.11 0.104 7.44 3.9 8.34
8/13/2022 1:30:00 AM 23.93 75.074 0.104 7.5 3.78 8.52
8/13/2022 1:45:00 AM 23.88 74.984 0.104 7.51 3.77 8.5
8/13/2022 2:00:00 AM 23.84 74.912 0.104 7.5 3.51 8.49
8/13/2022 2:15:00 AM 23.79 74.82201 0.104 7.46 3.79 8.34
8/13/2022 2:30:00 AM 23.72 74.696 0.104 7.45 6.19 8.31
8/13/2022 2:45:00 AM 23.68 74.624 0.104 7.43 3.94 8.23
8/13/2022 3:00:00 AM 23.61 74.498 0.104 7.4 4.4 8.12
8/13/2022 3:15:00 AM 23.55 74.39 0.104 7.34 4.42 7.95
8/13/2022 3:30:00 AM 23.49 74.282 0.104 7.33 3.8 7.87
8/13/2022 3:45:00 AM 23.42 74.156 0.104 7.3 4.21 7.74
8/13/2022 4:00:00 AM 23.35 74.03 0.105 7.28 3.8 7.62
8/13/2022 4:15:00 AM 23.29 73.922 0.105 7.25 3.61 7.49
8/13/2022 4:30:00 AM 23.2 73.76 0.105 7.21 3.89 7.34
8/13/2022 4:45:00 AM 21.52 70.736 0.097 6.7 3.59 6.67
8/13/2022 5:00:00 AM 22.84 73.112 0.104 7.1 4.18 6.98
8/13/2022 5:15:00 AM 22.96 73.328 0.105 7.14 3.93 6.86
8/13/2022 5:30:00 AM 22.92 73.256 0.105 7.11 7.87 6.66
8/13/2022 5:45:00 AM 22.84 73.112 0.105 7.09 5.26 6.55
8/13/2022 6:00:00 AM 22.75 72.95 0.105 7.08 4.27 6.44
8/13/2022 6:15:00 AM 22.68 72.824 0.105 7.06 3.93 6.3
8/13/2022 6:30:00 AM 22.62 72.716 0.105 7.03 3.68 6.16
8/13/2022 6:45:00 AM 22.53 72.554 0.105 7.02 3.7 6
8/13/2022 7:00:00 AM 22.45 72.41 0.105 6.94 3.72 5.85
8/13/2022 7:15:00 AM 22.38 72.284 0.105 6.83 3.76 5.71
8/13/2022 7:30:00 AM 22.32 72.176 0.105 6.8 3.73 5.57
8/13/2022 7:45:00 AM 22.23 72.014 0.106 6.79 3.62 5.44
8/13/2022 8:00:00 AM 22.17 71.906 0.106 6.79 3.87 5.3
8/13/2022 8:15:00 AM 22.09 71.762 0.106 6.79 3.69 5.18
8/13/2022 8:30:00 AM 22.02 71.636 0.106 6.79 3.58 5.05
8/13/2022 8:45:00 AM 21.95 71.51 0.106 6.78 3.56 4.94
8/13/2022 9:00:00 AM 21.97 71.546 0.106 6.81 3.97 4.95
8/13/2022 9:15:00 AM 21.9 71.42 0.106 6.82 3.83 4.79
8/13/2022 9:30:00 AM 21.84 71.312 0.106 6.8 3.6 4.63
8/13/2022 9:45:00 AM 21.78 71.204 0.106 6.79 3.74 4.51
8/13/2022 10:00:00 AM 21.76 71.168 0.107 6.79 3.77 4.47
8/13/2022 10:15:00 AM 21.76 71.168 0.107 6.81 8.01 4.41
8/13/2022 10:30:00 AM 21.71 71.078 0.107 6.81 4.67 4.32
8/13/2022 10:45:00 AM 21.7 71.06 0.107 6.81 4.06 4.27
8/13/2022 11:00:00 AM 21.71 71.078 0.107 6.82 4.24 4.25
8/13/2022 11:15:00 AM 21.74 71.132 0.107 6.83 4.04 4.26
8/13/2022 11:30:00 AM 21.8 71.24 0.107 6.85 3.86 4.25
8/13/2022 11:45:00 AM 21.87 71.366 0.107 6.85 3.81 4.32
8/13/2022 12:00:00 PM 21.9 71.42 0.108 6.86 3.73 4.29
8/13/2022 12:15:00 PM 21.93 71.474 0.108 6.86 3.86 4.27
8/13/2022 12:30:00 PM 21.98 71.564 0.108 6.87 4.05 4.3
8/13/2022 12:45:00 PM 22.03 71.654 0.108 6.87 4.25 4.38
8/13/2022 1:00:00 PM 22.11 71.798 0.108 6.88 4.26 4.48
8/13/2022 1:15:00 PM 22.11 71.798 0.108 6.89 4.32 4.56
8/13/2022 1:30:00 PM 22.09 71.762 0.108 6.89 3.91 4.52
8/13/2022 1:45:00 PM 22.1 71.78 0.109 6.89 3.77 4.46
8/13/2022 2:00:00 PM 22.13 71.834 0.109 6.88 3.63 4.47
8/13/2022 2:15:00 PM 22.16 71.888 0.109 6.9 3.57 4.48
8/13/2022 2:30:00 PM 22.2 71.96 0.109 6.9 3.82 4.49
8/13/2022 2:45:00 PM 22.23 72.014 0.109 6.9 3.89 4.48
8/13/2022 3:00:00 PM 22.23 72.014 0.109 6.9 3.6 4.48
8/13/2022 3:15:00 PM 22.23 72.014 0.109 6.91 3.42 4.54
8/13/2022 3:30:00 PM 22.21 71.978 0.109 6.91 3.46 4.57
8/13/2022 3:45:00 PM 22.22 71.996 0.109 6.91 3.4 4.6
8/13/2022 4:00:00 PM 22.24 72.032 0.109 6.91 3.51 4.61
8/13/2022 4:15:00 PM 22.27 72.086 0.109 6.9 3.35 4.51
8/13/2022 4:30:00 PM 22.3 72.14 0.109 6.91 3.2 4.48
8/13/2022 4:45:00 PM 22.32 72.176 0.109 6.9 3.12 4.37
8/13/2022 5:00:00 PM 22.34 72.212 0.109 6.89 3.17 4.33
8/13/2022 5:15:00 PM 22.36 72.248 0.109 6.88 3.17 4.28
8/13/2022 5:30:00 PM 22.38 72.284 0.11 6.89 3.03 4.17
8/13/2022 5:45:00 PM 22.38 72.284 0.109 6.89 3.07 4.16
8/13/2022 6:00:00 PM 22.39 72.302 0.109 6.89 3.14 4.34
8/13/2022 6:15:00 PM 22.4 72.32 0.11 6.88 3.39 4.12
8/13/2022 6:30:00 PM 22.41 72.338 0.11 6.89 3.09 4.19
8/13/2022 6:45:00 PM 22.41 72.338 0.11 6.89 3.13 4.21
8/13/2022 7:00:00 PM 22.41 72.338 0.11 6.88 3.06 4.24
8/13/2022 7:15:00 PM 21.54 70.772 0.106 6.64 2.96 4.24
8/13/2022 7:30:00 PM 21.14 70.052 0.103 6.51 4.28 4.26
8/13/2022 7:45:00 PM 22.27 72.086 0.109 6.87 3.42 4.63
8/13/2022 8:00:00 PM 22.43 72.374 0.109 6.91 3.23 4.34
8/13/2022 8:15:00 PM 21.08 69.944 0.103 6.49 3.64 4.19
8/13/2022 8:30:00 PM 22.27 72.086 0.109 6.84 3.45 4.37
8/13/2022 8:45:00 PM 22.45 72.41 0.11 6.88 3.52 4.33
8/13/2022 9:00:00 PM 22.48 72.464 0.11 6.91 3.57 4.43
8/13/2022 9:15:00 PM 22.49 72.482 0.11 6.91 3.46 4.54
8/13/2022 9:30:00 PM 22.49 72.482 0.11 6.91 4.3 4.55
8/13/2022 9:45:00 PM 22.47 72.446 0.11 6.91 3.73 4.58
8/13/2022 10:00:00 PM 22.47 72.446 0.11 6.9 3.54 4.53
8/13/2022 10:15:00 PM 22.48 72.464 0.11 6.9 3.38 4.42
8/13/2022 10:30:00 PM 22.48 72.464 0.11 6.91 3.53 4.64
8/13/2022 10:45:00 PM 22.47 72.446 0.11 6.91 3.69 4.57
8/13/2022 11:00:00 PM 22.47 72.446 0.11 6.9 3.55 4.48
8/13/2022 11:15:00 PM 22.47 72.446 0.11 6.92 3.65 4.58
8/13/2022 11:30:00 PM 22.46 72.42799 0.11 6.91 3.64 4.54
8/13/2022 11:45:00 PM 22.46 72.42799 0.11 6.89 4.57 4.32
8/14/2022 12:00:00 AM 22.48 72.464 0.11 6.92 5.38 4.72
8/14/2022 12:15:00 AM 22.49 72.482 0.109 6.92 6.15 4.75
8/14/2022 12:30:00 AM 22.49 72.482 0.109 6.9 5.38 4.62
8/14/2022 12:45:00 AM 22.53 72.554 0.109 6.9 9.7 4.75
8/14/2022 1:00:00 AM 22.52 72.536 0.11 6.9 9.01 4.66
8/14/2022 1:15:00 AM 22.52 72.536 0.109 6.9 7.78 4.6
8/14/2022 1:30:00 AM 22.5 72.5 0.109 6.89 6.18 4.52
8/14/2022 1:45:00 AM 22.5 72.5 0.109 6.89 5.76 4.48
8/14/2022 2:00:00 AM 22.5 72.5 0.109 6.88 4.97 4.49
8/14/2022 2:15:00 AM 22.49 72.482 0.109 6.89 5.61 4.52
8/14/2022 2:30:00 AM 22.48 72.464 0.109 6.89 5 4.49
8/14/2022 2:45:00 AM 22.48 72.464 0.109 6.88 5.04 4.43
8/14/2022 3:00:00 AM 22.47 72.446 0.109 6.88 5.34 4.37
8/14/2022 3:15:00 AM 22.47 72.446 0.11 6.86 9.29 4.16
8/14/2022 3:30:00 AM 22.46 72.42799 0.11 6.86 6.53 4.08
8/14/2022 3:45:00 AM 22.46 72.42799 0.11 6.86 6.02 3.99
8/14/2022 4:00:00 AM 22.46 72.42799 0.11 6.85 5.76 3.91
8/14/2022 4:15:00 AM 21.59 70.862 0.106 6.58 5.64 3.61
8/14/2022 4:30:00 AM 22.34 72.212 0.11 6.79 5.28 3.6
8/14/2022 4:45:00 AM 22.44 72.392 0.11 6.81 7.8 3.63
8/14/2022 5:00:00 AM 22.52 72.536 0.109 6.86 12.55 4.13
8/14/2022 5:15:00 AM 22.62 72.716 0.106 7.06 20.95 6.51
8/14/2022 5:30:00 AM 22.62 72.716 0.105 7.11 18.58 7
8/14/2022 5:45:00 AM 22.6 72.68 0.105 7.11 23.19 7.1
8/14/2022 6:00:00 AM 22.53 72.554 0.105 7.13 13.66 7.09
8/14/2022 6:15:00 AM 22.45 72.41 0.105 7.14 5.65 7.02
8/14/2022 6:30:00 AM 22.39 72.302 0.105 7.12 4.14 6.89
8/14/2022 6:45:00 AM 22.34 72.212 0.106 7.11 3.63 6.81
8/14/2022 7:00:00 AM 22.28 72.104 0.106 7.09 3.46 6.72
8/14/2022 7:15:00 AM 22.21 71.978 0.106 7.07 3.57 6.56
8/14/2022 7:30:00 AM 22.16 71.888 0.106 7.06 3.42 6.47
8/14/2022 7:45:00 AM 22.09 71.762 0.106 7.05 3.42 6.38
8/14/2022 8:00:00 AM 22.03 71.654 0.106 7.02 3.72 6.16
8/14/2022 8:15:00 AM 21.98 71.564 0.106 7.01 3.53 6.07
8/14/2022 8:30:00 AM 21.92 71.456 0.106 7 3.44 6
8/14/2022 8:45:00 AM 21.87 71.366 0.106 6.99 3.46 5.88
8/14/2022 9:00:00 AM 20.63 69.134 0.1 6.58 3.22 5.53
8/14/2022 9:15:00 AM 21.67 71.006 0.106 6.91 3.79 5.68
8/14/2022 9:30:00 AM 21.79 71.222 0.106 6.95 3.52 5.57
8/14/2022 9:45:00 AM 21.77 71.186 0.107 6.94 3.47 5.44
8/14/2022 10:00:00 AM 21.76 71.168 0.107 6.93 3.48 5.39
8/14/2022 10:15:00 AM 21.76 71.168 0.107 6.92 3.52 5.26
8/14/2022 10:30:00 AM 21.75 71.15 0.107 6.9 3.6 5.06
8/14/2022 10:45:00 AM 21.77 71.186 0.107 6.89 3.97 4.95
8/14/2022 11:00:00 AM 21.79 71.222 0.107 6.88 5.01 4.82
8/14/2022 11:15:00 AM 21.81 71.258 0.107 6.88 4.28 4.81
8/14/2022 11:30:00 AM 21.83 71.294 0.107 6.87 4.34 4.73
8/14/2022 11:45:00 AM 21.83 71.294 0.108 6.86 4.12 4.59
8/14/2022 12:00:00 PM 21.78 71.204 0.108 6.84 3.85 4.35
8/14/2022 12:15:00 PM 21.75 71.15 0.109 6.83 4.12 4.06
8/14/2022 12:30:00 PM 21.69 71.042 0.109 6.82 4.17 3.93
8/14/2022 12:45:00 PM 21.68 71.024 0.109 6.81 5.08 3.9
8/14/2022 1:00:00 PM 20.75 69.35 0.104 6.51 3.37 3.72
8/14/2022 1:15:00 PM 21.6 70.88 0.109 6.77 3.5 3.88
8/14/2022 1:30:00 PM 21.72 71.096 0.109 6.81 3.5 3.93
8/14/2022 1:45:00 PM 21.76 71.168 0.109 6.82 3.57 3.93
8/14/2022 2:00:00 PM 21.77 71.186 0.109 6.83 3.46 3.98
8/14/2022 2:15:00 PM 21.8 71.24 0.109 6.83 3.45 4.04
8/14/2022 2:30:00 PM 21.8 71.24 0.109 6.84 3.35 4.07
8/14/2022 2:45:00 PM 21.79 71.222 0.109 6.83 3.24 4.04
8/14/2022 3:00:00 PM 21.81 71.258 0.109 6.84 3.27 4.07
8/14/2022 3:15:00 PM 20.95 69.71 0.105 6.57 3.08 3.95
8/14/2022 3:30:00 PM 21.69 71.042 0.109 6.81 3.23 4.14
8/14/2022 3:45:00 PM 21.79 71.222 0.109 6.84 3.04 4.1
8/14/2022 4:00:00 PM 21.8 71.24 0.109 6.85 3.22 4.15
8/14/2022 4:15:00 PM 20.85 69.53 0.105 6.55 2.94 3.95
8/14/2022 4:30:00 PM 21.69 71.042 0.109 6.81 3.24 4.14
8/14/2022 4:45:00 PM 20.92 69.656 0.105 6.57 3.09 4.05
8/14/2022 5:00:00 PM 21.72 71.096 0.109 6.82 3.2 4.24
8/14/2022 5:15:00 PM 21.85 71.33 0.109 6.86 3.13 4.29
8/14/2022 5:30:00 PM 21.87 71.366 0.109 6.87 3.25 4.35
8/14/2022 5:45:00 PM 21.87 71.366 0.109 6.87 3.15 4.37
8/14/2022 6:00:00 PM 17.02 62.636 0.086 5.35 1.97 3.2
8/14/2022 6:15:00 PM 20.53 68.954 0.103 6.44 5.91 3.93
8/14/2022 6:30:00 PM 21.69 71.042 0.109 6.81 4.12 4.24
8/14/2022 6:45:00 PM 20.89 69.602 0.105 6.57 3.14 4.19
8/14/2022 7:00:00 PM 21.01 69.818 0.105 6.61 3.01 4.22
8/14/2022 7:15:00 PM 17.02 62.636 0.086 5.34 2.43 3.24
8/14/2022 7:30:00 PM 20.99 69.782 0.105 6.59 3.11 4.15
8/14/2022 7:45:00 PM 21.75 71.15 0.109 6.83 3.2 4.16
8/14/2022 8:00:00 PM 21.87 71.366 0.11 6.87 4.33 4.28
8/14/2022 8:15:00 PM 21.91 71.438 0.11 6.87 8.2 4.24
8/14/2022 8:30:00 PM 21.92 71.456 0.11 6.87 5.39 4.27
8/14/2022 8:45:00 PM 21.97 71.546 0.11 6.91 6.14 4.83
8/14/2022 9:00:00 PM 21.96 71.528 0.109 6.91 5.51 4.92
8/14/2022 9:15:00 PM 21.93 71.474 0.109 6.9 5.42 4.8
8/14/2022 9:30:00 PM 21.92 71.456 0.109 6.89 4.96 4.61
8/14/2022 9:45:00 PM 20.71 69.278 0.104 6.5 6.3 4.22
8/14/2022 10:00:00 PM 21.74 71.132 0.109 6.83 5.26 4.5
8/14/2022 10:15:00 PM 20.92 69.656 0.105 6.57 5.88 4.31
8/14/2022 10:30:00 PM 21.78 71.204 0.109 6.83 4.69 4.34
8/14/2022 10:45:00 PM 21.89 71.402 0.11 6.86 4.33 4.33
8/14/2022 11:00:00 PM 21.92 71.456 0.11 6.86 4.57 4.21
8/14/2022 11:15:00 PM 21.93 71.474 0.11 6.87 4.83 4.31
8/14/2022 11:30:00 PM 21.98 71.564 0.11 6.88 7.76 4.47
8/14/2022 11:45:00 PM 20.77 69.386 0.104 6.51 9.35 4.37
8/15/2022 12:00:00 AM 19.07 66.326 0.096 5.97 7.86 4.02
8/15/2022 12:15:00 AM 21.6 70.88 0.108 6.76 9.41 4.53
8/15/2022 12:30:00 AM 21.94 71.492 0.109 6.87 10.72 4.68
8/15/2022 12:45:00 AM 19.06 66.308 0.095 5.96 9.04 3.87
8/15/2022 1:00:00 AM 19.05 66.29 0.095 5.95 9.55 3.77
8/15/2022 1:15:00 AM 21.58 70.844 0.107 6.75 12.82 4.34
8/15/2022 1:30:00 AM 21.92 71.456 0.109 6.85 10.72 4.37
8/15/2022 1:45:00 AM 21.95 71.51 0.109 6.86 11.23 4.42
8/15/2022 2:00:00 AM 21.95 71.51 0.109 6.86 10.39 4.31
8/15/2022 2:15:00 AM 21.96 71.528 0.109 6.85 9.32 4.25
8/15/2022 2:30:00 AM 20.45 68.81 0.102 6.39 8.06 3.91
8/15/2022 2:45:00 AM 21.75 71.15 0.109 6.78 9.15 3.99
8/15/2022 3:00:00 AM 21.93 71.474 0.11 6.82 14.2 3.83
8/15/2022 3:15:00 AM 19.05 66.29 0.096 5.92 6.18 3.24
8/15/2022 3:30:00 AM 21.57 70.826 0.108 6.72 6.63 3.83
8/15/2022 3:45:00 AM 21.91 71.438 0.11 6.82 6.2 3.9
8/15/2022 4:00:00 AM 21.95 71.51 0.11 6.83 5.93 3.69
8/15/2022 4:15:00 AM 21.96 71.528 0.11 6.82 5.9 3.67
8/15/2022 4:30:00 AM 17.22 62.996 0.088 5.34 4.05 2.89
8/15/2022 4:45:00 AM 17.21 62.978 0.088 5.35 4.43 2.94
8/15/2022 5:00:00 AM 17.16 62.888 0.087 5.34 4.75 2.78
8/15/2022 5:15:00 AM 17.12 62.816 0.087 5.32 4.69 2.82
8/15/2022 5:30:00 AM 20.86 69.548 0.105 6.49 6.07 3.59
8/15/2022 5:45:00 AM 21.82 71.276 0.11 6.78 6.76 3.79
8/15/2022 6:00:00 AM 21.95 71.51 0.11 6.83 6.34 3.79
8/15/2022 6:15:00 AM 21.09 69.962 0.106 6.57 5.87 3.44
8/15/2022 6:30:00 AM 21.82 71.276 0.109 6.79 6.14 3.65
8/15/2022 6:45:00 AM 17.19 62.942 0.087 5.34 4.14 2.76
8/15/2022 7:00:00 AM 21.06 69.908 0.106 6.54 5.48 3.28
8/15/2022 7:15:00 AM 21.81 71.258 0.11 6.76 5.18 3.22
8/15/2022 7:30:00 AM 21.9 71.42 0.11 6.79 5.29 3.15
8/15/2022 7:45:00 AM 19 66.2 0.096 5.87 4.31 2.68
8/15/2022 8:00:00 AM 21.5 70.7 0.109 6.67 5.19 3.12
8/15/2022 8:15:00 AM 17.04 62.672 0.087 5.28 3.06 2.38
8/15/2022 8:30:00 AM 20.52 68.936 0.104 6.36 3.91 2.9
8/15/2022 8:45:00 AM 21.71 71.078 0.11 6.71 4 2.95
8/15/2022 9:00:00 AM 21.86 71.348 0.111 6.77 9.04 2.92
8/15/2022 9:15:00 AM 21.89 71.402 0.111 6.78 5.12 2.97
8/15/2022 9:30:00 AM 21.89 71.402 0.111 6.79 4.19 3.1
8/15/2022 9:45:00 AM 21.03 69.854 0.107 6.5 3.97 2.97
8/15/2022 10:00:00 AM 21.81 71.258 0.111 6.74 3.83 2.83
8/15/2022 10:15:00 AM 21.96 71.528 0.111 6.76 3.53 2.75
8/15/2022 10:30:00 AM 22.04 71.672 0.111 6.77 3.43 3.08
8/15/2022 10:45:00 AM 22.09 71.762 0.111 6.78 3.78 3.38
8/15/2022 11:00:00 AM 22.16 71.888 0.11 6.82 3.44 3.79
8/15/2022 11:15:00 AM 22.21 71.978 0.11 6.83 3.72 4.05
8/15/2022 11:30:00 AM 22.24 72.032 0.109 6.83 3.5 4.06
8/15/2022 11:45:00 AM 22.26 72.068 0.11 6.81 3.65 4.02
8/15/2022 12:00:00 PM 22.26 72.068 0.11 6.81 3.4 4
8/15/2022 12:15:00 PM 22.24 72.032 0.11 6.8 3.63 3.77
8/15/2022 12:30:00 PM 22.25 72.05 0.11 6.81 3.36 3.67
8/15/2022 12:45:00 PM 22.26 72.068 0.11 6.8 3.2 3.6
8/15/2022 1:00:00 PM 22.25 72.05 0.11 6.8 3.12 3.47
8/15/2022 1:15:00 PM 22.26 72.068 0.11 6.8 3.1 3.4
8/15/2022 1:30:00 PM 22.28 72.104 0.111 6.8 3.03 3.37
8/15/2022 1:45:00 PM 20.75 69.35 0.103 6.33 2.9 3.14
8/15/2022 2:00:00 PM 19.36 66.848 0.096 5.88 2.71 2.86
8/15/2022 2:15:00 PM 21.49 70.682 0.107 6.53 2.87 3.14
8/15/2022 2:30:00 PM 22.27 72.086 0.11 6.77 3.09 3.35
8/15/2022 2:45:00 PM 22.39 72.302 0.111 6.8 3.25 3.47
8/15/2022 3:00:00 PM 22.43 72.374 0.111 6.81 3.22 3.59
8/15/2022 3:15:00 PM 17.45 63.41 0.088 5.3 2.18 2.81
8/15/2022 3:30:00 PM 20.89 69.602 0.104 6.34 2.78 3.21
8/15/2022 3:45:00 PM 17.47 63.446 0.087 5.27 2 2.48
8/15/2022 4:00:00 PM 17.55 63.59 0.088 5.32 2.11 2.39
8/15/2022 4:15:00 PM 21.53 70.754 0.107 6.51 2.79 2.67
8/15/2022 4:30:00 PM 21.57 70.826 0.107 6.52 2.72 2.65
8/15/2022 4:45:00 PM 22.35 72.23 0.111 6.74 3.15 2.7
8/15/2022 5:00:00 PM 22.46 72.42799 0.112 6.78 3.08 2.73
8/15/2022 5:15:00 PM 22.47 72.446 0.112 6.78 2.96 2.63
8/15/2022 5:30:00 PM 19.49 67.082 0.098 5.87 2.45 2.14
8/15/2022 5:45:00 PM 21.23 70.214 0.106 6.4 2.6 2.32
8/15/2022 6:00:00 PM 21.6 70.88 0.108 6.49 2.62 2.3
8/15/2022 6:15:00 PM 22.37 72.266 0.112 6.73 2.76 2.25
8/15/2022 6:30:00 PM 22.48 72.464 0.113 6.76 2.71 2.13
8/15/2022 6:45:00 PM 19.51 67.118 0.099 5.85 2.7 1.86
8/15/2022 7:00:00 PM 22.12 71.816 0.111 6.63 2.68 2.21
8/15/2022 7:15:00 PM 22.47 72.446 0.113 6.74 2.75 2.13
8/15/2022 7:30:00 PM 22.61 72.698 0.113 6.84 6.57 3.39
8/15/2022 7:45:00 PM 22.61 72.698 0.113 6.85 4.48 3.68
8/15/2022 8:00:00 PM 22.58 72.644 0.112 6.84 5.14 3.62
8/15/2022 8:15:00 PM 22.57 72.626 0.112 6.83 3.89 3.49
8/15/2022 8:30:00 PM 22.56 72.608 0.113 6.82 3.89 3.26
8/15/2022 8:45:00 PM 19.57 67.226 0.097 5.91 5.84 2.76
8/15/2022 9:00:00 PM 22.24 72.032 0.109 6.73 6.54 3.86
8/15/2022 9:15:00 PM 22.61 72.698 0.111 6.85 5.89 4.07
8/15/2022 9:30:00 PM 22.63 72.734 0.111 6.84 6.01 3.95
8/15/2022 9:45:00 PM 21.06 69.908 0.104 6.36 4.37 3.52
8/15/2022 10:00:00 PM 22.41 72.338 0.111 6.76 4.42 3.52
8/15/2022 10:15:00 PM 22.58 72.644 0.112 6.81 3.72 3.38
8/15/2022 10:30:00 PM 22.61 72.698 0.112 6.81 4 3.3
8/15/2022 10:45:00 PM 21.2 70.16 0.105 6.39 4.07 3.02
8/15/2022 11:00:00 PM 22.41 72.338 0.111 6.75 3.84 3.16
8/15/2022 11:15:00 PM 22.57 72.626 0.112 6.79 3.83 3.19
8/15/2022 11:30:00 PM 22.58 72.644 0.112 6.8 4.42 3.03
8/15/2022 11:45:00 PM 22.58 72.644 0.112 6.8 3.96 2.97
8/16/2022 12:00:00 AM 22.58 72.644 0.112 6.79 4.22 2.91
8/16/2022 12:15:00 AM 22.58 72.644 0.113 6.78 3.36 2.81
8/16/2022 12:30:00 AM 22.6 72.68 0.114 6.79 6.56 2.73
8/16/2022 12:45:00 AM 22.6 72.68 0.113 6.78 5.05 2.62
8/16/2022 1:00:00 AM 22.59 72.662 0.114 6.78 4.02 2.5
8/16/2022 1:15:00 AM 22.59 72.662 0.115 6.78 3.59 2.34
8/16/2022 1:30:00 AM 22.6 72.68 0.113 6.8 10.87 3.05
8/16/2022 1:45:00 AM 22.61 72.698 0.114 6.78 41.53 2.82
8/16/2022 2:00:00 AM 22.7 72.86 0.111 6.83 28.45 3.78
8/16/2022 2:15:00 AM 22.71 72.878 0.111 6.83 37.55 3.92
8/16/2022 2:30:00 AM 19.69 67.442 0.096 5.92 12.13 3.33
8/16/2022 2:45:00 AM 21.51 70.718 0.105 6.46 15.97 3.49
8/16/2022 3:00:00 AM 22.6 72.68 0.111 6.78 15.64 3.68
8/16/2022 3:15:00 AM 21.85 71.33 0.106 6.56 18.73 3.66
8/16/2022 3:30:00 AM 21.72 71.096 0.106 6.5 18.11 3.4
8/16/2022 3:45:00 AM 22.56 72.608 0.11 6.75 18.23 3.27
8/16/2022 4:00:00 AM 22.67 72.806 0.111 6.78 18.61 2.41
8/16/2022 4:15:00 AM 22.67 72.806 0.111 6.78 31.74 2.78
8/16/2022 4:30:00 AM 21.35 70.43 0.105 6.37 17.26 2.61
8/16/2022 4:45:00 AM 21.66 70.988 0.106 6.46 16.72 2.51
8/16/2022 5:00:00 AM 22.53 72.554 0.111 6.72 20.6 2.7
8/16/2022 5:15:00 AM 19.66 67.388 0.097 5.87 13 2.47
8/16/2022 5:30:00 AM 21.36 70.448 0.105 6.38 19 2.83
8/16/2022 5:45:00 AM 21.85 71.33 0.107 6.53 22.44 3.14
8/16/2022 6:00:00 AM 22.58 72.644 0.11 6.75 21.4 3.31
8/16/2022 6:15:00 AM 21.77 71.186 0.106 6.51 19.53 3.16
8/16/2022 6:30:00 AM 22.51 72.518 0.11 6.74 20.33 3.15
8/16/2022 6:45:00 AM 22.59 72.662 0.111 6.76 16.04 3.05
8/16/2022 7:00:00 AM 22.59 72.662 0.111 6.76 15.2 2.96
8/16/2022 7:15:00 AM 22.58 72.644 0.111 6.76 19.99 2.8
8/16/2022 7:30:00 AM 21.68 71.024 0.106 6.49 16.48 2.6
8/16/2022 7:45:00 AM 22.42 72.356 0.11 6.72 11.75 2.75
8/16/2022 8:00:00 AM 22.51 72.518 0.11 6.73 19.21 2.51
8/16/2022 8:15:00 AM 22.51 72.518 0.111 6.72 14.96 2.44
8/16/2022 8:30:00 AM 19.49 67.082 0.097 5.84 8.67 2.09
8/16/2022 8:45:00 AM 22.06 71.708 0.11 6.62 9.17 2.27
8/16/2022 9:00:00 AM 20.97 69.746 0.105 6.29 8.02 2.07
8/16/2022 9:15:00 AM 22.25 72.05 0.111 6.67 8.23 2.15
8/16/2022 9:30:00 AM 22.44 72.392 0.112 6.72 7.89 2.05
8/16/2022 9:45:00 AM 22.49 72.482 0.112 6.73 8.07 1.99
8/16/2022 10:00:00 AM 19.53 67.154 0.098 5.83 6.53 1.8
8/16/2022 10:15:00 AM 22.15 71.87 0.11 6.63 22.55 2.29
8/16/2022 10:30:00 AM 22.52 72.536 0.111 6.73 10.34 2.4
8/16/2022 10:45:00 AM 22.58 72.644 0.111 6.75 8.03 2.69
8/16/2022 11:00:00 AM 22.61 72.698 0.111 6.75 7.26 2.93
8/16/2022 11:15:00 AM 22.63 72.734 0.111 6.77 7.83 3.04
8/16/2022 11:30:00 AM 22.64 72.752 0.11 6.78 6.84 3.17
8/16/2022 11:45:00 AM 22.65 72.77 0.11 6.79 6.21 3.46
8/16/2022 12:00:00 PM 22.6 72.68 0.11 6.79 6.08 3.62
8/16/2022 12:15:00 PM 22.58 72.644 0.11 6.78 6.11 3.55
8/16/2022 12:30:00 PM 22.59 72.662 0.111 6.78 8.49 3.46
8/16/2022 12:45:00 PM 22.59 72.662 0.111 6.78 6.66 3.41
8/16/2022 1:00:00 PM 19.59 67.262 0.097 5.86 5.19 2.76
8/16/2022 1:15:00 PM 22.2 71.96 0.11 6.64 6.09 2.96
8/16/2022 1:30:00 PM 22.57 72.626 0.112 6.74 5.83 2.95
8/16/2022 1:45:00 PM 22.62 72.716 0.112 6.76 5.62 2.9
8/16/2022 2:00:00 PM 22.64 72.752 0.112 6.76 5.65 3.01
8/16/2022 2:15:00 PM 22.66 72.788 0.112 6.76 6.6 2.77
8/16/2022 2:30:00 PM 22.68 72.824 0.112 6.75 5.86 2.72
8/16/2022 2:45:00 PM 22.7 72.86 0.112 6.75 7.47 2.75
8/16/2022 3:00:00 PM 22.72 72.896 0.112 6.78 6.6 3.2
8/16/2022 3:15:00 PM 22.73 72.914 0.112 6.79 8.27 3.17
8/16/2022 3:30:00 PM 22.72 72.896 0.112 6.82 8.42 3.68
8/16/2022 3:45:00 PM 22.72 72.896 0.112 6.8 9.55 3.4
8/16/2022 4:00:00 PM 22.72 72.896 0.112 6.8 8.66 3.18
8/16/2022 4:15:00 PM 22.72 72.896 0.112 6.8 8.41 3.28
8/16/2022 4:30:00 PM 22.73 72.914 0.113 6.79 8.17 3.33
8/16/2022 4:45:00 PM 22.73 72.914 0.113 6.79 8.11 3.11
8/16/2022 5:00:00 PM 22.74 72.932 0.113 6.77 7.97 2.79
8/16/2022 5:15:00 PM 22.74 72.932 0.113 6.75 7.9 2.55
8/16/2022 5:30:00 PM 22.75 72.95 0.113 6.75 7.73 2.31
8/16/2022 5:45:00 PM 22.76 72.968 0.113 6.72 7.88 2.3
8/16/2022 6:00:00 PM 22.76 72.968 0.113 6.76 8.06 2.46
8/16/2022 6:15:00 PM 22.77 72.986 0.113 6.76 7.75 2.5
8/16/2022 6:30:00 PM 22.77 72.986 0.113 6.74 7.9 2.32
8/16/2022 6:45:00 PM 21.21 70.17799 0.105 6.27 9.14 2.09
8/16/2022 7:00:00 PM 22.57 72.626 0.112 6.69 10.92 2.31
8/16/2022 7:15:00 PM 22.76 72.968 0.113 6.75 9.52 2.31
8/16/2022 7:30:00 PM 22.78 73.004 0.113 6.73 10.2 2.15
8/16/2022 7:45:00 PM 22.79 73.022 0.113 6.75 9.4 2.2
8/16/2022 8:00:00 PM 22.79 73.022 0.114 6.74 8.9 2.14
8/16/2022 8:15:00 PM 22.79 73.022 0.114 6.76 9.07 2.21
8/16/2022 8:30:00 PM 22.8 73.04 0.113 6.76 7.76 2.42
8/16/2022 8:45:00 PM 22.83 73.094 0.113 6.8 6.91 3.17
8/16/2022 9:00:00 PM 22.84 73.112 0.113 6.81 6.96 3.38
8/16/2022 9:15:00 PM 22.85 73.13 0.113 6.8 6.1 3.32
8/16/2022 9:30:00 PM 22.86 73.148 0.112 6.81 5.13 3.48
8/16/2022 9:45:00 PM 22.88 73.184 0.112 6.83 12.91 3.7
8/16/2022 10:00:00 PM 22.9 73.22 0.112 6.83 8.4 3.96
8/16/2022 10:15:00 PM 22.89 73.202 0.112 6.82 7.01 3.78
8/16/2022 10:30:00 PM 22.86 73.148 0.113 6.82 5.84 3.6
8/16/2022 10:45:00 PM 21.44 70.592 0.106 6.39 5.71 3.26
8/16/2022 11:00:00 PM 22.65 72.77 0.112 6.73 5.91 3.19
8/16/2022 11:15:00 PM 22.81 73.058 0.113 6.78 6.4 3.05
8/16/2022 11:30:00 PM 22.82 73.076 0.113 6.79 6.71 3.19
8/16/2022 11:45:00 PM 22.84 73.112 0.113 6.8 5.45 3.27
8/17/2022 12:00:00 AM 22.83 73.094 0.113 6.79 5.44 3.13
8/17/2022 12:15:00 AM 22.81 73.058 0.112 6.79 5.45 3.08
8/17/2022 12:30:00 AM 22.8 73.04 0.113 6.78 5.18 3
8/17/2022 12:45:00 AM 22.79 73.022 0.113 6.77 5.29 2.81
8/17/2022 1:00:00 AM 22.77 72.986 0.113 6.78 5.59 2.83
8/17/2022 1:15:00 AM 22.75 72.95 0.113 6.77 8.6 2.67
8/17/2022 1:30:00 AM 22.75 72.95 0.114 6.75 7.72 2.35
8/17/2022 1:45:00 AM 22.76 72.968 0.114 6.75 8.96 2.48
8/17/2022 2:00:00 AM 22.77 72.986 0.113 6.75 12.18 2.35
8/17/2022 2:15:00 AM 22.76 72.968 0.114 6.76 10.3 2.47
8/17/2022 2:30:00 AM 22.79 73.022 0.113 6.78 31.18 2.53
8/17/2022 2:45:00 AM 22.78 73.004 0.112 6.79 15.98 2.95
8/17/2022 3:00:00 AM 22.77 72.986 0.068 6.75 44.03 2.85
8/17/2022 3:15:00 AM 22.8 73.04 0.087 6.78 51.89 3.06
8/17/2022 3:30:00 AM 22.8 73.04 0.108 6.79 31.28 2.83
8/17/2022 3:45:00 AM 22.78 73.004 0.11 6.78 21.54 3.08
8/17/2022 4:00:00 AM 22.76 72.968 0.112 6.8 13.86 3.04
8/17/2022 4:15:00 AM 19.7 67.46 0.097 5.86 27.72 2.37
8/17/2022 4:30:00 AM 22.32 72.176 0.11 6.65 18.28 2.54
8/17/2022 4:45:00 AM 22.68 72.824 0.111 6.76 20.15 2.82
8/17/2022 5:00:00 AM 22.74 72.932 0.111 6.78 24.04 3.17
8/17/2022 5:15:00 AM 22.77 72.986 0.111 6.8 30.42 3.48
8/17/2022 5:30:00 AM 22.79 73.022 0.11 6.82 45.26 4.13
8/17/2022 5:45:00 AM 22.8 73.04 0.11 6.84 32.76 4.28
8/17/2022 6:00:00 AM 22.81 73.058 0.109 6.87 32.89 4.83
8/17/2022 6:15:00 AM 22.8 73.04 0.109 6.87 34.57 4.76
8/17/2022 6:30:00 AM 22.78 73.004 0.11 6.86 22.67 4.45
8/17/2022 6:45:00 AM 22.76 72.968 0.102 6.85 15.5 4.53
8/17/2022 7:00:00 AM 22.73 72.914 0.104 6.86 16.94 4.5
8/17/2022 7:15:00 AM 22.7 72.86 0.108 6.93 14.1 5.29
8/17/2022 7:30:00 AM 22.68 72.824 0.11 6.95 10.84 5.82
8/17/2022 7:45:00 AM 22.66 72.788 0.11 6.96 9.24 6.02
8/17/2022 8:00:00 AM 22.64 72.752 0.11 6.95 9.55 5.86
8/17/2022 8:15:00 AM 21.74 71.132 0.106 6.66 9.28 5.57
8/17/2022 8:30:00 AM 22.5 72.5 0.094 6.9 10.97 5.65
8/17/2022 8:45:00 AM 22.59 72.662 0.096 6.95 10.73 5.69
8/17/2022 9:00:00 AM 22.59 72.662 0.107 6.9 23.5 5.57
8/17/2022 9:15:00 AM 22.58 72.644 0.109 6.9 17.72 5.47
8/17/2022 9:30:00 AM 22.57 72.626 0.11 6.95 7.01 5.3
8/17/2022 9:45:00 AM 21.29 70.32201 0.104 6.56 4.98 5.25
8/17/2022 10:00:00 AM 22.37 72.266 0.109 6.86 13.17 5.44
8/17/2022 10:15:00 AM 22.51 72.518 0.109 6.9 9.98 5.29
8/17/2022 10:30:00 AM 22.52 72.536 0.106 6.89 11.5 5.16
8/17/2022 10:45:00 AM 22.5 72.5 0.11 6.91 11.89 4.99
8/17/2022 11:00:00 AM 22.48 72.464 0.11 6.9 6.55 5.21
8/17/2022 11:15:00 AM 22.47 72.446 0.106 6.86 13.31 5.1
8/17/2022 11:30:00 AM 22.47 72.446 0.096 6.85 18.05 4.97
8/17/2022 11:45:00 AM 22.47 72.446 0.099 6.89 15.73 4.91
8/17/2022 12:00:00 PM 22.47 72.446 0.1 6.85 23.88 4.72
8/17/2022 12:15:00 PM 22.47 72.446 0.099 6.84 16 4.71
8/17/2022 12:30:00 PM 22.48 72.464 0.1 6.83 17.69 4.56
8/17/2022 12:45:00 PM 22.47 72.446 0.108 6.84 14.86 4.54
8/17/2022 1:00:00 PM 22.46 72.42799 0.106 6.85 27.36 4.39
8/17/2022 1:15:00 PM 22.43 72.374 0.104 6.82 19.32 4.29
8/17/2022 1:30:00 PM 22.39 72.302 0.107 6.79 18.27 4.13
8/17/2022 1:45:00 PM 22.36 72.248 0.11 6.8 15.31 3.86
8/17/2022 2:00:00 PM 22.33 72.194 0.11 6.8 28.23 3.67
8/17/2022 2:15:00 PM 22.31 72.158 0.1 6.8 12.99 3.7
8/17/2022 2:30:00 PM 22.31 72.158 0.104 6.81 7.07 3.78
8/17/2022 2:45:00 PM 22.3 72.14 0.1 6.8 6.33 3.56
8/17/2022 3:00:00 PM 22.28 72.104 0.111 6.77 18.25 3.28
8/17/2022 3:15:00 PM 22.25 72.05 0.109 6.76 21.21 3.08
8/17/2022 3:30:00 PM 22.23 72.014 0.113 6.77 10.15 3.03
8/17/2022 3:45:00 PM 22.17 71.906 0.113 6.75 16.7 3
8/17/2022 4:00:00 PM 22.14 71.852 0.111 6.74 19.48 2.96
8/17/2022 4:15:00 PM 22.11 71.798 0.112 6.73 13.36 2.91
8/17/2022 4:30:00 PM 22.08 71.744 0.113 6.74 11.13 2.92
8/17/2022 4:45:00 PM 22.06 71.708 0.112 6.74 10.62 2.96
8/17/2022 5:00:00 PM 22.03 71.654 0.112 6.73 10.67 2.93
8/17/2022 5:15:00 PM 21.11 69.998 0.108 6.45 8.94 2.78
8/17/2022 5:30:00 PM 21.87 71.366 0.105 6.71 9.73 2.81
8/17/2022 5:45:00 PM 21.95 71.51 0.106 6.72 18.52 2.79
8/17/2022 6:00:00 PM 21.96 71.528 0.111 6.75 11.7 2.74
8/17/2022 6:15:00 PM 21.93 71.474 0.113 6.74 15.82 2.75
8/17/2022 6:30:00 PM 21.91 71.438 0.112 6.68 29.93 2.73
8/17/2022 6:45:00 PM 21.87 71.366 0.11 6.69 16.36 2.74
8/17/2022 7:00:00 PM 21.84 71.312 0.112 6.69 12 2.74
8/17/2022 7:15:00 PM 21.82 71.276 0.109 6.7 24.03 2.63
8/17/2022 7:30:00 PM 21.81 71.258 0.112 6.75 10.99 2.86
8/17/2022 7:45:00 PM 21.78 71.204 0.112 6.73 41.71 2.7
8/17/2022 8:00:00 PM 21.76 71.168 0.113 6.73 22.35 2.93
8/17/2022 8:15:00 PM 21.76 71.168 0.107 6.72 18.03 2.88
8/17/2022 8:30:00 PM 21.76 71.168 0.113 6.74 17.97 2.75
8/17/2022 8:45:00 PM 21.76 71.168 0.113 6.76 15.45 2.74
8/17/2022 9:00:00 PM 21.76 71.168 0.112 6.76 15.05 2.87
8/17/2022 9:15:00 PM 21.76 71.168 0.108 6.79 15 3.48
8/17/2022 9:30:00 PM 21.74 71.132 0.102 6.83 15.65 4
8/17/2022 9:45:00 PM 21.72 71.096 0.095 6.84 15.94 3.97
8/17/2022 10:00:00 PM 21.68 71.024 0.08 6.84 16.23 4.35
8/17/2022 10:15:00 PM 21.62 70.916 0.054 6.83 12.26 4.36
8/17/2022 10:30:00 PM 21.55 70.79 0.104 6.82 21.77 4.4
8/17/2022 10:45:00 PM 21.52 70.736 0.11 6.81 16.89 4.39
8/17/2022 11:00:00 PM 20.63 69.134 0.109 6.57 20.17 4.28
8/17/2022 11:15:00 PM 21.36 70.448 0.11 6.78 17.12 4.52
8/17/2022 11:30:00 PM 21.43 70.574 0.104 6.82 13.38 4.68
8/17/2022 11:45:00 PM 21.41 70.538 0.112 6.81 15.12 4.73
8/18/2022 12:00:00 AM 21.37 70.466 0.111 6.84 23.93 4.75
8/18/2022 12:15:00 AM 19.85 67.73 0.102 6.36 17.39 4.47
8/18/2022 12:30:00 AM 21.09 69.962 0.109 6.81 21.7 4.82
8/18/2022 12:45:00 AM 21.23 70.214 0.112 6.85 13.03 4.59
8/18/2022 1:00:00 AM 21.2 70.16 0.111 6.84 19.97 4.85
8/18/2022 1:15:00 AM 21.18 70.124 0.105 6.86 35.88 4.97
8/18/2022 1:30:00 AM 20.33 68.594 0.105 6.61 24.77 4.76
8/18/2022 1:45:00 AM 18.3 64.94 0.09 5.94 52.74 4.38
8/18/2022 2:00:00 AM 20.72 69.296 0.107 6.79 22.88 5.03
8/18/2022 2:15:00 AM 21.01 69.818 0.108 6.87 22.34 5.23
8/18/2022 2:30:00 AM 21.04 69.872 0.112 6.9 54.03 5.35
8/18/2022 2:45:00 AM 21.01 69.818 0.112 6.91 48.93 5.43
8/18/2022 3:00:00 AM 20.99 69.782 0.111 6.9 32.88 5.46
8/18/2022 3:15:00 AM 20.97 69.746 0.099 6.91 28.39 5.47
8/18/2022 3:30:00 AM 20.95 69.71 0.104 6.93 21.61 5.55
8/18/2022 3:45:00 AM 20.91 69.638 0.105 6.9 18.82 5.59
8/18/2022 4:00:00 AM 20.88 69.584 0.11 6.91 24.75 5.66
8/18/2022 4:15:00 AM 20.85 69.53 0.112 6.9 22.38 5.52
8/18/2022 4:30:00 AM 20.82 69.476 0.112 6.83 8.57 5.85
8/18/2022 4:45:00 AM 20.79 69.422 0.101 6.89 26.24 5.75
8/18/2022 5:00:00 AM 20.8 69.44 0.096 6.93 14.54 5.82
8/18/2022 5:15:00 AM 19.47 67.046 0.101 6.49 14.96 5.41
8/18/2022 5:30:00 AM 20.53 68.954 0.11 6.87 64.71 5.6
8/18/2022 5:45:00 AM 20.7 69.26 0.111 6.92 24.69 5.66
8/18/2022 6:00:00 AM 20.7 69.26 0.11 6.94 19.58 5.83
8/18/2022 6:15:00 AM 20.65 69.17 0.108 6.89 71.78 5.45
8/18/2022 6:30:00 AM 20.59 69.062 0.109 6.9 32.47 5.27
8/18/2022 6:45:00 AM 20.61 69.098 0.11 6.87 48.93 5.59
8/18/2022 7:00:00 AM 20.62 69.116 0.11 6.89 19.83 5.87
8/18/2022 7:15:00 AM 20.61 69.098 0.11 6.9 16.06 5.9
8/18/2022 7:30:00 AM 20.56 69.008 0.107 6.87 39.42 5.56
8/18/2022 7:45:00 AM 20.57 69.026 0.107 6.92 17.14 5.45
8/18/2022 8:00:00 AM 20.57 69.026 0.109 6.92 13.26 5.44
8/18/2022 8:15:00 AM 20.55 68.99 0.107 6.92 12.48 5.59
8/18/2022 8:30:00 AM 20.55 68.99 0.111 6.92 12.79 5.44
8/18/2022 8:45:00 AM 20.54 68.972 0.11 6.92 13.68 5.36
8/18/2022 9:00:00 AM 20.54 68.972 0.111 6.91 13.65 5.17
8/18/2022 9:15:00 AM 20.54 68.972 0.109 6.92 12.96 5.27
8/18/2022 9:30:00 AM 20.55 68.99 0.115 6.91 11.87 5.03
8/18/2022 9:45:00 AM 20.55 68.99 0.111 6.91 11.46 5.22
8/18/2022 10:00:00 AM 20.54 68.972 0.109 6.91 11.48 5.45
8/18/2022 10:15:00 AM 20.54 68.972 0.109 6.91 11.8 5.34
8/18/2022 10:30:00 AM 20.55 68.99 0.112 6.91 11.53 5.43
8/18/2022 10:45:00 AM 20.56 69.008 0.11 6.91 12.2 5.31
8/18/2022 11:00:00 AM 20.56 69.008 0.109 6.91 28.02 5.38
8/18/2022 11:15:00 AM 20.58 69.044 0.109 6.91 30.17 5.28
8/18/2022 11:30:00 AM 20.61 69.098 0.115 6.89 29.59 5.18
8/18/2022 11:45:00 AM 20.64 69.152 0.118 6.89 30.54 4.9
8/18/2022 12:00:00 PM 20.68 69.224 0.117 6.8 31.53 4.74
8/18/2022 12:15:00 PM 20.71 69.278 0.117 6.79 28.38 4.68
8/18/2022 12:30:00 PM 20.76 69.368 0.117 6.81 26.59 4.28
8/18/2022 12:45:00 PM 20.81 69.458 0.117 6.83 25.25 3.59
8/18/2022 1:00:00 PM 20.86 69.548 0.117 6.83 22.62 3.85
8/18/2022 1:15:00 PM 20.89 69.602 0.116 6.81 20.97 3.65
8/18/2022 1:30:00 PM 20.92 69.656 0.115 6.77 22.78 3.52
8/18/2022 1:45:00 PM 20.95 69.71 0.115 6.78 21.17 3.08
8/18/2022 2:00:00 PM 20.98 69.764 0.117 6.77 21.4 2.65
8/18/2022 2:15:00 PM 21 69.8 0.117 6.77 20.64 2.71
8/18/2022 2:30:00 PM 21.02 69.836 0.116 6.78 19.98 3.06
8/18/2022 2:45:00 PM 21.05 69.89 0.114 6.76 16.58 2.53
8/18/2022 3:00:00 PM 21.08 69.944 0.115 6.75 12.82 2.17
8/18/2022 3:15:00 PM 21.1 69.98 0.115 6.73 11.25 2.11
8/18/2022 3:30:00 PM 21.12 70.016 0.117 6.74 17.11 2.53
8/18/2022 3:45:00 PM 21.14 70.052 0.115 6.73 15.24 1.97
8/18/2022 4:00:00 PM 21.16 70.088 0.114 6.73 13.96 1.49
8/18/2022 4:15:00 PM 21.18 70.124 0.115 6.72 15.07 1.47
8/18/2022 4:30:00 PM 21.19 70.142 0.115 6.72 14.64 1.58
8/18/2022 4:45:00 PM 21.21 70.17799 0.116 6.72 12.81 1.21
8/18/2022 5:00:00 PM 21.23 70.214 0.117 6.72 12.98 1.22
8/18/2022 5:15:00 PM 21.24 70.232 0.117 6.71 13.76 1.37
8/18/2022 5:30:00 PM 21.25 70.25 0.119 6.71 16.27 2.72
8/18/2022 5:45:00 PM 21.27 70.286 0.115 6.7 25.18 2.45
8/18/2022 6:00:00 PM 21.27 70.286 0.117 6.7 22.29 3.17
8/18/2022 6:15:00 PM 20.04 68.07201 0.112 6.31 22.56 1.74
8/18/2022 6:30:00 PM 20.35 68.63 0.115 6.4 23.9 3.83
8/18/2022 6:45:00 PM 20.36 68.648 0.115 6.4 29.85 3.62
8/18/2022 7:00:00 PM 20.3 68.54 0.114 6.38 33.3 4.42
8/18/2022 7:15:00 PM 21.16 70.088 0.117 6.65 41.18 5.17
8/18/2022 7:30:00 PM 20.17 68.306 0.111 6.33 40.31 4.7
8/18/2022 7:45:00 PM 21.14 70.052 0.118 6.65 40.47 1.97
8/18/2022 8:00:00 PM 21.28 70.304 0.119 6.7 43.35 1.69
8/18/2022 8:15:00 PM 21.29 70.32201 0.116 6.74 43.37 1.3
8/18/2022 8:30:00 PM 21.29 70.32201 0.116 6.74 76.44 2.28
8/18/2022 8:45:00 PM 18.46 65.228 0.102 5.84 162.7 1.75
8/18/2022 9:00:00 PM 20.92 69.656 0.115 6.63 41.97 0.89
8/18/2022 9:15:00 PM 21.25 70.25 0.117 6.74 392 1.19
8/18/2022 9:30:00 PM 21.3 70.34 0.116 6.79 111.54 2.31
8/18/2022 9:45:00 PM 21.31 70.358 0.114 6.78 63.4 1.94
8/18/2022 10:00:00 PM 21.31 70.358 0.115 6.75 21.99 1.5
8/18/2022 10:15:00 PM 18.47 65.246 0.099 5.82 12.6 0.56
8/18/2022 10:30:00 PM 20.93 69.674 0.11 6.58 17.71 0.36
8/18/2022 10:45:00 PM 21.26 70.268 0.113 6.69 980.59 0.36
8/18/2022 11:00:00 PM 21.31 70.358 0.108 6.7 7510.8 0.36
8/18/2022 11:15:00 PM 21.32 70.376 0.117 6.7 18121.7 0.32
8/18/2022 11:30:00 PM 18.49 65.282 0.099 5.84 332.53 0.49
8/18/2022 11:45:00 PM 20.96 69.728 0.118 6.61 84.54 0.41
8/19/2022 12:00:00 AM 21.3 70.34 0.117 6.72 52.86 0.34
8/19/2022 12:15:00 AM 21.36 70.448 0.115 6.73 51.92 0.44
8/19/2022 12:30:00 AM 21.36 70.448 0.115 6.72 35.69 0.54
8/19/2022 12:45:00 AM 21.36 70.448 0.115 6.71 34.36 0.72
8/19/2022 1:00:00 AM 21.36 70.448 0.115 6.72 93.8 0.79
8/19/2022 1:15:00 AM 21.36 70.448 0.114 6.72 155.63 0.92
8/19/2022 1:30:00 AM 21.36 70.448 0.114 6.72 1370.85 0.78
8/19/2022 1:45:00 AM 21.36 70.448 0.113 6.72 1634 0.58
8/19/2022 2:00:00 AM 21.36 70.448 0.113 6.72 1696.24 0.52
8/19/2022 2:15:00 AM 21.35 70.43 0.112 6.73 1710.77 1.98
8/19/2022 2:30:00 AM 21.35 70.43 0.112 6.72 1529.51 2.78
8/19/2022 2:45:00 AM 21.35 70.43 0.11 6.73 783.72 3.86
8/19/2022 3:00:00 AM 21.34 70.412 0.108 6.73 391.11 6.61
8/19/2022 3:15:00 AM 21.33 70.394 0.101 6.76 145.2 7.11
8/19/2022 3:30:00 AM 21.32 70.376 0.106 6.78 98.08 5.86
8/19/2022 3:45:00 AM 21.31 70.358 0.108 6.76 91.17 5.73
8/19/2022 4:00:00 AM 21.29 70.32201 0.106 6.8 94.63 6.25
8/19/2022 4:15:00 AM 21.28 70.304 0.105 6.84 96.1 5.5
8/19/2022 4:30:00 AM 21.26 70.268 0.1 6.78 105.91 6.83
8/19/2022 4:45:00 AM 21.23 70.214 0.083 6.85 89.71 5.68
8/19/2022 5:00:00 AM 21.22 70.196 0.08 6.87 50.95 6.89
8/19/2022 5:15:00 AM 21.21 70.17799 0.082 6.86 44.56 7.11
8/19/2022 5:30:00 AM 21.19 70.142 0.083 6.9 47.47 7.08
8/19/2022 5:45:00 AM 21.17 70.106 0.08 6.87 247.51 7.08
8/19/2022 6:00:00 AM 21.14 70.052 0.076 6.85 389.67 7.08
8/19/2022 6:15:00 AM 21.12 70.016 0.073 6.94 142.62 7.04
8/19/2022 6:30:00 AM 18.29 64.922 0.064 6.04 81.48 6.08
8/19/2022 6:45:00 AM 20.69 69.242 0.072 6.84 88.46 6.81
8/19/2022 7:00:00 AM 21 69.8 0.092 6.95 90.52 6.85
8/19/2022 7:15:00 AM 21.01 69.818 0.096 6.98 89.69 6.81
8/19/2022 7:30:00 AM 20.99 69.782 0.102 6.96 87.02 6.76
8/19/2022 7:45:00 AM 20.96 69.728 0.106 6.96 92.15 6.71
8/19/2022 8:00:00 AM 20.93 69.674 0.104 6.94 65.71 6.64
8/19/2022 8:15:00 AM 20.86 69.548 0.103 6.9 64.95 6.19
8/19/2022 8:30:00 AM 20.87 69.566 0.105 6.92 32.11 6.28
8/19/2022 8:45:00 AM 20.85 69.53 0.105 6.94 29.36 6.36
8/19/2022 9:00:00 AM 20.79 69.422 0.11 6.9 67.46 5.76
8/19/2022 9:15:00 AM 20.8 69.44 0.112 6.91 33.67 5.8
8/19/2022 9:30:00 AM 20.81 69.458 0.11 6.91 29.7 5.99
8/19/2022 9:45:00 AM 20.79 69.422 0.11 6.89 62.12 5.74
8/19/2022 10:00:00 AM 20.82 69.476 0.112 6.88 43.96 5.58
8/19/2022 10:15:00 AM 20.84 69.512 0.112 6.84 41.95 5.19
8/19/2022 10:30:00 AM 20.86 69.548 0.112 6.8 41.91 4.72
8/19/2022 10:45:00 AM 20.87 69.566 0.112 6.78 42.97 5.33
8/19/2022 11:00:00 AM 20.89 69.602 0.109 6.8 43.83 5.11
8/19/2022 11:15:00 AM 20.91 69.638 0.11 6.8 46.16 5.35
8/19/2022 11:30:00 AM 20.94 69.692 0.108 6.81 40.82 5.01
8/19/2022 11:45:00 AM 20.97 69.746 0.108 6.81 34.4 4.64
8/19/2022 12:00:00 PM 21 69.8 0.108 6.8 32.27 3.56
8/19/2022 12:15:00 PM 21.05 69.89 0.109 6.81 731.28 2.85
8/19/2022 12:30:00 PM 21.11 69.998 0.1 6.88 261.78 2.93
8/19/2022 12:45:00 PM 21.12 70.016 0.096 6.83 49.66 3.37
8/19/2022 1:00:00 PM 21.14 70.052 0.096 6.8 19.44 2.98
8/19/2022 1:15:00 PM 21.18 70.124 0.096 6.8 16.16 2.99
8/19/2022 1:30:00 PM 21.22 70.196 0.081 6.79 16.12 2.9
8/19/2022 1:45:00 PM 21.32 70.376 0.107 6.84 575.46 3.61
8/19/2022 2:00:00 PM 21.33 70.394 0.111 6.83 400.79 3.61
8/19/2022 2:15:00 PM 21.36 70.448 0.113 6.8 196.57 3.12
8/19/2022 2:30:00 PM 21.4 70.52 0.112 6.79 178.01 2.98
8/19/2022 2:45:00 PM 21.45 70.61 0.111 6.79 71.11 2.63
8/19/2022 3:00:00 PM 21.48 70.664 0.112 6.81 50.65 4.33
8/19/2022 3:15:00 PM 21.51 70.718 0.112 6.8 73.81 3.77
8/19/2022 3:30:00 PM 21.53 70.754 0.11 6.77 77.83 3.37
8/19/2022 3:45:00 PM 21.55 70.79 0.11 6.74 958.64 3.21
8/19/2022 4:00:00 PM 21.56 70.808 0.104 6.72 1455.85 2.62
8/19/2022 4:15:00 PM 21.58 70.844 0.076 6.72 218.41 2.12
8/19/2022 4:30:00 PM 21.62 70.916 0.091 6.81 285.61 1.45
8/19/2022 4:45:00 PM 21.62 70.916 0.108 6.8 359.02 1.58
8/19/2022 5:00:00 PM 21.68 71.024 0.109 6.84 175.48 3.28
8/19/2022 5:15:00 PM 18.77 65.786 0.094 5.91 13.09 3.09
8/19/2022 5:30:00 PM 21.27 70.286 0.108 6.65 16.01 3.04
8/19/2022 5:45:00 PM 21.61 70.898 0.109 6.74 15.91 2.99
8/19/2022 6:00:00 PM 21.66 70.988 0.11 6.71 15.84 2.6
8/19/2022 6:15:00 PM 21.67 71.006 0.109 6.72 15.36 1.73
8/19/2022 6:30:00 PM 21.67 71.006 0.109 6.71 15.65 1.69
8/19/2022 6:45:00 PM 21.68 71.024 0.109 6.7 17.84 1.33
8/19/2022 7:00:00 PM 21.68 71.024 0.111 6.7 21.52 1.06
8/19/2022 7:15:00 PM 21.68 71.024 0.111 6.7 21.3 1.12
8/19/2022 7:30:00 PM 21.69 71.042 0.111 6.7 16.94 0.85
8/19/2022 7:45:00 PM 21.69 71.042 0.111 6.71 18.7 0.72
8/19/2022 8:00:00 PM 21.7 71.06 0.11 6.7 25.91 0.64
8/19/2022 8:15:00 PM 21.7 71.06 0.109 6.7 47.76 0.72
8/19/2022 8:30:00 PM 21.71 71.078 0.107 6.71 56.54 1.94
8/19/2022 8:45:00 PM 21.72 71.096 0.105 6.71 47.41 1.85
8/19/2022 9:00:00 PM 21.73 71.114 0.104 6.71 203.35 1.36
8/19/2022 9:15:00 PM 21.84 71.312 0.101 6.71 666.94 1.07
8/19/2022 9:30:00 PM 21.88 71.384 0.099 6.8 647.03 2.97
8/19/2022 9:45:00 PM 21.85 71.33 0.098 6.76 514.04 4.1
8/19/2022 10:00:00 PM 21.83 71.294 0.097 6.76 496.03 4.24
8/19/2022 10:15:00 PM 21.81 71.258 0.096 6.74 527.85 3.05
8/19/2022 10:30:00 PM 21.81 71.258 0.093 6.73 641.74 1.98
8/19/2022 10:45:00 PM 21.8 71.24 0.098 6.72 644.79 2.84
8/19/2022 11:00:00 PM 21.79 71.222 0.103 6.71 574.78 3.3
8/19/2022 11:15:00 PM 21.78 71.204 0.102 6.71 704.58 1.97
8/19/2022 11:30:00 PM 21.78 71.204 0.099 6.76 1861.86 3.24
8/19/2022 11:45:00 PM 21.78 71.204 0.092 6.75 1449.38 3.34
8/20/2022 12:00:00 AM 21.78 71.204 0.086 6.74 1272.68 3.14
8/20/2022 12:15:00 AM 21.77 71.186 0.083 6.75 1537.48 2.16
8/20/2022 12:30:00 AM 21.78 71.204 0.081 6.77 1640.63 1.69
8/20/2022 12:45:00 AM 21.78 71.204 0.076 6.76 1767.89 1.56
8/20/2022 1:00:00 AM 21.77 71.186 0.071 6.77 1495.18 2.15
8/20/2022 1:15:00 AM 21.77 71.186 0.078 6.77 1008.32 2.17
8/20/2022 1:30:00 AM 21.77 71.186 0.081 6.76 853.37 2.76
8/20/2022 1:45:00 AM 21.86 71.348 0.079 6.82 1305.69 3.43
8/20/2022 2:00:00 AM 21.84 71.312 0.068 6.85 1444.92 3.65
8/20/2022 2:15:00 AM 21.82 71.276 0.084 6.82 1577.75 4.06
8/20/2022 2:30:00 AM 21.8 71.24 0.061 6.84 948.16 3.22
8/20/2022 2:45:00 AM 21.79 71.222 0.063 6.83 727.21 3.32
8/20/2022 3:00:00 AM 21.79 71.222 0.083 6.79 688 2.47
8/20/2022 3:15:00 AM 21.79 71.222 0.065 6.79 664.13 2.89
8/20/2022 3:30:00 AM 21.79 71.222 0.065 6.78 1050.09 3.54
8/20/2022 3:45:00 AM 21.79 71.222 0.074 6.76 1404.2 3.16
8/20/2022 4:00:00 AM 21.79 71.222 0.092 6.75 1728.32 2.43
8/20/2022 4:15:00 AM 21.8 71.24 0.093 6.74 2120.29 2.99
8/20/2022 4:30:00 AM 21.79 71.222 0.107 6.74 1930.88 3.65
8/20/2022 4:45:00 AM 21.79 71.222 0.113 6.75 1987.01 4.14
8/20/2022 5:00:00 AM 21.8 71.24 0.114 6.77 3872.33 3.2
8/20/2022 5:15:00 AM 21.8 71.24 0.074 6.79 5442.32 2.5
8/20/2022 5:30:00 AM 21.79 71.222 0.108 6.85 4360.37 2.22
8/20/2022 5:45:00 AM 21.8 71.24 0.11 6.82 938.38 2.62
8/20/2022 6:00:00 AM 21.8 71.24 0.105 6.81 216.71 2.84
8/20/2022 6:15:00 AM 21.79 71.222 0.086 6.79 62.04 2.83
8/20/2022 6:30:00 AM 18.88 65.984 0.077 5.86 33.8 2.86
8/20/2022 6:45:00 AM 21.39 70.502 0.087 6.63 62.65 2.78
8/20/2022 7:00:00 AM 21.73 71.114 0.091 6.71 44.13 2.31
8/20/2022 7:15:00 AM 21.77 71.186 0.095 6.72 67.3 1.59
8/20/2022 7:30:00 AM 21.78 71.204 0.106 6.7 62.78 2.61
8/20/2022 7:45:00 AM 21.78 71.204 0.115 6.7 77.71 2.18
8/20/2022 8:00:00 AM 21.78 71.204 0.117 6.7 425.4 0.7
8/20/2022 8:15:00 AM 21.79 71.222 0.118 6.74 499.67 0.31
8/20/2022 8:30:00 AM 21.8 71.24 0.118 6.78 985.42 1.28
8/20/2022 8:45:00 AM 21.8 71.24 0.12 6.75 403.32 1.71
8/20/2022 9:00:00 AM 21.8 71.24 0.118 6.72 306.67 0.54
8/20/2022 9:15:00 AM 21.8 71.24 0.12 6.74 862.79 0.32
8/20/2022 9:30:00 AM 21.8 71.24 0.122 6.72 1056.8 0.36
8/20/2022 9:45:00 AM 21.82 71.276 0.12 6.72 541.16 0.52
8/20/2022 10:00:00 AM 21.84 71.312 0.112 6.76 256.76 1.22
8/20/2022 10:15:00 AM 21.83 71.294 0.101 6.75 243.37 1.5
8/20/2022 10:30:00 AM 21.83 71.294 0.116 6.73 347.96 0.84
8/20/2022 10:45:00 AM 21.85 71.33 0.09 6.73 490.84 0.41
8/20/2022 11:00:00 AM 21.89 71.402 0.114 6.75 201.58 0.39
8/20/2022 11:15:00 AM 21.9 71.42 0.118 6.73 68.92 1.02
8/20/2022 11:30:00 AM 21.92 71.456 0.121 6.72 70.99 0.66
8/20/2022 11:45:00 AM 21.94 71.492 0.124 6.72 112.1 0.32
8/20/2022 12:00:00 PM 21.96 71.528 0.125 6.7 90.29 0.25
8/20/2022 12:15:00 PM 21.99 71.582 0.125 6.72 84.16 0.23
8/20/2022 12:30:00 PM 22.03 71.654 0.12 6.72 84.27 0.23
8/20/2022 12:45:00 PM 22.06 71.708 0.121 6.72 83 0.23
8/20/2022 1:00:00 PM 22.08 71.744 0.122 6.71 91.64 0.23
8/20/2022 1:15:00 PM 22.1 71.78 0.122 6.72 96.15 0.23
8/20/2022 1:30:00 PM 22.12 71.816 0.124 6.71 109.03 0.23
8/20/2022 1:45:00 PM 22.13 71.834 0.124 6.73 122.81 0.22
8/20/2022 2:00:00 PM 22.14 71.852 0.125 6.74 109.19 0.23
8/20/2022 2:15:00 PM 22.15 71.87 0.124 6.74 120.18 0.22
8/20/2022 2:30:00 PM 22.18 71.924 0.125 6.74 142.66 0.23
8/20/2022 2:45:00 PM 22.2 71.96 0.122 6.74 84 0.22
8/20/2022 3:00:00 PM 22.22 71.996 0.122 6.75 75.53 0.22
8/20/2022 3:15:00 PM 21.36 70.448 0.115 6.48 72.38 0.21
8/20/2022 3:30:00 PM 22.14 71.852 0.116 6.72 80.04 0.22
8/20/2022 3:45:00 PM 22.25 72.05 0.123 6.76 107.6 0.22
8/20/2022 4:00:00 PM 22.27 72.086 0.118 6.76 118.87 0.22
8/20/2022 4:15:00 PM 22.29 72.122 0.101 6.77 127.14 0.22
8/20/2022 4:30:00 PM 22.31 72.158 0.093 6.77 264.83 0.23
8/20/2022 4:45:00 PM 22.31 72.158 0.113 6.77 491.34 0.29
8/20/2022 5:00:00 PM 22.31 72.158 0.123 6.76 1109.51 0.3
8/20/2022 5:15:00 PM 22.31 72.158 0.128 6.77 1818.27 0.27
8/20/2022 5:30:00 PM 22.32 72.176 0.126 6.77 1147.94 0.24
8/20/2022 5:45:00 PM 22.34 72.212 0.125 6.79 255.29 0.36
8/20/2022 6:00:00 PM 22.33 72.194 0.128 6.77 7443.42 0.36
8/20/2022 6:15:00 PM 22.33 72.194 0.129 6.77 4476.88 0.24
8/20/2022 6:30:00 PM 22.33 72.194 0.128 6.77 2863.67 0.49
8/20/2022 6:45:00 PM 22.34 72.212 0.128 6.76 2360.22 1.67
8/20/2022 7:00:00 PM 21.42 70.556 0.123 6.46 1640.79 0.65
8/20/2022 7:15:00 PM 22.22 71.996 0.128 6.71 1607.62 0.55
8/20/2022 7:30:00 PM 22.32 72.176 0.129 6.75 1612.16 0.3
8/20/2022 7:45:00 PM 22.34 72.212 0.129 6.76 1454.91 0.25
8/20/2022 8:00:00 PM 22.34 72.212 0.129 6.76 1539.53 0.8
8/20/2022 8:15:00 PM 22.34 72.212 0.128 6.78 1499.61 0.34
8/20/2022 8:30:00 PM 22.34 72.212 0.129 6.78 1493.66 0.24
8/20/2022 8:45:00 PM 22.37 72.266 0.127 6.77 1593.52 2.35
8/20/2022 9:00:00 PM 22.37 72.266 0.128 6.77 2011.01 0.84
8/20/2022 9:15:00 PM 22.37 72.266 0.126 6.76 2109.91 1.63
8/20/2022 9:30:00 PM 22.37 72.266 0.126 6.75 2076.51 2.24
8/20/2022 9:45:00 PM 22.37 72.266 0.126 6.74 1926.8 0.65
8/20/2022 10:00:00 PM 22.37 72.266 0.128 6.74 1852.44 0.37
8/20/2022 10:15:00 PM 22.36 72.248 0.128 6.75 1796.28 0.25
8/20/2022 10:30:00 PM 22.36 72.248 0.127 6.75 1777.33 0.23
8/20/2022 10:45:00 PM 20.81 69.458 0.116 6.29 1609.65 0.21
8/20/2022 11:00:00 PM 22.15 71.87 0.126 6.7 1506.76 0.22
8/20/2022 11:15:00 PM 22.33 72.194 0.125 6.75 1475.42 0.22
8/20/2022 11:30:00 PM 22.36 72.248 0.123 6.76 1499.2 0.22
8/20/2022 11:45:00 PM 22.37 72.266 0.085 6.76 380.88 0.33
8/21/2022 12:00:00 AM 22.37 72.266 0.116 6.77 130.22 0.56
8/21/2022 12:15:00 AM 22.36 72.248 0.121 6.77 68.59 0.28
8/21/2022 12:30:00 AM 22.37 72.266 0.122 6.77 61.79 1.04
8/21/2022 12:45:00 AM 22.37 72.266 0.124 6.77 64.07 0.41
8/21/2022 1:00:00 AM 22.38 72.284 0.124 6.77 531.37 0.26
8/21/2022 1:15:00 AM 22.39 72.302 0.124 6.77 419.15 0.23
8/21/2022 1:30:00 AM 22.39 72.302 0.124 6.77 443.65 0.25
8/21/2022 1:45:00 AM 22.39 72.302 0.124 6.77 510.38 0.25
8/21/2022 2:00:00 AM 22.39 72.302 0.125 6.76 584.87 0.74
8/21/2022 2:15:00 AM 22.39 72.302 0.125 6.76 603.71 0.94
8/21/2022 2:30:00 AM 22.39 72.302 0.125 6.76 616.66 0.73
8/21/2022 2:45:00 AM 22.38 72.284 0.124 6.76 539.29 0.35
8/21/2022 3:00:00 AM 22.38 72.284 0.125 6.76 539.67 0.26
8/21/2022 3:15:00 AM 22.38 72.284 0.124 6.76 529.45 0.27
8/21/2022 3:30:00 AM 22.37 72.266 0.123 6.77 737.21 0.64
8/21/2022 3:45:00 AM 22.37 72.266 0.122 6.77 814.31 0.39
8/21/2022 4:00:00 AM 22.36 72.248 0.122 6.76 847.78 0.71
8/21/2022 4:15:00 AM 22.36 72.248 0.121 6.77 633.96 0.3
8/21/2022 4:30:00 AM 22.35 72.23 0.119 6.77 518.29 0.23
8/21/2022 4:45:00 AM 22.34 72.212 0.119 6.76 413.98 0.22
8/21/2022 5:00:00 AM 22.35 72.23 0.119 6.76 414.47 0.22
8/21/2022 5:15:00 AM 22.35 72.23 0.119 6.76 438.83 0.22
8/21/2022 5:30:00 AM 22.37 72.266 0.112 6.77 1565.6 0.75
8/21/2022 5:45:00 AM 22.37 72.266 0.113 6.74 1629.52 0.33
8/21/2022 6:00:00 AM 22.37 72.266 0.113 6.74 1600.28 0.24
8/21/2022 6:15:00 AM 22.37 72.266 0.113 6.73 1730.04 0.22
8/21/2022 6:30:00 AM 22.37 72.266 0.113 6.73 2338.17 0.22
8/21/2022 6:45:00 AM 22.36 72.248 0.113 6.74 2991.72 0.22
8/21/2022 7:00:00 AM 22.36 72.248 0.113 6.74 3117.6 0.22
8/21/2022 7:15:00 AM 22.35 72.23 0.112 6.74 3325.17 0.22
8/21/2022 7:30:00 AM 22.34 72.212 0.11 6.74 3544.58 0.22
8/21/2022 7:45:00 AM 22.34 72.212 0.11 6.74 3061.99 0.22
8/21/2022 8:00:00 AM 22.33 72.194 0.109 6.73 3730.57 0.22
8/21/2022 8:15:00 AM 22.33 72.194 0.107 6.73 4171.77 0.22
8/21/2022 8:30:00 AM 22.32 72.176 0.105 6.74 6076.68 0.22
8/21/2022 8:45:00 AM 22.32 72.176 0.101 6.75 8191.19 0.22
8/21/2022 9:00:00 AM 22.31 72.158 0.098 6.74 3521.64 0.22
8/21/2022 9:15:00 AM 22.31 72.158 0.098 6.75 2355.51 0.22
8/21/2022 9:30:00 AM 22.31 72.158 0.1 6.75 2424.1 0.22
8/21/2022 9:45:00 AM 22.31 72.158 0.104 6.74 1904.97 0.22
8/21/2022 10:00:00 AM 22.32 72.176 0.102 6.75 1926.91 0.22
8/21/2022 10:15:00 AM 22.33 72.194 0.106 6.75 1952.72 0.22
8/21/2022 10:30:00 AM 22.34 72.212 0.107 6.77 528.63 0.22
8/21/2022 10:45:00 AM 22.36 72.248 0.107 6.76 210.93 0.26
8/21/2022 11:00:00 AM 22.36 72.248 0.102 6.75 99.97 0.23
8/21/2022 11:15:00 AM 22.37 72.266 0.102 6.75 98.1 0.22
8/21/2022 11:30:00 AM 20.88 69.584 0.093 6.3 616.89 0.2
8/21/2022 11:45:00 AM 22.18 71.924 0.099 6.69 7044.71 0.22
8/21/2022 12:00:00 PM 22.37 72.266 0.099 6.73 1355.86 0.22
8/21/2022 12:15:00 PM 22.41 72.338 0.098 6.76 688.54 0.22
8/21/2022 12:30:00 PM 22.42 72.356 0.097 6.77 546.78 0.22
8/21/2022 12:45:00 PM 22.43 72.374 0.099 6.77 86.03 0.22
8/21/2022 1:00:00 PM 22.43 72.374 0.1 6.77 222.97 0.22
8/21/2022 1:15:00 PM 22.43 72.374 0.104 6.76 194.78 0.64
8/21/2022 1:30:00 PM 22.44 72.392 0.101 6.77 131.27 1.06
8/21/2022 1:45:00 PM 22.44 72.392 0.1 6.76 103.6 0.4
8/21/2022 2:00:00 PM 22.45 72.41 0.1 6.75 91.47 0.25
8/21/2022 2:15:00 PM 22.47 72.446 0.102 6.76 78.49 0.22
8/21/2022 2:30:00 PM 22.48 72.464 0.103 6.78 209.82 0.23
8/21/2022 2:45:00 PM 22.5 72.5 0.102 6.78 278.14 0.22
8/21/2022 3:00:00 PM 22.52 72.536 0.103 6.78 137.55 0.22
8/21/2022 3:15:00 PM 22.54 72.57201 0.104 6.78 120.33 0.22
8/21/2022 3:30:00 PM 22.55 72.59 0.102 6.78 125.12 0.22
8/21/2022 3:45:00 PM 22.56 72.608 0.102 6.78 122.67 0.22
8/21/2022 4:00:00 PM 22.57 72.626 0.103 6.78 845.86 0.22
8/21/2022 4:15:00 PM 22.57 72.626 0.108 6.77 292.89 0.22
8/21/2022 4:30:00 PM 22.58 72.644 0.11 6.82 204.99 0.22
8/21/2022 4:45:00 PM 21.69 71.042 0.104 6.54 188.2 0.21
8/21/2022 5:00:00 PM 22.46 72.42799 0.113 6.81 185.79 0.22
8/21/2022 5:15:00 PM 22.57 72.626 0.115 6.85 182.51 0.22
8/21/2022 5:30:00 PM 22.58 72.644 0.115 6.86 165.18 0.22
8/21/2022 5:45:00 PM 22.58 72.644 0.116 6.87 149.87 0.22
8/21/2022 6:00:00 PM 22.58 72.644 0.116 6.88 147.2 0.22
8/21/2022 6:15:00 PM 22.58 72.644 0.116 6.87 175.41 0.22
8/21/2022 6:30:00 PM 22.58 72.644 0.116 6.86 156.98 0.22
8/21/2022 6:45:00 PM 22.58 72.644 0.116 6.87 160.92 0.22
8/21/2022 7:00:00 PM 22.58 72.644 0.116 6.89 181.59 0.22
8/21/2022 7:15:00 PM 22.58 72.644 0.116 6.88 207.22 0.22
8/21/2022 7:30:00 PM 22.57 72.626 0.116 6.88 969.99 0.22
8/21/2022 7:45:00 PM 22.57 72.626 0.116 6.86 2834.06 0.22
8/21/2022 8:00:00 PM 22.57 72.626 0.113 6.87 3444.74 0.22
8/21/2022 8:15:00 PM 22.56 72.608 0.112 6.87 3514.02 0.22
8/21/2022 8:30:00 PM 22.56 72.608 0.111 6.85 3530.62 0.22
8/21/2022 8:45:00 PM 20.99 69.782 0.104 6.35 3402.15 0.2
8/21/2022 9:00:00 PM 22.34 72.212 0.115 6.8 4090.42 0.21
8/21/2022 9:15:00 PM 22.52 72.536 0.109 6.85 4322.09 0.22
8/21/2022 9:30:00 PM 22.55 72.59 0.111 6.85 4397.45 0.22
8/21/2022 9:45:00 PM 22.55 72.59 0.109 6.85 4545.2 0.22
8/21/2022 10:00:00 PM 22.55 72.59 0.106 6.84 2748.04 0.22
8/21/2022 10:15:00 PM 22.54 72.57201 0.103 6.82 4416.49 0.22
8/21/2022 10:30:00 PM 22.54 72.57201 0.096 6.82 4741.57 0.22
8/21/2022 10:45:00 PM 22.54 72.57201 0.107 6.82 895.45 0.22
8/21/2022 11:00:00 PM 22.53 72.554 0.105 6.82 3021.52 0.22
8/21/2022 11:15:00 PM 22.53 72.554 0.105 6.82 1263 0.22
8/21/2022 11:30:00 PM 19.52 67.136 0.087 5.9 910.82 0.19
8/21/2022 11:45:00 PM 22.12 71.816 0.102 6.68 1058.02 0.21
8/22/2022 12:00:00 AM 22.46 72.42799 0.102 6.78 1101.57 0.22
8/22/2022 12:15:00 AM 22.5 72.5 0.105 6.79 1252.73 0.22
8/22/2022 12:30:00 AM 22.51 72.518 0.107 6.81 1344.9 0.22
8/22/2022 12:45:00 AM 22.51 72.518 0.106 6.81 1346.32 0.22
8/22/2022 1:00:00 AM 21.62 70.916 0.097 6.53 1466.34 0.21
8/22/2022 1:15:00 AM 22.38 72.284 0.101 6.75 1559.16 0.21
8/22/2022 1:30:00 AM 22.48 72.464 0.099 6.78 1884.51 0.22
8/22/2022 1:45:00 AM 22.49 72.482 0.097 6.75 1856.9 0.22
8/22/2022 2:00:00 AM 22.49 72.482 0.096 6.77 1708.14 0.22
8/22/2022 2:15:00 AM 22.49 72.482 0.095 6.76 1702.59 0.22
8/22/2022 2:30:00 AM 22.48 72.464 0.096 6.77 1651.03 0.22
8/22/2022 2:45:00 AM 22.48 72.464 0.096 6.76 1864.77 0.22
8/22/2022 3:00:00 AM 22.48 72.464 0.095 6.77 1894.83 0.22
8/22/2022 3:15:00 AM 22.47 72.446 0.095 6.77 1938.19 0.22
8/22/2022 3:30:00 AM 22.47 72.446 0.092 6.79 2881.35 0.22
8/22/2022 3:45:00 AM 22.47 72.446 0.088 6.79 3071.19 0.22
8/22/2022 4:00:00 AM 22.46 72.42799 0.085 6.77 3111.9 0.22
8/22/2022 4:15:00 AM 22.46 72.42799 0.085 6.78 3123.02 0.22
8/22/2022 4:30:00 AM 22.46 72.42799 0.085 6.79 3190.33 0.22
8/22/2022 4:45:00 AM 22.45 72.41 0.086 6.79 3240.21 0.22
8/22/2022 5:00:00 AM 21.57 70.826 0.082 6.52 3183.17 0.21
8/22/2022 5:15:00 AM 22.34 72.212 0.088 6.76 3387.86 0.21
8/22/2022 5:30:00 AM 22.45 72.41 0.087 6.8 3404.45 0.21
8/22/2022 5:45:00 AM 22.45 72.41 0.086 6.81 3443.55 0.22
8/22/2022 6:00:00 AM 21.47 70.646 0.08 6.47 3276.91 0.21
8/22/2022 6:15:00 AM 22.31 72.158 0.083 6.73 3494.32 0.21
8/22/2022 6:30:00 AM 22.41 72.338 0.084 6.75 3545.66 0.22
8/22/2022 6:45:00 AM 22.42 72.356 0.085 6.77 3644.59 0.22
8/22/2022 7:00:00 AM 20.86 69.548 0.08 6.27 3441.51 0.2
8/22/2022 7:15:00 AM 22.2 71.96 0.084 6.69 3743.41 0.21
8/22/2022 7:30:00 AM 22.37 72.266 0.086 6.76 4078.33 0.22
8/22/2022 7:45:00 AM 22.39 72.302 0.086 6.79 3780.48 0.22
8/22/2022 8:00:00 AM 22.39 72.302 0.085 6.78 4667.75 0.22
8/22/2022 8:15:00 AM 22.39 72.302 0.085 6.76 5250.66 0.22
8/22/2022 8:30:00 AM 22.39 72.302 0.085 6.75 5184.16 0.22
8/22/2022 8:45:00 AM 20.9 69.62 0.08 6.28 5021.44 0.2
8/22/2022 9:00:00 AM 22.19 71.942 0.085 6.66 5461.66 0.21
8/22/2022 9:15:00 AM 22.36 72.248 0.087 6.73 5533.94 0.22
8/22/2022 9:30:00 AM 22.38 72.284 0.086 6.75 5612.98 0.22
8/22/2022 9:45:00 AM 22.38 72.284 0.087 6.74 5095.9 0.22
8/22/2022 10:00:00 AM 22.38 72.284 0.087 6.76 4913.54 0.21
8/22/2022 10:15:00 AM 22.37 72.266 0.088 6.74 5026.41 0.22
8/22/2022 10:30:00 AM 22.34 72.212 0.083 6.74 5098.33 0.22
8/22/2022 10:45:00 AM 22.28 72.104 0.081 6.79 5119.53 0.22
8/22/2022 11:00:00 AM 22.22 71.996 0.079 6.84 5151.77 0.22
8/22/2022 11:15:00 AM 21.32 70.376 0.075 6.58 4816.97 0.21
8/22/2022 11:30:00 AM 22.07 71.726 0.079 6.79 4912.26 0.22
8/22/2022 11:45:00 AM 22.16 71.888 0.079 6.84 4838.06 0.22
8/22/2022 12:00:00 PM 22.17 71.906 0.079 6.81 4926.98 0.22
8/22/2022 12:15:00 PM 22.18 71.924 0.079 6.79 5073.84 0.22
8/22/2022 12:30:00 PM 22.18 71.924 0.081 6.76 5365.85 0.22
8/22/2022 12:45:00 PM 22.18 71.924 0.082 6.75 5457.92 0.22
8/22/2022 1:00:00 PM 22.19 71.942 0.083 6.75 5454.01 0.22
8/22/2022 1:15:00 PM 22.19 71.942 0.084 6.74 5457.18 0.22
8/22/2022 1:30:00 PM 22.2 71.96 0.085 6.71 5469.22 0.22
8/22/2022 1:45:00 PM 22.2 71.96 0.086 6.73 5471.51 0.22
8/22/2022 2:00:00 PM 22.21 71.978 0.087 6.74 5422.13 0.22
8/22/2022 2:15:00 PM 22.21 71.978 0.088 6.75 4814.47 0.22
8/22/2022 2:30:00 PM 22.22 71.996 0.089 6.75 4749.01 0.22
8/22/2022 2:45:00 PM 22.23 72.014 0.089 6.76 4586.22 0.22
8/22/2022 3:00:00 PM 22.23 72.014 0.09 6.77 4183.89 0.22
8/22/2022 3:15:00 PM 22.23 72.014 0.092 6.78 4492.85 0.22
8/22/2022 3:30:00 PM 22.23 72.014 0.092 6.77 4612.02 0.22
8/22/2022 3:45:00 PM 22.22 71.996 0.092 6.77 4649.71 0.22
8/22/2022 4:00:00 PM 22.21 71.978 0.092 6.76 4662.28 0.22
8/22/2022 4:15:00 PM 22.2 71.96 0.091 6.76 4692.28 0.22
8/22/2022 4:30:00 PM 22.19 71.942 0.092 6.77 4537.23 0.22
8/22/2022 4:45:00 PM 22.17 71.906 0.092 6.76 4313.18 0.22
8/22/2022 5:00:00 PM 22.16 71.888 0.092 6.77 4584.49 0.22
8/22/2022 5:15:00 PM 22.15 71.87 0.092 6.77 4546.09 0.22
8/22/2022 5:30:00 PM 22.14 71.852 0.093 6.8 4605.62 0.22
8/22/2022 5:45:00 PM 22.13 71.834 0.095 6.79 4677.45 0.22
8/22/2022 6:00:00 PM 22.12 71.816 0.095 6.79 4674.57 0.22
8/22/2022 6:15:00 PM 22.11 71.798 0.094 6.79 4660.38 0.22
8/22/2022 6:30:00 PM 22.1 71.78 0.097 6.82 4720.32 0.22
8/22/2022 6:45:00 PM 22.09 71.762 0.095 6.83 4759.57 0.22
8/22/2022 7:00:00 PM 22.09 71.762 0.098 6.83 4842.92 0.22
8/22/2022 7:15:00 PM 22.08 71.744 0.098 6.81 4869.5 0.22
8/22/2022 7:30:00 PM 22.07 71.726 0.096 6.79 4859.95 0.22
8/22/2022 7:45:00 PM 22.07 71.726 0.097 6.79 4897.1 0.22
8/22/2022 8:00:00 PM 22.06 71.708 0.097 6.79 4937.93 0.22
8/22/2022 8:15:00 PM 19.12 66.416 0.085 5.89 4331.93 0.19
8/22/2022 8:30:00 PM 21.66 70.988 0.095 6.67 4900.61 0.21
8/22/2022 8:45:00 PM 22 71.6 0.097 6.79 4904.83 0.22
8/22/2022 9:00:00 PM 22.04 71.672 0.097 6.8 4931.58 0.22
8/22/2022 9:15:00 PM 22.04 71.672 0.097 6.81 4930.39 0.22
8/22/2022 9:30:00 PM 21.17 70.106 0.094 6.54 4715.77 0.21
8/22/2022 9:45:00 PM 21.92 71.456 0.096 6.75 4849.7 0.22
8/22/2022 10:00:00 PM 22.02 71.636 0.096 6.78 4875.55 0.22
8/22/2022 10:15:00 PM 22.03 71.654 0.097 6.8 4887.75 0.22
8/22/2022 10:30:00 PM 22.02 71.636 0.096 6.79 4944.45 0.22
8/22/2022 10:45:00 PM 22.02 71.636 0.097 6.79 5039.95 0.22
8/22/2022 11:00:00 PM 22.02 71.636 0.097 6.8 5167.84 0.22
8/22/2022 11:15:00 PM 22.02 71.636 0.098 6.8 5302.7 0.22
8/22/2022 11:30:00 PM 22.02 71.636 0.097 6.8 5362.71 0.22
8/22/2022 11:45:00 PM 22.03 71.654 0.097 6.8 5372.6 0.22
8/23/2022 12:00:00 AM 22.03 71.654 0.098 6.83 5431.8 0.22
8/23/2022 12:15:00 AM 22.03 71.654 0.1 6.83 5388.41 0.22
8/23/2022 12:30:00 AM 22.03 71.654 0.101 6.84 5498.71 0.22
8/23/2022 12:45:00 AM 22.03 71.654 0.1 6.82 5487.69 0.22
8/23/2022 1:00:00 AM 22.02 71.636 0.101 6.82 5464.39 0.22
8/23/2022 1:15:00 AM 22.02 71.636 0.101 6.82 5467.98 0.22
8/23/2022 1:30:00 AM 22.01 71.618 0.1 6.8 5513.82 0.22
8/23/2022 1:45:00 AM 22 71.6 0.1 6.81 2445.1 0.22
8/23/2022 2:00:00 AM 21.99 71.582 0.1 6.82 2019.73 0.22
8/23/2022 2:15:00 AM 21.99 71.582 0.099 6.81 1933.87 0.22
8/23/2022 2:30:00 AM 21.98 71.564 0.096 6.81 2024.61 0.22
8/23/2022 2:45:00 AM 21.97 71.546 0.097 6.8 2071.87 0.22
8/23/2022 3:00:00 AM 20.58 69.044 0.09 6.39 1994.45 0.21
8/23/2022 3:15:00 AM 21.77 71.186 0.095 6.76 2139.35 0.22
8/23/2022 3:30:00 AM 21.92 71.456 0.096 6.81 2191.93 0.22
8/23/2022 3:45:00 AM 21.93 71.474 0.097 6.81 2183.23 0.22
8/23/2022 4:00:00 AM 21.92 71.456 0.097 6.81 2181.95 0.22
8/23/2022 4:15:00 AM 21.92 71.456 0.097 6.81 2194.51 0.22
8/23/2022 4:30:00 AM 21.91 71.438 0.095 6.81 2198.69 0.22
8/23/2022 4:45:00 AM 20.68 69.224 0.09 6.43 2075.94 0.21
8/23/2022 5:00:00 AM 21.74 71.132 0.095 6.78 2261.08 0.22
8/23/2022 5:15:00 AM 21.87 71.366 0.098 6.84 2280.94 0.22
8/23/2022 5:30:00 AM 21.89 71.402 0.1 6.87 2283.12 0.22
8/23/2022 5:45:00 AM 21.88 71.384 0.1 6.86 2451.21 0.22
8/23/2022 6:00:00 AM 21.88 71.384 0.099 6.85 2517.6 0.22
8/23/2022 6:15:00 AM 21.87 71.366 0.097 6.83 2644.99 0.22
8/23/2022 6:30:00 AM 21.87 71.366 0.094 6.82 2580.88 0.24
8/23/2022 6:45:00 AM 21.86 71.348 0.092 6.82 2530.09 0.31
8/23/2022 7:00:00 AM 21.86 71.348 0.092 6.81 2367.87 0.41
8/23/2022 7:15:00 AM 21.85 71.33 0.092 6.81 2346.02 0.45
8/23/2022 7:30:00 AM 21.84 71.312 0.09 6.79 2318.92 0.34
8/23/2022 7:45:00 AM 21.84 71.312 0.089 6.8 2312.46 0.38
8/23/2022 8:00:00 AM 21.83 71.294 0.088 6.79 2307.46 0.41
8/23/2022 8:15:00 AM 21.83 71.294 0.089 6.78 2277.67 0.46
8/23/2022 8:30:00 AM 21.82 71.276 0.087 6.77 2306.81 0.44
8/23/2022 8:45:00 AM 21.82 71.276 0.086 6.77 2282.4 0.49
8/23/2022 9:00:00 AM 21.82 71.276 0.087 6.78 2271.11 0.54
8/23/2022 9:15:00 AM 21.81 71.258 0.087 6.74 2304.08 0.52
8/23/2022 9:30:00 AM 21.81 71.258 0.087 6.75 2268.34 0.49
8/23/2022 9:45:00 AM 21.81 71.258 0.087 6.74 2284.98 0.46
8/23/2022 10:00:00 AM 21.81 71.258 0.088 6.75 2254.88 0.28
8/23/2022 10:15:00 AM 21.81 71.258 0.088 6.77 2315.05 0.23
8/23/2022 10:30:00 AM 21.81 71.258 0.089 6.8 2223.05 0.22
8/23/2022 10:45:00 AM 21.81 71.258 0.091 6.83 2449.33 0.22
8/23/2022 11:00:00 AM 21.81 71.258 0.093 6.83 2523.84 0.22
8/23/2022 11:15:00 AM 20.37 68.666 0.09 6.37 2350.09 0.2
8/23/2022 11:30:00 AM 21.63 70.934 0.097 6.77 3026.53 0.22
8/23/2022 11:45:00 AM 21.8 71.24 0.099 6.82 2950.58 0.22
8/23/2022 12:00:00 PM 21.84 71.312 0.1 6.84 2536.46 0.22
8/23/2022 12:15:00 PM 21.86 71.348 0.095 6.82 2359.45 0.22
8/23/2022 12:30:00 PM 21.89 71.402 0.095 6.83 2178.34 0.22
8/23/2022 12:45:00 PM 20.73 69.314 0.09 6.46 1191.2 0.21
8/23/2022 1:00:00 PM 21.78 71.204 0.098 6.76 2114.18 0.22
8/23/2022 1:15:00 PM 21.95 71.51 0.098 6.81 2891.07 0.22
8/23/2022 1:30:00 PM 21.99 71.582 0.096 6.82 2989.57 0.22
8/23/2022 1:45:00 PM 22.02 71.636 0.095 6.83 3175.89 0.22
8/23/2022 2:00:00 PM 22.05 71.69 0.095 6.83 3208.16 0.22
8/23/2022 2:15:00 PM 22.07 71.726 0.095 6.82 3074.85 0.22
8/23/2022 2:30:00 PM 20.66 69.188 0.088 6.37 2621.91 0.2
8/23/2022 2:45:00 PM 21.92 71.456 0.096 6.76 2690.64 0.22
8/23/2022 3:00:00 PM 22.11 71.798 0.099 6.85 2660.81 0.22
8/23/2022 3:15:00 PM 22.16 71.888 0.099 6.86 2674.15 0.22
8/23/2022 3:30:00 PM 22.18 71.924 0.099 6.85 2799.36 0.22
8/23/2022 3:45:00 PM 22.2 71.96 0.099 6.84 3007.85 0.22
8/23/2022 4:00:00 PM 22.22 71.996 0.099 6.84 2986.07 0.22
8/23/2022 4:15:00 PM 22.23 72.014 0.1 6.86 2933.16 0.22
8/23/2022 4:30:00 PM 22.25 72.05 0.102 6.9 2920.3 0.22
8/23/2022 4:45:00 PM 22.26 72.068 0.102 6.88 2867.56 0.22
8/23/2022 5:00:00 PM 22.28 72.104 0.101 6.87 2877.75 0.22
8/23/2022 5:15:00 PM 22.29 72.122 0.1 6.86 2806.29 0.22
8/23/2022 5:30:00 PM 22.3 72.14 0.1 6.85 2661.19 0.22
8/23/2022 5:45:00 PM 22.31 72.158 0.097 6.84 2718.95 0.22
8/23/2022 6:00:00 PM 22.31 72.158 0.099 6.84 2777.07 0.22
8/23/2022 6:15:00 PM 22.32 72.176 0.099 6.85 2804.51 0.22
8/23/2022 6:30:00 PM 22.32 72.176 0.098 6.84 2790.2 0.22
8/23/2022 6:45:00 PM 22.32 72.176 0.097 6.84 2731.17 0.22
8/23/2022 7:00:00 PM 22.32 72.176 0.097 6.83 2718.63 0.22
8/23/2022 7:15:00 PM 22.32 72.176 0.097 6.82 2752.98 0.22
8/23/2022 7:30:00 PM 22.32 72.176 0.098 6.83 2728.2 0.22
8/23/2022 7:45:00 PM 22.32 72.176 0.098 6.83 2766.94 0.22
8/23/2022 8:00:00 PM 22.32 72.176 0.101 6.85 2743.51 0.22
8/23/2022 8:15:00 PM 22.32 72.176 0.098 6.83 2467.09 0.22
8/23/2022 8:30:00 PM 22.34 72.212 0.09 6.77 2475.49 0.23
8/23/2022 8:45:00 PM 22.34 72.212 0.09 6.74 2526.87 0.25
8/23/2022 9:00:00 PM 19.37 66.866 0.08 5.83 2333.36 0.19
8/23/2022 9:15:00 PM 21.95 71.51 0.092 6.63 2446.63 0.21
8/23/2022 9:30:00 PM 22.31 72.158 0.094 6.72 2561.63 0.22
8/23/2022 9:45:00 PM 22.35 72.23 0.094 6.71 2642.08 0.24
8/23/2022 10:00:00 PM 22.36 72.248 0.093 6.71 2595.89 0.23
8/23/2022 10:15:00 PM 22.36 72.248 0.093 6.72 2663.48 0.22
8/23/2022 10:30:00 PM 22.36 72.248 0.093 6.76 2605.91 0.22
8/23/2022 10:45:00 PM 22.36 72.248 0.095 6.79 2520.2 0.22
8/23/2022 11:00:00 PM 22.37 72.266 0.094 6.8 2494.86 0.22
8/23/2022 11:15:00 PM 22.37 72.266 0.095 6.79 2406.73 0.22
8/23/2022 11:30:00 PM 22.37 72.266 0.094 6.8 2424.1 0.22
8/23/2022 11:45:00 PM 21.46 70.628 0.091 6.53 2368.52 0.21
8/24/2022 12:00:00 AM 21.51 70.718 0.091 6.55 2369.41 0.21
8/24/2022 12:15:00 AM 22.27 72.086 0.094 6.78 2455.64 0.21
8/24/2022 12:30:00 AM 22.38 72.284 0.093 6.81 2484.02 0.22
8/24/2022 12:45:00 AM 22.39 72.302 0.094 6.82 2465.01 0.22
8/24/2022 1:00:00 AM 20.84 69.512 0.09 6.34 1995.22 0.2
8/24/2022 1:15:00 AM 22.19 71.942 0.095 6.67 2257.65 0.22
8/24/2022 1:30:00 AM 22.37 72.266 0.094 6.75 2336.29 0.22
8/24/2022 1:45:00 AM 22.39 72.302 0.095 6.79 2327.05 0.22
8/24/2022 2:00:00 AM 22.39 72.302 0.095 6.8 2326.7 0.22
8/24/2022 2:15:00 AM 22.39 72.302 0.096 6.82 2311.61 0.22
8/24/2022 2:30:00 AM 22.39 72.302 0.095 6.83 2318.9 0.22
8/24/2022 2:45:00 AM 22.4 72.32 0.098 6.78 2311.64 0.22
8/24/2022 3:00:00 AM 22.39 72.302 0.098 6.75 2309.86 0.22
8/24/2022 3:15:00 AM 22.39 72.302 0.095 6.72 2360.46 0.22
8/24/2022 3:30:00 AM 22.39 72.302 0.096 6.75 2395.71 0.22
8/24/2022 3:45:00 AM 22.39 72.302 0.097 6.79 2406.2 0.22
8/24/2022 4:00:00 AM 21.01 69.818 0.091 6.39 2220.45 0.2
8/24/2022 4:15:00 AM 22.22 71.996 0.096 6.75 2202.39 0.21
8/24/2022 4:30:00 AM 22.38 72.284 0.098 6.81 2336.26 0.22
8/24/2022 4:45:00 AM 22.4 72.32 0.097 6.82 2386.64 0.22
8/24/2022 5:00:00 AM 22.4 72.32 0.098 6.81 2405.8 0.22
8/24/2022 5:15:00 AM 21.52 70.736 0.09 6.49 2313.64 0.21
8/24/2022 5:30:00 AM 22.28 72.104 0.093 6.76 2399.47 0.21
8/24/2022 5:45:00 AM 22.38 72.284 0.093 6.81 2396.1 0.22
8/24/2022 6:00:00 AM 19.42 66.956 0.081 5.89 2090.93 0.19
8/24/2022 6:15:00 AM 22 71.6 0.091 6.71 2403.37 0.21
8/24/2022 6:30:00 AM 22.35 72.23 0.093 6.84 2425.88 0.22
8/24/2022 6:45:00 AM 22.4 72.32 0.093 6.81 2543.07 0.22
8/24/2022 7:00:00 AM 22.41 72.338 0.095 6.84 2639.66 0.22
8/24/2022 7:15:00 AM 22.42 72.356 0.094 6.81 2675.59 0.22
8/24/2022 7:30:00 AM 22.43 72.374 0.095 6.83 2696.98 0.22
8/24/2022 7:45:00 AM 22.43 72.374 0.094 6.82 2718.41 0.22
8/24/2022 8:00:00 AM 22.44 72.392 0.096 6.83 2709.99 0.22
8/24/2022 8:15:00 AM 22.44 72.392 0.098 6.83 2676.99 0.22
8/24/2022 8:30:00 AM 22.44 72.392 0.098 6.83 2584.88 0.22
8/24/2022 8:45:00 AM 22.43 72.374 0.098 6.84 2525.33 0.22
8/24/2022 9:00:00 AM 22.43 72.374 0.099 6.85 2516.12 0.22
8/24/2022 9:15:00 AM 22.42 72.356 0.099 6.85 2523.68 0.22
8/24/2022 9:30:00 AM 22.41 72.338 0.099 6.86 2500.57 0.22
8/24/2022 9:45:00 AM 22.41 72.338 0.096 6.82 2511.91 0.22
8/24/2022 10:00:00 AM 22.4 72.32 0.096 6.83 2494.02 0.22
8/24/2022 10:15:00 AM 22.4 72.32 0.096 6.84 2462.84 0.22
8/24/2022 10:30:00 AM 22.4 72.32 0.098 6.83 2549.1 0.22
8/24/2022 10:45:00 AM 21.52 70.736 0.095 6.56 2535.37 0.21
8/24/2022 11:00:00 AM 21.53 70.754 0.095 6.57 2523.82 0.21
8/24/2022 11:15:00 AM 22.29 72.122 0.099 6.81 2639.22 0.21
8/24/2022 11:30:00 AM 22.41 72.338 0.101 6.85 2693.7 0.21
8/24/2022 11:45:00 AM 22.43 72.374 0.101 6.87 2755.89 0.22
8/24/2022 12:00:00 PM 22.46 72.42799 0.098 6.85 2714.76 0.22
8/24/2022 12:15:00 PM 22.48 72.464 0.098 6.85 2706.92 0.22
8/24/2022 12:30:00 PM 22.51 72.518 0.1 6.86 2724.17 0.22
8/24/2022 12:45:00 PM 22.53 72.554 0.101 6.88 2728.12 0.22
8/24/2022 1:00:00 PM 22.56 72.608 0.1 6.87 2696.55 0.22
8/24/2022 1:15:00 PM 22.58 72.644 0.102 6.9 2134 0.22
8/24/2022 1:30:00 PM 22.6 72.68 0.102 6.92 1990.78 0.22
8/24/2022 1:45:00 PM 22.62 72.716 0.104 6.95 2043.99 0.22
8/24/2022 2:00:00 PM 22.64 72.752 0.107 6.98 2342.29 0.22
8/24/2022 2:15:00 PM 22.67 72.806 0.106 6.96 2386.39 0.22
8/24/2022 2:30:00 PM 22.7 72.86 0.108 6.96 2403.69 0.22
8/24/2022 2:45:00 PM 22.73 72.914 0.106 7 2439.73 0.22
8/24/2022 3:00:00 PM 22.76 72.968 0.107 7.05 2441.62 0.22
8/24/2022 3:15:00 PM 22.79 73.022 0.106 7.02 2447.08 0.21
8/24/2022 3:30:00 PM 22.81 73.058 0.104 6.98 2477.17 0.21
8/24/2022 3:45:00 PM 22.82 73.076 0.104 6.99 2516.55 0.22
8/24/2022 4:00:00 PM 22.84 73.112 0.105 6.98 2560.3 0.22
8/24/2022 4:15:00 PM 21.42 70.556 0.1 6.58 2572.42 0.2
8/24/2022 4:30:00 PM 22.67 72.806 0.103 6.94 2725.14 0.21
8/24/2022 4:45:00 PM 22.85 73.13 0.096 6.98 2762.24 0.21
8/24/2022 5:00:00 PM 22.89 73.202 0.098 7.03 2533.05 0.21
8/24/2022 5:15:00 PM 22.91 73.238 0.102 7.05 2532.1 0.21
8/24/2022 5:30:00 PM 22.93 73.274 0.101 7.04 2536.37 0.21
8/24/2022 5:45:00 PM 22.94 73.292 0.103 7.02 2556.09 0.21
8/24/2022 6:00:00 PM 22.96 73.328 0.1 7.01 2592.29 0.21
8/24/2022 6:15:00 PM 22.97 73.346 0.103 7.03 2617.41 0.21
8/24/2022 6:30:00 PM 22.97 73.346 0.102 7 2691.12 0.21
8/24/2022 6:45:00 PM 22.98 73.364 0.106 6.96 2795.19 0.21
8/24/2022 7:00:00 PM 22.98 73.364 0.108 6.99 2845.05 0.21
8/24/2022 7:15:00 PM 22.98 73.364 0.107 6.99 2892.55 0.21
8/24/2022 7:30:00 PM 22.98 73.364 0.106 6.99 2908.32 0.21
8/24/2022 7:45:00 PM 22.99 73.382 0.103 6.97 2996.56 0.21
8/24/2022 8:00:00 PM 22.99 73.382 0.103 6.94 2978.14 0.21
8/24/2022 8:15:00 PM 19.93 67.874 0.087 6 2536.62 0.18
8/24/2022 8:30:00 PM 22.58 72.644 0.098 6.79 2869.94 0.21
8/24/2022 8:45:00 PM 22.96 73.328 0.097 6.8 2910.56 0.21
8/24/2022 9:00:00 PM 23 73.4 0.097 6.79 2940.61 0.22
8/24/2022 9:15:00 PM 23.02 73.436 0.099 6.78 2937.84 0.21
8/24/2022 9:30:00 PM 23.02 73.436 0.095 6.8 2919.49 0.21
8/24/2022 9:45:00 PM 23.02 73.436 0.094 6.83 2875.63 0.21
8/24/2022 10:00:00 PM 23.05 73.49 0.093 6.82 2877.45 0.21
8/24/2022 10:15:00 PM 19.96 67.92799 0.08 5.87 2430.9 0.19
8/24/2022 10:30:00 PM 22.65 72.77 0.086 6.64 2769.33 0.23
8/24/2022 10:45:00 PM 22.99 73.382 0.087 6.72 2513.51 0.27
8/24/2022 11:00:00 PM 22.09 71.762 0.085 6.47 2765.43 0.22
8/24/2022 11:15:00 PM 22.91 73.238 0.091 6.68 2884.52 0.21
8/24/2022 11:30:00 PM 23.01 73.418 0.091 6.73 2877.7 0.21
8/24/2022 11:45:00 PM 23.03 73.454 0.092 6.74 2863.05 0.21
8/25/2022 12:00:00 AM 23.03 73.454 0.094 6.74 2882.32 0.21
8/25/2022 12:15:00 AM 23.03 73.454 0.093 6.77 2888.03 0.21
8/25/2022 12:30:00 AM 19.96 67.92799 0.081 5.88 2519.56 0.19
8/25/2022 12:45:00 AM 22.62 72.716 0.092 6.67 2847.89 0.21
8/25/2022 1:00:00 AM 18.01 64.418 0.073 5.3 2291.78 0.17
8/25/2022 1:15:00 AM 22.08 71.744 0.088 6.51 2813.78 0.2
8/25/2022 1:30:00 AM 22.1 71.78 0.087 6.52 2808.02 0.2
8/25/2022 1:45:00 AM 19.97 67.946 0.078 5.88 2498.64 0.18
8/25/2022 2:00:00 AM 21.75 71.15 0.086 6.41 2736.09 0.2
8/25/2022 2:15:00 AM 22.86 73.148 0.09 6.74 2851.36 0.21
8/25/2022 2:30:00 AM 21.89 71.402 0.086 6.48 2716.51 0.2
8/25/2022 2:45:00 AM 21.68 71.024 0.084 6.4 2693.85 0.2
8/25/2022 3:00:00 AM 22.84 73.112 0.089 6.72 2862.8 0.21
8/25/2022 3:15:00 AM 22.99 73.382 0.089 6.74 2750.99 0.21
8/25/2022 3:30:00 AM 23.01 73.418 0.093 6.71 2662.39 0.22
8/25/2022 3:45:00 AM 23 73.4 0.091 6.72 2604.06 0.22
8/25/2022 4:00:00 AM 22.99 73.382 0.091 6.7 2488.52 0.22
8/25/2022 4:15:00 AM 19.93 67.874 0.079 5.81 2100.82 0.19
8/25/2022 4:30:00 AM 22.57 72.626 0.09 6.59 2388.7 0.21
8/25/2022 4:45:00 AM 22.91 73.238 0.09 6.71 2321.81 0.21
8/25/2022 5:00:00 AM 22.95 73.31 0.09 6.73 2249.55 0.21
8/25/2022 5:15:00 AM 22.94 73.292 0.096 6.72 2417.94 0.21
8/25/2022 5:30:00 AM 22.93 73.274 0.095 6.72 2279.37 0.21
8/25/2022 5:45:00 AM 22.91 73.238 0.095 6.77 2196.47 0.21
8/25/2022 6:00:00 AM 22.9 73.22 0.096 6.8 2174.11 0.21
8/25/2022 6:15:00 AM 22.88 73.184 0.094 6.77 2206.01 0.21
8/25/2022 6:30:00 AM 22.87 73.166 0.093 6.75 2221.07 0.22
8/25/2022 6:45:00 AM 22.85 73.13 0.094 6.72 2160.73 0.21
8/25/2022 7:00:00 AM 21.48 70.664 0.087 6.29 2026.05 0.2
8/25/2022 7:15:00 AM 19.8 67.64 0.081 5.81 1718.45 0.19
8/25/2022 7:30:00 AM 21.83 71.294 0.09 6.41 1939.38 0.21
8/25/2022 7:45:00 AM 19.8 67.64 0.082 5.84 1707.02 0.19
8/25/2022 8:00:00 AM 19.8 67.64 0.083 5.84 1870.26 0.19
8/25/2022 8:15:00 AM 22.42 72.356 0.094 6.62 2058.74 0.21
8/25/2022 8:30:00 AM 22.75 72.95 0.095 6.74 2078.01 0.21
8/25/2022 8:45:00 AM 22.78<